<?xml version="1.0" encoding="UTF-8" standalone="no" ?>
<gpx xmlns="http://www.topografix.com/GPX/1/1" xmlns:xsi="http://www.w3.org/2001/XMLSchema-instance" xsi:schemaLocation="http://www.topografix.com/GPX/1/1 http://www.topografix.com/GPX/1/1/gpx.xsd" version="1.1" creator="VisuGPX - https://www.visugpx.com">
  <metadata>
    <name>P'tit tour CAP</name>
    <desc><![CDATA[P'tit tour CAP______________________]]></desc>
  </metadata>
  <trk>
    <name><![CDATA[tit tour]]></name>
    <trkseg>
      <trkpt lat="47.51816" lon="6.77487">
        <ele>382.8</ele>
        <time>2017-10-04T16:10:34Z</time>
      </trkpt>
      <trkpt lat="47.5181" lon="6.77476">
        <ele>382.7</ele>
        <time>2017-10-04T16:10:52Z</time>
      </trkpt>
      <trkpt lat="47.51799" lon="6.77478">
        <ele>383.1</ele>
        <time>2017-10-04T16:13:02Z</time>
      </trkpt>
      <trkpt lat="47.51811" lon="6.77486">
        <ele>382.8</ele>
        <time>2017-10-04T16:13:40Z</time>
      </trkpt>
      <trkpt lat="47.51814" lon="6.77491">
        <ele>382.7</ele>
        <time>2017-10-04T16:13:42Z</time>
      </trkpt>
      <trkpt lat="47.51818" lon="6.77494">
        <ele>382.6</ele>
        <time>2017-10-04T16:13:44Z</time>
      </trkpt>
      <trkpt lat="47.51822" lon="6.77497">
        <ele>382.5</ele>
        <time>2017-10-04T16:13:46Z</time>
      </trkpt>
      <trkpt lat="47.51827" lon="6.775">
        <ele>382.4</ele>
        <time>2017-10-04T16:13:48Z</time>
      </trkpt>
      <trkpt lat="47.51831" lon="6.77501">
        <ele>382.5</ele>
        <time>2017-10-04T16:13:50Z</time>
      </trkpt>
      <trkpt lat="47.51836" lon="6.775">
        <ele>382.6</ele>
        <time>2017-10-04T16:13:52Z</time>
      </trkpt>
      <trkpt lat="47.51839" lon="6.775">
        <ele>382.8</ele>
        <time>2017-10-04T16:13:53Z</time>
      </trkpt>
      <trkpt lat="47.51844" lon="6.77501">
        <ele>383</ele>
        <time>2017-10-04T16:13:55Z</time>
      </trkpt>
      <trkpt lat="47.51848" lon="6.77501">
        <ele>383.1</ele>
        <time>2017-10-04T16:13:56Z</time>
      </trkpt>
      <trkpt lat="47.51852" lon="6.77499">
        <ele>383.3</ele>
        <time>2017-10-04T16:13:58Z</time>
      </trkpt>
      <trkpt lat="47.51857" lon="6.77497">
        <ele>383.4</ele>
        <time>2017-10-04T16:14:00Z</time>
      </trkpt>
      <trkpt lat="47.51859" lon="6.77498">
        <ele>383.5</ele>
        <time>2017-10-04T16:14:01Z</time>
      </trkpt>
      <trkpt lat="47.51862" lon="6.77498">
        <ele>383.7</ele>
        <time>2017-10-04T16:14:02Z</time>
      </trkpt>
      <trkpt lat="47.51865" lon="6.775">
        <ele>383.9</ele>
        <time>2017-10-04T16:14:03Z</time>
      </trkpt>
      <trkpt lat="47.51868" lon="6.77501">
        <ele>384.2</ele>
        <time>2017-10-04T16:14:04Z</time>
      </trkpt>
      <trkpt lat="47.51873" lon="6.77502">
        <ele>384.4</ele>
        <time>2017-10-04T16:14:06Z</time>
      </trkpt>
      <trkpt lat="47.51878" lon="6.77502">
        <ele>384.6</ele>
        <time>2017-10-04T16:14:08Z</time>
      </trkpt>
      <trkpt lat="47.5188" lon="6.77502">
        <ele>384.8</ele>
        <time>2017-10-04T16:14:09Z</time>
      </trkpt>
      <trkpt lat="47.51887" lon="6.77504">
        <ele>385.2</ele>
        <time>2017-10-04T16:14:10Z</time>
      </trkpt>
      <trkpt lat="47.5189" lon="6.77505">
        <ele>385.3</ele>
        <time>2017-10-04T16:14:11Z</time>
      </trkpt>
      <trkpt lat="47.51893" lon="6.77505">
        <ele>385.5</ele>
        <time>2017-10-04T16:14:12Z</time>
      </trkpt>
      <trkpt lat="47.51898" lon="6.77506">
        <ele>385.8</ele>
        <time>2017-10-04T16:14:14Z</time>
      </trkpt>
      <trkpt lat="47.519" lon="6.77507">
        <ele>386</ele>
        <time>2017-10-04T16:14:15Z</time>
      </trkpt>
      <trkpt lat="47.51905" lon="6.77509">
        <ele>386.3</ele>
        <time>2017-10-04T16:14:17Z</time>
      </trkpt>
      <trkpt lat="47.5191" lon="6.77511">
        <ele>386.5</ele>
        <time>2017-10-04T16:14:19Z</time>
      </trkpt>
      <trkpt lat="47.51914" lon="6.77513">
        <ele>386.8</ele>
        <time>2017-10-04T16:14:21Z</time>
      </trkpt>
      <trkpt lat="47.51919" lon="6.77515">
        <ele>387.1</ele>
        <time>2017-10-04T16:14:23Z</time>
      </trkpt>
      <trkpt lat="47.51921" lon="6.77516">
        <ele>387.3</ele>
        <time>2017-10-04T16:14:24Z</time>
      </trkpt>
      <trkpt lat="47.51925" lon="6.77517">
        <ele>387.5</ele>
        <time>2017-10-04T16:14:25Z</time>
      </trkpt>
      <trkpt lat="47.51927" lon="6.77517">
        <ele>387.7</ele>
        <time>2017-10-04T16:14:26Z</time>
      </trkpt>
      <trkpt lat="47.51933" lon="6.77519">
        <ele>388</ele>
        <time>2017-10-04T16:14:28Z</time>
      </trkpt>
      <trkpt lat="47.51936" lon="6.77519">
        <ele>388.2</ele>
        <time>2017-10-04T16:14:29Z</time>
      </trkpt>
      <trkpt lat="47.5194" lon="6.7752">
        <ele>388.3</ele>
        <time>2017-10-04T16:14:30Z</time>
      </trkpt>
      <trkpt lat="47.51943" lon="6.77521">
        <ele>388.4</ele>
        <time>2017-10-04T16:14:31Z</time>
      </trkpt>
      <trkpt lat="47.51947" lon="6.77522">
        <ele>388.4</ele>
        <time>2017-10-04T16:14:33Z</time>
      </trkpt>
      <trkpt lat="47.51953" lon="6.77524">
        <ele>388.3</ele>
        <time>2017-10-04T16:14:35Z</time>
      </trkpt>
      <trkpt lat="47.51955" lon="6.77525">
        <ele>388.2</ele>
        <time>2017-10-04T16:14:36Z</time>
      </trkpt>
      <trkpt lat="47.51958" lon="6.77526">
        <ele>388.2</ele>
        <time>2017-10-04T16:14:37Z</time>
      </trkpt>
      <trkpt lat="47.51962" lon="6.77527">
        <ele>388.2</ele>
        <time>2017-10-04T16:14:39Z</time>
      </trkpt>
      <trkpt lat="47.51967" lon="6.77527">
        <ele>388.1</ele>
        <time>2017-10-04T16:14:41Z</time>
      </trkpt>
      <trkpt lat="47.51973" lon="6.77527">
        <ele>388</ele>
        <time>2017-10-04T16:14:43Z</time>
      </trkpt>
      <trkpt lat="47.51977" lon="6.77528">
        <ele>388</ele>
        <time>2017-10-04T16:14:45Z</time>
      </trkpt>
      <trkpt lat="47.51981" lon="6.77529">
        <ele>388</ele>
        <time>2017-10-04T16:14:47Z</time>
      </trkpt>
      <trkpt lat="47.51985" lon="6.77529">
        <ele>388</ele>
        <time>2017-10-04T16:14:48Z</time>
      </trkpt>
      <trkpt lat="47.51988" lon="6.77529">
        <ele>388.1</ele>
        <time>2017-10-04T16:14:49Z</time>
      </trkpt>
      <trkpt lat="47.51993" lon="6.77528">
        <ele>388.4</ele>
        <time>2017-10-04T16:14:51Z</time>
      </trkpt>
      <trkpt lat="47.51998" lon="6.77529">
        <ele>388.6</ele>
        <time>2017-10-04T16:14:53Z</time>
      </trkpt>
      <trkpt lat="47.52002" lon="6.7753">
        <ele>388.8</ele>
        <time>2017-10-04T16:14:55Z</time>
      </trkpt>
      <trkpt lat="47.52005" lon="6.77531">
        <ele>389</ele>
        <time>2017-10-04T16:14:57Z</time>
      </trkpt>
      <trkpt lat="47.52008" lon="6.77531">
        <ele>389</ele>
        <time>2017-10-04T16:14:58Z</time>
      </trkpt>
      <trkpt lat="47.52011" lon="6.77531">
        <ele>389.1</ele>
        <time>2017-10-04T16:14:59Z</time>
      </trkpt>
      <trkpt lat="47.52015" lon="6.77531">
        <ele>389.1</ele>
        <time>2017-10-04T16:15:01Z</time>
      </trkpt>
      <trkpt lat="47.5202" lon="6.7753">
        <ele>389.2</ele>
        <time>2017-10-04T16:15:03Z</time>
      </trkpt>
      <trkpt lat="47.52025" lon="6.77529">
        <ele>389.3</ele>
        <time>2017-10-04T16:15:05Z</time>
      </trkpt>
      <trkpt lat="47.5203" lon="6.7753">
        <ele>389.3</ele>
        <time>2017-10-04T16:15:07Z</time>
      </trkpt>
      <trkpt lat="47.52035" lon="6.77532">
        <ele>389.3</ele>
        <time>2017-10-04T16:15:09Z</time>
      </trkpt>
      <trkpt lat="47.52039" lon="6.77535">
        <ele>389.3</ele>
        <time>2017-10-04T16:15:10Z</time>
      </trkpt>
      <trkpt lat="47.52044" lon="6.77537">
        <ele>389.3</ele>
        <time>2017-10-04T16:15:11Z</time>
      </trkpt>
      <trkpt lat="47.52049" lon="6.77539">
        <ele>389.2</ele>
        <time>2017-10-04T16:15:13Z</time>
      </trkpt>
      <trkpt lat="47.52054" lon="6.77542">
        <ele>389.2</ele>
        <time>2017-10-04T16:15:14Z</time>
      </trkpt>
      <trkpt lat="47.52057" lon="6.77543">
        <ele>389.2</ele>
        <time>2017-10-04T16:15:15Z</time>
      </trkpt>
      <trkpt lat="47.5206" lon="6.77544">
        <ele>389.2</ele>
        <time>2017-10-04T16:15:16Z</time>
      </trkpt>
      <trkpt lat="47.52063" lon="6.77547">
        <ele>389.2</ele>
        <time>2017-10-04T16:15:18Z</time>
      </trkpt>
      <trkpt lat="47.52067" lon="6.77549">
        <ele>389.3</ele>
        <time>2017-10-04T16:15:20Z</time>
      </trkpt>
      <trkpt lat="47.52071" lon="6.77552">
        <ele>389.3</ele>
        <time>2017-10-04T16:15:21Z</time>
      </trkpt>
      <trkpt lat="47.52075" lon="6.77555">
        <ele>389.5</ele>
        <time>2017-10-04T16:15:23Z</time>
      </trkpt>
      <trkpt lat="47.52079" lon="6.7756">
        <ele>389.8</ele>
        <time>2017-10-04T16:15:25Z</time>
      </trkpt>
      <trkpt lat="47.52081" lon="6.77563">
        <ele>389.9</ele>
        <time>2017-10-04T16:15:26Z</time>
      </trkpt>
      <trkpt lat="47.52082" lon="6.77572">
        <ele>390.3</ele>
        <time>2017-10-04T16:15:28Z</time>
      </trkpt>
      <trkpt lat="47.52084" lon="6.77576">
        <ele>390.6</ele>
        <time>2017-10-04T16:15:29Z</time>
      </trkpt>
      <trkpt lat="47.52081" lon="6.77578">
        <ele>390.8</ele>
        <time>2017-10-04T16:15:30Z</time>
      </trkpt>
      <trkpt lat="47.52081" lon="6.77583">
        <ele>391</ele>
        <time>2017-10-04T16:15:31Z</time>
      </trkpt>
      <trkpt lat="47.52082" lon="6.77588">
        <ele>391.2</ele>
        <time>2017-10-04T16:15:32Z</time>
      </trkpt>
      <trkpt lat="47.52083" lon="6.77592">
        <ele>391.4</ele>
        <time>2017-10-04T16:15:33Z</time>
      </trkpt>
      <trkpt lat="47.52084" lon="6.77597">
        <ele>391.4</ele>
        <time>2017-10-04T16:15:34Z</time>
      </trkpt>
      <trkpt lat="47.52086" lon="6.77603">
        <ele>391.5</ele>
        <time>2017-10-04T16:15:35Z</time>
      </trkpt>
      <trkpt lat="47.52088" lon="6.77608">
        <ele>391.5</ele>
        <time>2017-10-04T16:15:36Z</time>
      </trkpt>
      <trkpt lat="47.52089" lon="6.77616">
        <ele>391.7</ele>
        <time>2017-10-04T16:15:37Z</time>
      </trkpt>
      <trkpt lat="47.5209" lon="6.77623">
        <ele>391.9</ele>
        <time>2017-10-04T16:15:39Z</time>
      </trkpt>
      <trkpt lat="47.52091" lon="6.77631">
        <ele>392.2</ele>
        <time>2017-10-04T16:15:40Z</time>
      </trkpt>
      <trkpt lat="47.52092" lon="6.77635">
        <ele>392.3</ele>
        <time>2017-10-04T16:15:41Z</time>
      </trkpt>
      <trkpt lat="47.52092" lon="6.77639">
        <ele>392.4</ele>
        <time>2017-10-04T16:15:42Z</time>
      </trkpt>
      <trkpt lat="47.52093" lon="6.77643">
        <ele>392.5</ele>
        <time>2017-10-04T16:15:43Z</time>
      </trkpt>
      <trkpt lat="47.52093" lon="6.7765">
        <ele>392.7</ele>
        <time>2017-10-04T16:15:45Z</time>
      </trkpt>
      <trkpt lat="47.52094" lon="6.77658">
        <ele>392.7</ele>
        <time>2017-10-04T16:15:47Z</time>
      </trkpt>
      <trkpt lat="47.52094" lon="6.77666">
        <ele>392.8</ele>
        <time>2017-10-04T16:15:49Z</time>
      </trkpt>
      <trkpt lat="47.52094" lon="6.77671">
        <ele>392.9</ele>
        <time>2017-10-04T16:15:50Z</time>
      </trkpt>
      <trkpt lat="47.52094" lon="6.77676">
        <ele>392.9</ele>
        <time>2017-10-04T16:15:52Z</time>
      </trkpt>
      <trkpt lat="47.52098" lon="6.77677">
        <ele>392.9</ele>
        <time>2017-10-04T16:15:54Z</time>
      </trkpt>
      <trkpt lat="47.52101" lon="6.77672">
        <ele>392.7</ele>
        <time>2017-10-04T16:15:56Z</time>
      </trkpt>
      <trkpt lat="47.52104" lon="6.77669">
        <ele>392.6</ele>
        <time>2017-10-04T16:15:57Z</time>
      </trkpt>
      <trkpt lat="47.5211" lon="6.77666">
        <ele>392.3</ele>
        <time>2017-10-04T16:15:58Z</time>
      </trkpt>
      <trkpt lat="47.52115" lon="6.77662">
        <ele>392.1</ele>
        <time>2017-10-04T16:15:59Z</time>
      </trkpt>
      <trkpt lat="47.52119" lon="6.77658">
        <ele>391.8</ele>
        <time>2017-10-04T16:16:01Z</time>
      </trkpt>
      <trkpt lat="47.52124" lon="6.77656">
        <ele>391.6</ele>
        <time>2017-10-04T16:16:03Z</time>
      </trkpt>
      <trkpt lat="47.52128" lon="6.77654">
        <ele>391.3</ele>
        <time>2017-10-04T16:16:05Z</time>
      </trkpt>
      <trkpt lat="47.52131" lon="6.77652">
        <ele>391.2</ele>
        <time>2017-10-04T16:16:06Z</time>
      </trkpt>
      <trkpt lat="47.52134" lon="6.7765">
        <ele>391</ele>
        <time>2017-10-04T16:16:07Z</time>
      </trkpt>
      <trkpt lat="47.52137" lon="6.77647">
        <ele>391</ele>
        <time>2017-10-04T16:16:08Z</time>
      </trkpt>
      <trkpt lat="47.52143" lon="6.77643">
        <ele>390.8</ele>
        <time>2017-10-04T16:16:10Z</time>
      </trkpt>
      <trkpt lat="47.52146" lon="6.77642">
        <ele>390.7</ele>
        <time>2017-10-04T16:16:11Z</time>
      </trkpt>
      <trkpt lat="47.5215" lon="6.77638">
        <ele>390.6</ele>
        <time>2017-10-04T16:16:13Z</time>
      </trkpt>
      <trkpt lat="47.52154" lon="6.77635">
        <ele>390.4</ele>
        <time>2017-10-04T16:16:15Z</time>
      </trkpt>
      <trkpt lat="47.52159" lon="6.77632">
        <ele>390.1</ele>
        <time>2017-10-04T16:16:17Z</time>
      </trkpt>
      <trkpt lat="47.52164" lon="6.77629">
        <ele>389.9</ele>
        <time>2017-10-04T16:16:18Z</time>
      </trkpt>
      <trkpt lat="47.52169" lon="6.77627">
        <ele>389.6</ele>
        <time>2017-10-04T16:16:19Z</time>
      </trkpt>
      <trkpt lat="47.52172" lon="6.77625">
        <ele>389.5</ele>
        <time>2017-10-04T16:16:20Z</time>
      </trkpt>
      <trkpt lat="47.52175" lon="6.77624">
        <ele>389.3</ele>
        <time>2017-10-04T16:16:21Z</time>
      </trkpt>
      <trkpt lat="47.52177" lon="6.77623">
        <ele>389.2</ele>
        <time>2017-10-04T16:16:22Z</time>
      </trkpt>
      <trkpt lat="47.52183" lon="6.77621">
        <ele>389</ele>
        <time>2017-10-04T16:16:24Z</time>
      </trkpt>
      <trkpt lat="47.52185" lon="6.7762">
        <ele>388.9</ele>
        <time>2017-10-04T16:16:25Z</time>
      </trkpt>
      <trkpt lat="47.5219" lon="6.77618">
        <ele>388.8</ele>
        <time>2017-10-04T16:16:27Z</time>
      </trkpt>
      <trkpt lat="47.52195" lon="6.77615">
        <ele>388.7</ele>
        <time>2017-10-04T16:16:29Z</time>
      </trkpt>
      <trkpt lat="47.522" lon="6.77611">
        <ele>388.6</ele>
        <time>2017-10-04T16:16:31Z</time>
      </trkpt>
      <trkpt lat="47.52203" lon="6.77609">
        <ele>388.4</ele>
        <time>2017-10-04T16:16:32Z</time>
      </trkpt>
      <trkpt lat="47.52207" lon="6.77604">
        <ele>388.2</ele>
        <time>2017-10-04T16:16:34Z</time>
      </trkpt>
      <trkpt lat="47.5221" lon="6.77602">
        <ele>388.1</ele>
        <time>2017-10-04T16:16:35Z</time>
      </trkpt>
      <trkpt lat="47.52213" lon="6.77599">
        <ele>387.9</ele>
        <time>2017-10-04T16:16:37Z</time>
      </trkpt>
      <trkpt lat="47.52217" lon="6.77596">
        <ele>387.8</ele>
        <time>2017-10-04T16:16:39Z</time>
      </trkpt>
      <trkpt lat="47.52221" lon="6.77593">
        <ele>387.7</ele>
        <time>2017-10-04T16:16:41Z</time>
      </trkpt>
      <trkpt lat="47.52226" lon="6.77589">
        <ele>387.5</ele>
        <time>2017-10-04T16:16:43Z</time>
      </trkpt>
      <trkpt lat="47.5223" lon="6.77585">
        <ele>387.5</ele>
        <time>2017-10-04T16:16:45Z</time>
      </trkpt>
      <trkpt lat="47.52233" lon="6.77583">
        <ele>387.5</ele>
        <time>2017-10-04T16:16:46Z</time>
      </trkpt>
      <trkpt lat="47.52237" lon="6.77579">
        <ele>387.5</ele>
        <time>2017-10-04T16:16:48Z</time>
      </trkpt>
      <trkpt lat="47.5224" lon="6.77577">
        <ele>387.5</ele>
        <time>2017-10-04T16:16:49Z</time>
      </trkpt>
      <trkpt lat="47.52244" lon="6.77574">
        <ele>387.5</ele>
        <time>2017-10-04T16:16:51Z</time>
      </trkpt>
      <trkpt lat="47.52249" lon="6.77572">
        <ele>387.6</ele>
        <time>2017-10-04T16:16:53Z</time>
      </trkpt>
      <trkpt lat="47.52254" lon="6.77569">
        <ele>387.6</ele>
        <time>2017-10-04T16:16:55Z</time>
      </trkpt>
      <trkpt lat="47.52256" lon="6.77568">
        <ele>387.6</ele>
        <time>2017-10-04T16:16:56Z</time>
      </trkpt>
      <trkpt lat="47.5226" lon="6.77565">
        <ele>387.6</ele>
        <time>2017-10-04T16:16:58Z</time>
      </trkpt>
      <trkpt lat="47.52264" lon="6.77563">
        <ele>387.7</ele>
        <time>2017-10-04T16:17:00Z</time>
      </trkpt>
      <trkpt lat="47.52268" lon="6.77559">
        <ele>387.7</ele>
        <time>2017-10-04T16:17:02Z</time>
      </trkpt>
      <trkpt lat="47.52272" lon="6.77555">
        <ele>387.8</ele>
        <time>2017-10-04T16:17:04Z</time>
      </trkpt>
      <trkpt lat="47.52277" lon="6.77552">
        <ele>387.8</ele>
        <time>2017-10-04T16:17:06Z</time>
      </trkpt>
      <trkpt lat="47.52281" lon="6.77548">
        <ele>387.9</ele>
        <time>2017-10-04T16:17:08Z</time>
      </trkpt>
      <trkpt lat="47.52283" lon="6.77547">
        <ele>387.9</ele>
        <time>2017-10-04T16:17:09Z</time>
      </trkpt>
      <trkpt lat="47.52286" lon="6.77545">
        <ele>388</ele>
        <time>2017-10-04T16:17:10Z</time>
      </trkpt>
      <trkpt lat="47.5229" lon="6.77542">
        <ele>388</ele>
        <time>2017-10-04T16:17:12Z</time>
      </trkpt>
      <trkpt lat="47.52295" lon="6.77539">
        <ele>388.1</ele>
        <time>2017-10-04T16:17:14Z</time>
      </trkpt>
      <trkpt lat="47.523" lon="6.77535">
        <ele>388.1</ele>
        <time>2017-10-04T16:17:16Z</time>
      </trkpt>
      <trkpt lat="47.52302" lon="6.77533">
        <ele>388.2</ele>
        <time>2017-10-04T16:17:17Z</time>
      </trkpt>
      <trkpt lat="47.52306" lon="6.7753">
        <ele>388.2</ele>
        <time>2017-10-04T16:17:19Z</time>
      </trkpt>
      <trkpt lat="47.52311" lon="6.77528">
        <ele>388.3</ele>
        <time>2017-10-04T16:17:21Z</time>
      </trkpt>
      <trkpt lat="47.52315" lon="6.77524">
        <ele>388.3</ele>
        <time>2017-10-04T16:17:23Z</time>
      </trkpt>
      <trkpt lat="47.52318" lon="6.77521">
        <ele>388.3</ele>
        <time>2017-10-04T16:17:25Z</time>
      </trkpt>
      <trkpt lat="47.52324" lon="6.77517">
        <ele>388.4</ele>
        <time>2017-10-04T16:17:27Z</time>
      </trkpt>
      <trkpt lat="47.52328" lon="6.77515">
        <ele>388.5</ele>
        <time>2017-10-04T16:17:28Z</time>
      </trkpt>
      <trkpt lat="47.52335" lon="6.77511">
        <ele>388.6</ele>
        <time>2017-10-04T16:17:30Z</time>
      </trkpt>
      <trkpt lat="47.5234" lon="6.77508">
        <ele>388.7</ele>
        <time>2017-10-04T16:17:32Z</time>
      </trkpt>
      <trkpt lat="47.52345" lon="6.77505">
        <ele>388.8</ele>
        <time>2017-10-04T16:17:34Z</time>
      </trkpt>
      <trkpt lat="47.52348" lon="6.77504">
        <ele>388.8</ele>
        <time>2017-10-04T16:17:35Z</time>
      </trkpt>
      <trkpt lat="47.52352" lon="6.77501">
        <ele>388.9</ele>
        <time>2017-10-04T16:17:37Z</time>
      </trkpt>
      <trkpt lat="47.52357" lon="6.77499">
        <ele>389</ele>
        <time>2017-10-04T16:17:39Z</time>
      </trkpt>
      <trkpt lat="47.52362" lon="6.77497">
        <ele>389.1</ele>
        <time>2017-10-04T16:17:41Z</time>
      </trkpt>
      <trkpt lat="47.52367" lon="6.77495">
        <ele>389.3</ele>
        <time>2017-10-04T16:17:43Z</time>
      </trkpt>
      <trkpt lat="47.52372" lon="6.77492">
        <ele>389.6</ele>
        <time>2017-10-04T16:17:45Z</time>
      </trkpt>
      <trkpt lat="47.52377" lon="6.7749">
        <ele>390.1</ele>
        <time>2017-10-04T16:17:47Z</time>
      </trkpt>
      <trkpt lat="47.52382" lon="6.77488">
        <ele>390.6</ele>
        <time>2017-10-04T16:17:49Z</time>
      </trkpt>
      <trkpt lat="47.52386" lon="6.77487">
        <ele>390.9</ele>
        <time>2017-10-04T16:17:50Z</time>
      </trkpt>
      <trkpt lat="47.52389" lon="6.77485">
        <ele>391.2</ele>
        <time>2017-10-04T16:17:51Z</time>
      </trkpt>
      <trkpt lat="47.52392" lon="6.77483">
        <ele>391.4</ele>
        <time>2017-10-04T16:17:52Z</time>
      </trkpt>
      <trkpt lat="47.52397" lon="6.77481">
        <ele>391.6</ele>
        <time>2017-10-04T16:17:54Z</time>
      </trkpt>
      <trkpt lat="47.524" lon="6.77479">
        <ele>391.6</ele>
        <time>2017-10-04T16:17:55Z</time>
      </trkpt>
      <trkpt lat="47.52405" lon="6.77477">
        <ele>391.7</ele>
        <time>2017-10-04T16:17:57Z</time>
      </trkpt>
      <trkpt lat="47.52409" lon="6.77475">
        <ele>391.8</ele>
        <time>2017-10-04T16:17:59Z</time>
      </trkpt>
      <trkpt lat="47.52413" lon="6.77471">
        <ele>391.9</ele>
        <time>2017-10-04T16:18:01Z</time>
      </trkpt>
      <trkpt lat="47.52418" lon="6.77468">
        <ele>392</ele>
        <time>2017-10-04T16:18:03Z</time>
      </trkpt>
      <trkpt lat="47.52422" lon="6.77465">
        <ele>392.1</ele>
        <time>2017-10-04T16:18:05Z</time>
      </trkpt>
      <trkpt lat="47.52425" lon="6.77462">
        <ele>392.1</ele>
        <time>2017-10-04T16:18:07Z</time>
      </trkpt>
      <trkpt lat="47.52428" lon="6.77461">
        <ele>392.2</ele>
        <time>2017-10-04T16:18:09Z</time>
      </trkpt>
      <trkpt lat="47.52432" lon="6.77462">
        <ele>392.2</ele>
        <time>2017-10-04T16:18:13Z</time>
      </trkpt>
      <trkpt lat="47.52435" lon="6.77462">
        <ele>392.3</ele>
        <time>2017-10-04T16:18:15Z</time>
      </trkpt>
      <trkpt lat="47.52441" lon="6.77462">
        <ele>392.5</ele>
        <time>2017-10-04T16:18:17Z</time>
      </trkpt>
      <trkpt lat="47.52445" lon="6.77465">
        <ele>392.6</ele>
        <time>2017-10-04T16:18:18Z</time>
      </trkpt>
      <trkpt lat="47.52449" lon="6.77464">
        <ele>392.7</ele>
        <time>2017-10-04T16:18:20Z</time>
      </trkpt>
      <trkpt lat="47.52452" lon="6.77464">
        <ele>392.7</ele>
        <time>2017-10-04T16:18:22Z</time>
      </trkpt>
      <trkpt lat="47.52457" lon="6.77465">
        <ele>392.8</ele>
        <time>2017-10-04T16:18:24Z</time>
      </trkpt>
      <trkpt lat="47.52461" lon="6.77467">
        <ele>392.9</ele>
        <time>2017-10-04T16:18:26Z</time>
      </trkpt>
      <trkpt lat="47.52464" lon="6.77468">
        <ele>393</ele>
        <time>2017-10-04T16:18:30Z</time>
      </trkpt>
      <trkpt lat="47.52468" lon="6.77468">
        <ele>393.1</ele>
        <time>2017-10-04T16:18:31Z</time>
      </trkpt>
      <trkpt lat="47.52472" lon="6.77468">
        <ele>393.2</ele>
        <time>2017-10-04T16:18:32Z</time>
      </trkpt>
      <trkpt lat="47.52476" lon="6.77469">
        <ele>393.3</ele>
        <time>2017-10-04T16:18:33Z</time>
      </trkpt>
      <trkpt lat="47.52479" lon="6.7747">
        <ele>393.4</ele>
        <time>2017-10-04T16:18:34Z</time>
      </trkpt>
      <trkpt lat="47.52483" lon="6.77471">
        <ele>393.5</ele>
        <time>2017-10-04T16:18:35Z</time>
      </trkpt>
      <trkpt lat="47.52487" lon="6.77471">
        <ele>393.6</ele>
        <time>2017-10-04T16:18:37Z</time>
      </trkpt>
      <trkpt lat="47.52491" lon="6.77472">
        <ele>393.6</ele>
        <time>2017-10-04T16:18:38Z</time>
      </trkpt>
      <trkpt lat="47.52499" lon="6.77472">
        <ele>393.7</ele>
        <time>2017-10-04T16:18:41Z</time>
      </trkpt>
      <trkpt lat="47.52502" lon="6.77473">
        <ele>393.7</ele>
        <time>2017-10-04T16:18:43Z</time>
      </trkpt>
      <trkpt lat="47.52506" lon="6.77473">
        <ele>393.6</ele>
        <time>2017-10-04T16:18:45Z</time>
      </trkpt>
      <trkpt lat="47.52509" lon="6.77473">
        <ele>393.6</ele>
        <time>2017-10-04T16:18:47Z</time>
      </trkpt>
      <trkpt lat="47.52513" lon="6.77472">
        <ele>393.5</ele>
        <time>2017-10-04T16:18:49Z</time>
      </trkpt>
      <trkpt lat="47.52517" lon="6.77471">
        <ele>393.5</ele>
        <time>2017-10-04T16:18:51Z</time>
      </trkpt>
      <trkpt lat="47.52521" lon="6.7747">
        <ele>393.5</ele>
        <time>2017-10-04T16:18:52Z</time>
      </trkpt>
      <trkpt lat="47.52525" lon="6.77469">
        <ele>393.5</ele>
        <time>2017-10-04T16:18:54Z</time>
      </trkpt>
      <trkpt lat="47.52528" lon="6.77468">
        <ele>393.6</ele>
        <time>2017-10-04T16:18:55Z</time>
      </trkpt>
      <trkpt lat="47.52532" lon="6.77466">
        <ele>393.6</ele>
        <time>2017-10-04T16:18:56Z</time>
      </trkpt>
      <trkpt lat="47.52537" lon="6.77469">
        <ele>393.8</ele>
        <time>2017-10-04T16:18:57Z</time>
      </trkpt>
      <trkpt lat="47.52541" lon="6.77471">
        <ele>393.8</ele>
        <time>2017-10-04T16:18:59Z</time>
      </trkpt>
      <trkpt lat="47.52545" lon="6.77471">
        <ele>393.9</ele>
        <time>2017-10-04T16:19:01Z</time>
      </trkpt>
      <trkpt lat="47.52549" lon="6.77473">
        <ele>394.1</ele>
        <time>2017-10-04T16:19:02Z</time>
      </trkpt>
      <trkpt lat="47.52555" lon="6.77474">
        <ele>394.2</ele>
        <time>2017-10-04T16:19:04Z</time>
      </trkpt>
      <trkpt lat="47.52558" lon="6.77476">
        <ele>394.2</ele>
        <time>2017-10-04T16:19:06Z</time>
      </trkpt>
      <trkpt lat="47.52564" lon="6.77481">
        <ele>394.3</ele>
        <time>2017-10-04T16:19:08Z</time>
      </trkpt>
      <trkpt lat="47.52567" lon="6.77481">
        <ele>394.3</ele>
        <time>2017-10-04T16:19:11Z</time>
      </trkpt>
      <trkpt lat="47.52573" lon="6.7748">
        <ele>394.3</ele>
        <time>2017-10-04T16:19:13Z</time>
      </trkpt>
      <trkpt lat="47.52577" lon="6.77482">
        <ele>394.4</ele>
        <time>2017-10-04T16:19:14Z</time>
      </trkpt>
      <trkpt lat="47.52583" lon="6.77488">
        <ele>394.4</ele>
        <time>2017-10-04T16:19:16Z</time>
      </trkpt>
      <trkpt lat="47.52589" lon="6.77492">
        <ele>394.4</ele>
        <time>2017-10-04T16:19:18Z</time>
      </trkpt>
      <trkpt lat="47.52592" lon="6.77492">
        <ele>394.4</ele>
        <time>2017-10-04T16:19:19Z</time>
      </trkpt>
      <trkpt lat="47.52596" lon="6.77492">
        <ele>394.4</ele>
        <time>2017-10-04T16:19:21Z</time>
      </trkpt>
      <trkpt lat="47.52601" lon="6.7749">
        <ele>394.4</ele>
        <time>2017-10-04T16:19:22Z</time>
      </trkpt>
      <trkpt lat="47.52603" lon="6.77488">
        <ele>394.3</ele>
        <time>2017-10-04T16:19:23Z</time>
      </trkpt>
      <trkpt lat="47.52606" lon="6.77485">
        <ele>394.2</ele>
        <time>2017-10-04T16:19:24Z</time>
      </trkpt>
      <trkpt lat="47.52611" lon="6.7748">
        <ele>394</ele>
        <time>2017-10-04T16:19:26Z</time>
      </trkpt>
      <trkpt lat="47.52612" lon="6.77474">
        <ele>393.9</ele>
        <time>2017-10-04T16:19:28Z</time>
      </trkpt>
      <trkpt lat="47.52615" lon="6.77472">
        <ele>393.7</ele>
        <time>2017-10-04T16:19:29Z</time>
      </trkpt>
      <trkpt lat="47.52618" lon="6.7747">
        <ele>393.4</ele>
        <time>2017-10-04T16:19:30Z</time>
      </trkpt>
      <trkpt lat="47.52621" lon="6.77468">
        <ele>393.1</ele>
        <time>2017-10-04T16:19:31Z</time>
      </trkpt>
      <trkpt lat="47.52623" lon="6.77465">
        <ele>392.9</ele>
        <time>2017-10-04T16:19:32Z</time>
      </trkpt>
      <trkpt lat="47.52626" lon="6.77461">
        <ele>392.5</ele>
        <time>2017-10-04T16:19:34Z</time>
      </trkpt>
      <trkpt lat="47.5263" lon="6.77458">
        <ele>392</ele>
        <time>2017-10-04T16:19:35Z</time>
      </trkpt>
      <trkpt lat="47.52635" lon="6.77456">
        <ele>391.6</ele>
        <time>2017-10-04T16:19:36Z</time>
      </trkpt>
      <trkpt lat="47.52638" lon="6.77452">
        <ele>391.4</ele>
        <time>2017-10-04T16:19:38Z</time>
      </trkpt>
      <trkpt lat="47.52641" lon="6.77449">
        <ele>391.2</ele>
        <time>2017-10-04T16:19:39Z</time>
      </trkpt>
      <trkpt lat="47.52645" lon="6.77446">
        <ele>391.2</ele>
        <time>2017-10-04T16:19:41Z</time>
      </trkpt>
      <trkpt lat="47.52648" lon="6.77445">
        <ele>391.6</ele>
        <time>2017-10-04T16:19:42Z</time>
      </trkpt>
      <trkpt lat="47.52653" lon="6.77441">
        <ele>392.3</ele>
        <time>2017-10-04T16:19:44Z</time>
      </trkpt>
      <trkpt lat="47.52659" lon="6.7744">
        <ele>393.2</ele>
        <time>2017-10-04T16:19:46Z</time>
      </trkpt>
      <trkpt lat="47.52663" lon="6.7744">
        <ele>393.8</ele>
        <time>2017-10-04T16:19:47Z</time>
      </trkpt>
      <trkpt lat="47.52666" lon="6.7744">
        <ele>394.2</ele>
        <time>2017-10-04T16:19:49Z</time>
      </trkpt>
      <trkpt lat="47.52669" lon="6.7744">
        <ele>394.6</ele>
        <time>2017-10-04T16:19:51Z</time>
      </trkpt>
      <trkpt lat="47.52672" lon="6.7744">
        <ele>395.1</ele>
        <time>2017-10-04T16:19:53Z</time>
      </trkpt>
      <trkpt lat="47.52675" lon="6.77443">
        <ele>395.7</ele>
        <time>2017-10-04T16:19:57Z</time>
      </trkpt>
      <trkpt lat="47.52678" lon="6.77446">
        <ele>396.2</ele>
        <time>2017-10-04T16:19:58Z</time>
      </trkpt>
      <trkpt lat="47.52682" lon="6.77449">
        <ele>396.8</ele>
        <time>2017-10-04T16:19:59Z</time>
      </trkpt>
      <trkpt lat="47.52687" lon="6.77456">
        <ele>397.9</ele>
        <time>2017-10-04T16:20:01Z</time>
      </trkpt>
      <trkpt lat="47.52692" lon="6.77462">
        <ele>398.9</ele>
        <time>2017-10-04T16:20:04Z</time>
      </trkpt>
      <trkpt lat="47.52695" lon="6.77465">
        <ele>399.2</ele>
        <time>2017-10-04T16:20:06Z</time>
      </trkpt>
      <trkpt lat="47.527" lon="6.77472">
        <ele>399.3</ele>
        <time>2017-10-04T16:20:08Z</time>
      </trkpt>
      <trkpt lat="47.52704" lon="6.77475">
        <ele>399.4</ele>
        <time>2017-10-04T16:20:09Z</time>
      </trkpt>
      <trkpt lat="47.52707" lon="6.77477">
        <ele>399.5</ele>
        <time>2017-10-04T16:20:11Z</time>
      </trkpt>
      <trkpt lat="47.52711" lon="6.77479">
        <ele>399.6</ele>
        <time>2017-10-04T16:20:13Z</time>
      </trkpt>
      <trkpt lat="47.52714" lon="6.77483">
        <ele>399.6</ele>
        <time>2017-10-04T16:20:15Z</time>
      </trkpt>
      <trkpt lat="47.52718" lon="6.77486">
        <ele>399.7</ele>
        <time>2017-10-04T16:20:17Z</time>
      </trkpt>
      <trkpt lat="47.52723" lon="6.7749">
        <ele>399.8</ele>
        <time>2017-10-04T16:20:19Z</time>
      </trkpt>
      <trkpt lat="47.52727" lon="6.77492">
        <ele>399.9</ele>
        <time>2017-10-04T16:20:21Z</time>
      </trkpt>
      <trkpt lat="47.52731" lon="6.77493">
        <ele>399.9</ele>
        <time>2017-10-04T16:20:23Z</time>
      </trkpt>
      <trkpt lat="47.52734" lon="6.77495">
        <ele>399.9</ele>
        <time>2017-10-04T16:20:24Z</time>
      </trkpt>
      <trkpt lat="47.52737" lon="6.77498">
        <ele>400</ele>
        <time>2017-10-04T16:20:26Z</time>
      </trkpt>
      <trkpt lat="47.52741" lon="6.77503">
        <ele>400</ele>
        <time>2017-10-04T16:20:28Z</time>
      </trkpt>
      <trkpt lat="47.52745" lon="6.7751">
        <ele>400.1</ele>
        <time>2017-10-04T16:20:30Z</time>
      </trkpt>
      <trkpt lat="47.52748" lon="6.77515">
        <ele>400.1</ele>
        <time>2017-10-04T16:20:31Z</time>
      </trkpt>
      <trkpt lat="47.52751" lon="6.77517">
        <ele>400.1</ele>
        <time>2017-10-04T16:20:32Z</time>
      </trkpt>
      <trkpt lat="47.52756" lon="6.77519">
        <ele>400.2</ele>
        <time>2017-10-04T16:20:34Z</time>
      </trkpt>
      <trkpt lat="47.52759" lon="6.77521">
        <ele>400.2</ele>
        <time>2017-10-04T16:20:36Z</time>
      </trkpt>
      <trkpt lat="47.52765" lon="6.77523">
        <ele>400.2</ele>
        <time>2017-10-04T16:20:38Z</time>
      </trkpt>
      <trkpt lat="47.52769" lon="6.77523">
        <ele>400.3</ele>
        <time>2017-10-04T16:20:40Z</time>
      </trkpt>
      <trkpt lat="47.52773" lon="6.77525">
        <ele>400.3</ele>
        <time>2017-10-04T16:20:42Z</time>
      </trkpt>
      <trkpt lat="47.52777" lon="6.77527">
        <ele>400.3</ele>
        <time>2017-10-04T16:20:44Z</time>
      </trkpt>
      <trkpt lat="47.52782" lon="6.77529">
        <ele>400.4</ele>
        <time>2017-10-04T16:20:46Z</time>
      </trkpt>
      <trkpt lat="47.52787" lon="6.77535">
        <ele>400.4</ele>
        <time>2017-10-04T16:20:48Z</time>
      </trkpt>
      <trkpt lat="47.52791" lon="6.77538">
        <ele>400.4</ele>
        <time>2017-10-04T16:20:50Z</time>
      </trkpt>
      <trkpt lat="47.52796" lon="6.7754">
        <ele>400.5</ele>
        <time>2017-10-04T16:20:52Z</time>
      </trkpt>
      <trkpt lat="47.52801" lon="6.77542">
        <ele>400.5</ele>
        <time>2017-10-04T16:20:53Z</time>
      </trkpt>
      <trkpt lat="47.52805" lon="6.77545">
        <ele>400.5</ele>
        <time>2017-10-04T16:20:55Z</time>
      </trkpt>
      <trkpt lat="47.52812" lon="6.77547">
        <ele>400.6</ele>
        <time>2017-10-04T16:20:57Z</time>
      </trkpt>
      <trkpt lat="47.52815" lon="6.77548">
        <ele>400.6</ele>
        <time>2017-10-04T16:20:59Z</time>
      </trkpt>
      <trkpt lat="47.52818" lon="6.7755">
        <ele>400.6</ele>
        <time>2017-10-04T16:21:00Z</time>
      </trkpt>
      <trkpt lat="47.52821" lon="6.77552">
        <ele>400.6</ele>
        <time>2017-10-04T16:21:02Z</time>
      </trkpt>
      <trkpt lat="47.52826" lon="6.77553">
        <ele>400.6</ele>
        <time>2017-10-04T16:21:04Z</time>
      </trkpt>
      <trkpt lat="47.52829" lon="6.77557">
        <ele>400.7</ele>
        <time>2017-10-04T16:21:06Z</time>
      </trkpt>
      <trkpt lat="47.52833" lon="6.77557">
        <ele>400.7</ele>
        <time>2017-10-04T16:21:08Z</time>
      </trkpt>
      <trkpt lat="47.52839" lon="6.77558">
        <ele>400.7</ele>
        <time>2017-10-04T16:21:10Z</time>
      </trkpt>
      <trkpt lat="47.52843" lon="6.77561">
        <ele>400.8</ele>
        <time>2017-10-04T16:21:11Z</time>
      </trkpt>
      <trkpt lat="47.52847" lon="6.77563">
        <ele>400.8</ele>
        <time>2017-10-04T16:21:13Z</time>
      </trkpt>
      <trkpt lat="47.52851" lon="6.77564">
        <ele>400.8</ele>
        <time>2017-10-04T16:21:14Z</time>
      </trkpt>
      <trkpt lat="47.52854" lon="6.77564">
        <ele>400.8</ele>
        <time>2017-10-04T16:21:16Z</time>
      </trkpt>
      <trkpt lat="47.52858" lon="6.77565">
        <ele>400.8</ele>
        <time>2017-10-04T16:21:18Z</time>
      </trkpt>
      <trkpt lat="47.52862" lon="6.77567">
        <ele>400.9</ele>
        <time>2017-10-04T16:21:20Z</time>
      </trkpt>
      <trkpt lat="47.52865" lon="6.77567">
        <ele>400.9</ele>
        <time>2017-10-04T16:21:21Z</time>
      </trkpt>
      <trkpt lat="47.52869" lon="6.77566">
        <ele>400.9</ele>
        <time>2017-10-04T16:21:22Z</time>
      </trkpt>
      <trkpt lat="47.52873" lon="6.77565">
        <ele>400.9</ele>
        <time>2017-10-04T16:21:24Z</time>
      </trkpt>
      <trkpt lat="47.52877" lon="6.77565">
        <ele>400.9</ele>
        <time>2017-10-04T16:21:25Z</time>
      </trkpt>
      <trkpt lat="47.52884" lon="6.77563">
        <ele>401</ele>
        <time>2017-10-04T16:21:27Z</time>
      </trkpt>
      <trkpt lat="47.52888" lon="6.7756">
        <ele>401</ele>
        <time>2017-10-04T16:21:28Z</time>
      </trkpt>
      <trkpt lat="47.52894" lon="6.77558">
        <ele>401</ele>
        <time>2017-10-04T16:21:30Z</time>
      </trkpt>
      <trkpt lat="47.52899" lon="6.77559">
        <ele>401.1</ele>
        <time>2017-10-04T16:21:32Z</time>
      </trkpt>
      <trkpt lat="47.52904" lon="6.7756">
        <ele>401.1</ele>
        <time>2017-10-04T16:21:34Z</time>
      </trkpt>
      <trkpt lat="47.52909" lon="6.77559">
        <ele>401.2</ele>
        <time>2017-10-04T16:21:35Z</time>
      </trkpt>
      <trkpt lat="47.52917" lon="6.77558">
        <ele>401.2</ele>
        <time>2017-10-04T16:21:37Z</time>
      </trkpt>
      <trkpt lat="47.52921" lon="6.77559">
        <ele>401.3</ele>
        <time>2017-10-04T16:21:38Z</time>
      </trkpt>
      <trkpt lat="47.52926" lon="6.77562">
        <ele>401.4</ele>
        <time>2017-10-04T16:21:40Z</time>
      </trkpt>
      <trkpt lat="47.52931" lon="6.77564">
        <ele>401.5</ele>
        <time>2017-10-04T16:21:42Z</time>
      </trkpt>
      <trkpt lat="47.52934" lon="6.77567">
        <ele>401.5</ele>
        <time>2017-10-04T16:21:44Z</time>
      </trkpt>
      <trkpt lat="47.52937" lon="6.77571">
        <ele>401.7</ele>
        <time>2017-10-04T16:21:45Z</time>
      </trkpt>
      <trkpt lat="47.52944" lon="6.77572">
        <ele>401.8</ele>
        <time>2017-10-04T16:21:47Z</time>
      </trkpt>
      <trkpt lat="47.52949" lon="6.77573">
        <ele>401.9</ele>
        <time>2017-10-04T16:21:49Z</time>
      </trkpt>
      <trkpt lat="47.52952" lon="6.77574">
        <ele>402</ele>
        <time>2017-10-04T16:21:50Z</time>
      </trkpt>
      <trkpt lat="47.52958" lon="6.77575">
        <ele>402.1</ele>
        <time>2017-10-04T16:21:52Z</time>
      </trkpt>
      <trkpt lat="47.52962" lon="6.77576">
        <ele>402.2</ele>
        <time>2017-10-04T16:21:54Z</time>
      </trkpt>
      <trkpt lat="47.52967" lon="6.77579">
        <ele>402.5</ele>
        <time>2017-10-04T16:21:56Z</time>
      </trkpt>
      <trkpt lat="47.52971" lon="6.77581">
        <ele>402.9</ele>
        <time>2017-10-04T16:21:57Z</time>
      </trkpt>
      <trkpt lat="47.52974" lon="6.77584">
        <ele>403.2</ele>
        <time>2017-10-04T16:21:59Z</time>
      </trkpt>
      <trkpt lat="47.52977" lon="6.77587">
        <ele>403.6</ele>
        <time>2017-10-04T16:22:00Z</time>
      </trkpt>
      <trkpt lat="47.52984" lon="6.7759">
        <ele>403.8</ele>
        <time>2017-10-04T16:22:02Z</time>
      </trkpt>
      <trkpt lat="47.52988" lon="6.7759">
        <ele>403.9</ele>
        <time>2017-10-04T16:22:03Z</time>
      </trkpt>
      <trkpt lat="47.52991" lon="6.7759">
        <ele>404</ele>
        <time>2017-10-04T16:22:04Z</time>
      </trkpt>
      <trkpt lat="47.52994" lon="6.77589">
        <ele>404.1</ele>
        <time>2017-10-04T16:22:06Z</time>
      </trkpt>
      <trkpt lat="47.52999" lon="6.77588">
        <ele>404.3</ele>
        <time>2017-10-04T16:22:07Z</time>
      </trkpt>
      <trkpt lat="47.53002" lon="6.77588">
        <ele>404.3</ele>
        <time>2017-10-04T16:22:08Z</time>
      </trkpt>
      <trkpt lat="47.53005" lon="6.77588">
        <ele>404.4</ele>
        <time>2017-10-04T16:22:10Z</time>
      </trkpt>
      <trkpt lat="47.53012" lon="6.77589">
        <ele>404.4</ele>
        <time>2017-10-04T16:22:12Z</time>
      </trkpt>
      <trkpt lat="47.53017" lon="6.77591">
        <ele>404.5</ele>
        <time>2017-10-04T16:22:13Z</time>
      </trkpt>
      <trkpt lat="47.53023" lon="6.77592">
        <ele>404.6</ele>
        <time>2017-10-04T16:22:15Z</time>
      </trkpt>
      <trkpt lat="47.53028" lon="6.77593">
        <ele>404.6</ele>
        <time>2017-10-04T16:22:16Z</time>
      </trkpt>
      <trkpt lat="47.53033" lon="6.77594">
        <ele>404.7</ele>
        <time>2017-10-04T16:22:17Z</time>
      </trkpt>
      <trkpt lat="47.53036" lon="6.77595">
        <ele>404.7</ele>
        <time>2017-10-04T16:22:18Z</time>
      </trkpt>
      <trkpt lat="47.53039" lon="6.77595">
        <ele>404.8</ele>
        <time>2017-10-04T16:22:19Z</time>
      </trkpt>
      <trkpt lat="47.53042" lon="6.77596">
        <ele>404.8</ele>
        <time>2017-10-04T16:22:20Z</time>
      </trkpt>
      <trkpt lat="47.53044" lon="6.77597">
        <ele>404.8</ele>
        <time>2017-10-04T16:22:21Z</time>
      </trkpt>
      <trkpt lat="47.53048" lon="6.77597">
        <ele>404.9</ele>
        <time>2017-10-04T16:22:22Z</time>
      </trkpt>
      <trkpt lat="47.53051" lon="6.77598">
        <ele>404.9</ele>
        <time>2017-10-04T16:22:23Z</time>
      </trkpt>
      <trkpt lat="47.53056" lon="6.77598">
        <ele>405</ele>
        <time>2017-10-04T16:22:25Z</time>
      </trkpt>
      <trkpt lat="47.5306" lon="6.77598">
        <ele>405</ele>
        <time>2017-10-04T16:22:26Z</time>
      </trkpt>
      <trkpt lat="47.53065" lon="6.776">
        <ele>405.1</ele>
        <time>2017-10-04T16:22:28Z</time>
      </trkpt>
      <trkpt lat="47.5307" lon="6.77601">
        <ele>405.1</ele>
        <time>2017-10-04T16:22:30Z</time>
      </trkpt>
      <trkpt lat="47.53077" lon="6.77602">
        <ele>405.2</ele>
        <time>2017-10-04T16:22:32Z</time>
      </trkpt>
      <trkpt lat="47.53084" lon="6.77602">
        <ele>405.3</ele>
        <time>2017-10-04T16:22:34Z</time>
      </trkpt>
      <trkpt lat="47.53088" lon="6.77603">
        <ele>405.4</ele>
        <time>2017-10-04T16:22:36Z</time>
      </trkpt>
      <trkpt lat="47.53091" lon="6.77604">
        <ele>405.5</ele>
        <time>2017-10-04T16:22:37Z</time>
      </trkpt>
      <trkpt lat="47.53095" lon="6.77606">
        <ele>405.6</ele>
        <time>2017-10-04T16:22:39Z</time>
      </trkpt>
      <trkpt lat="47.53101" lon="6.77608">
        <ele>405.7</ele>
        <time>2017-10-04T16:22:41Z</time>
      </trkpt>
      <trkpt lat="47.53106" lon="6.77607">
        <ele>405.8</ele>
        <time>2017-10-04T16:22:42Z</time>
      </trkpt>
      <trkpt lat="47.53112" lon="6.77606">
        <ele>405.7</ele>
        <time>2017-10-04T16:22:44Z</time>
      </trkpt>
      <trkpt lat="47.53114" lon="6.77605">
        <ele>405.6</ele>
        <time>2017-10-04T16:22:45Z</time>
      </trkpt>
      <trkpt lat="47.53118" lon="6.77602">
        <ele>405.7</ele>
        <time>2017-10-04T16:22:47Z</time>
      </trkpt>
      <trkpt lat="47.53122" lon="6.77599">
        <ele>405.8</ele>
        <time>2017-10-04T16:22:49Z</time>
      </trkpt>
      <trkpt lat="47.53126" lon="6.77592">
        <ele>405.8</ele>
        <time>2017-10-04T16:22:51Z</time>
      </trkpt>
      <trkpt lat="47.53128" lon="6.77586">
        <ele>405.4</ele>
        <time>2017-10-04T16:22:52Z</time>
      </trkpt>
      <trkpt lat="47.5313" lon="6.77582">
        <ele>405.4</ele>
        <time>2017-10-04T16:22:53Z</time>
      </trkpt>
      <trkpt lat="47.53132" lon="6.77578">
        <ele>405</ele>
        <time>2017-10-04T16:22:54Z</time>
      </trkpt>
      <trkpt lat="47.53134" lon="6.77575">
        <ele>404.6</ele>
        <time>2017-10-04T16:22:55Z</time>
      </trkpt>
      <trkpt lat="47.53137" lon="6.7757">
        <ele>404</ele>
        <time>2017-10-04T16:22:56Z</time>
      </trkpt>
      <trkpt lat="47.53141" lon="6.77564">
        <ele>402.8</ele>
        <time>2017-10-04T16:22:58Z</time>
      </trkpt>
      <trkpt lat="47.53143" lon="6.77562">
        <ele>402.8</ele>
        <time>2017-10-04T16:22:59Z</time>
      </trkpt>
      <trkpt lat="47.53146" lon="6.7756">
        <ele>402.2</ele>
        <time>2017-10-04T16:23:00Z</time>
      </trkpt>
      <trkpt lat="47.53148" lon="6.77557">
        <ele>402.2</ele>
        <time>2017-10-04T16:23:01Z</time>
      </trkpt>
      <trkpt lat="47.53155" lon="6.77551">
        <ele>401.1</ele>
        <time>2017-10-04T16:23:03Z</time>
      </trkpt>
      <trkpt lat="47.53161" lon="6.77547">
        <ele>400.1</ele>
        <time>2017-10-04T16:23:05Z</time>
      </trkpt>
      <trkpt lat="47.53165" lon="6.77543">
        <ele>399.8</ele>
        <time>2017-10-04T16:23:07Z</time>
      </trkpt>
      <trkpt lat="47.53169" lon="6.77541">
        <ele>398.9</ele>
        <time>2017-10-04T16:23:08Z</time>
      </trkpt>
      <trkpt lat="47.53175" lon="6.77541">
        <ele>397.7</ele>
        <time>2017-10-04T16:23:10Z</time>
      </trkpt>
      <trkpt lat="47.53179" lon="6.77539">
        <ele>396.6</ele>
        <time>2017-10-04T16:23:11Z</time>
      </trkpt>
      <trkpt lat="47.53183" lon="6.77538">
        <ele>395.2</ele>
        <time>2017-10-04T16:23:12Z</time>
      </trkpt>
      <trkpt lat="47.53187" lon="6.77535">
        <ele>393.9</ele>
        <time>2017-10-04T16:23:13Z</time>
      </trkpt>
      <trkpt lat="47.53192" lon="6.77533">
        <ele>392.4</ele>
        <time>2017-10-04T16:23:15Z</time>
      </trkpt>
      <trkpt lat="47.53195" lon="6.77532">
        <ele>391.7</ele>
        <time>2017-10-04T16:23:16Z</time>
      </trkpt>
      <trkpt lat="47.53198" lon="6.77529">
        <ele>390.8</ele>
        <time>2017-10-04T16:23:17Z</time>
      </trkpt>
      <trkpt lat="47.532" lon="6.77521">
        <ele>389.4</ele>
        <time>2017-10-04T16:23:18Z</time>
      </trkpt>
      <trkpt lat="47.53202" lon="6.77517">
        <ele>388.6</ele>
        <time>2017-10-04T16:23:19Z</time>
      </trkpt>
      <trkpt lat="47.53204" lon="6.77514">
        <ele>387.9</ele>
        <time>2017-10-04T16:23:20Z</time>
      </trkpt>
      <trkpt lat="47.53207" lon="6.77509">
        <ele>387.3</ele>
        <time>2017-10-04T16:23:22Z</time>
      </trkpt>
      <trkpt lat="47.5321" lon="6.77504">
        <ele>386.7</ele>
        <time>2017-10-04T16:23:24Z</time>
      </trkpt>
      <trkpt lat="47.53213" lon="6.77498">
        <ele>386</ele>
        <time>2017-10-04T16:23:26Z</time>
      </trkpt>
      <trkpt lat="47.53216" lon="6.77495">
        <ele>385.7</ele>
        <time>2017-10-04T16:23:27Z</time>
      </trkpt>
      <trkpt lat="47.53218" lon="6.77492">
        <ele>385.4</ele>
        <time>2017-10-04T16:23:28Z</time>
      </trkpt>
      <trkpt lat="47.5322" lon="6.77488">
        <ele>385.1</ele>
        <time>2017-10-04T16:23:29Z</time>
      </trkpt>
      <trkpt lat="47.53221" lon="6.77484">
        <ele>384.9</ele>
        <time>2017-10-04T16:23:30Z</time>
      </trkpt>
      <trkpt lat="47.53225" lon="6.77478">
        <ele>384.8</ele>
        <time>2017-10-04T16:23:31Z</time>
      </trkpt>
      <trkpt lat="47.53229" lon="6.77473">
        <ele>384.7</ele>
        <time>2017-10-04T16:23:32Z</time>
      </trkpt>
      <trkpt lat="47.53231" lon="6.77469">
        <ele>384.8</ele>
        <time>2017-10-04T16:23:33Z</time>
      </trkpt>
      <trkpt lat="47.53234" lon="6.77467">
        <ele>384.9</ele>
        <time>2017-10-04T16:23:34Z</time>
      </trkpt>
      <trkpt lat="47.53236" lon="6.77465">
        <ele>385.1</ele>
        <time>2017-10-04T16:23:35Z</time>
      </trkpt>
      <trkpt lat="47.53238" lon="6.77459">
        <ele>385.4</ele>
        <time>2017-10-04T16:23:37Z</time>
      </trkpt>
      <trkpt lat="47.5324" lon="6.77455">
        <ele>385.7</ele>
        <time>2017-10-04T16:23:38Z</time>
      </trkpt>
      <trkpt lat="47.53241" lon="6.77451">
        <ele>386</ele>
        <time>2017-10-04T16:23:39Z</time>
      </trkpt>
      <trkpt lat="47.53243" lon="6.77447">
        <ele>386.3</ele>
        <time>2017-10-04T16:23:40Z</time>
      </trkpt>
      <trkpt lat="47.53246" lon="6.77441">
        <ele>386.7</ele>
        <time>2017-10-04T16:23:42Z</time>
      </trkpt>
      <trkpt lat="47.53249" lon="6.77435">
        <ele>387</ele>
        <time>2017-10-04T16:23:44Z</time>
      </trkpt>
      <trkpt lat="47.53251" lon="6.77432">
        <ele>387.1</ele>
        <time>2017-10-04T16:23:45Z</time>
      </trkpt>
      <trkpt lat="47.53253" lon="6.77425">
        <ele>387.3</ele>
        <time>2017-10-04T16:23:47Z</time>
      </trkpt>
      <trkpt lat="47.53255" lon="6.77421">
        <ele>387.4</ele>
        <time>2017-10-04T16:23:49Z</time>
      </trkpt>
      <trkpt lat="47.53258" lon="6.77415">
        <ele>387.3</ele>
        <time>2017-10-04T16:23:51Z</time>
      </trkpt>
      <trkpt lat="47.53261" lon="6.77411">
        <ele>387.1</ele>
        <time>2017-10-04T16:23:53Z</time>
      </trkpt>
      <trkpt lat="47.53266" lon="6.77408">
        <ele>386.6</ele>
        <time>2017-10-04T16:23:55Z</time>
      </trkpt>
      <trkpt lat="47.53272" lon="6.77405">
        <ele>385.7</ele>
        <time>2017-10-04T16:23:57Z</time>
      </trkpt>
      <trkpt lat="47.53275" lon="6.77403">
        <ele>385.1</ele>
        <time>2017-10-04T16:23:58Z</time>
      </trkpt>
      <trkpt lat="47.53277" lon="6.77399">
        <ele>380.3</ele>
        <time>2017-10-04T16:24:00Z</time>
      </trkpt>
      <trkpt lat="47.53281" lon="6.77395">
        <ele>375.5</ele>
        <time>2017-10-04T16:24:02Z</time>
      </trkpt>
      <trkpt lat="47.53284" lon="6.77388">
        <ele>374.9</ele>
        <time>2017-10-04T16:24:04Z</time>
      </trkpt>
      <trkpt lat="47.53287" lon="6.77382">
        <ele>374.6</ele>
        <time>2017-10-04T16:24:06Z</time>
      </trkpt>
      <trkpt lat="47.53287" lon="6.77378">
        <ele>374.3</ele>
        <time>2017-10-04T16:24:07Z</time>
      </trkpt>
      <trkpt lat="47.53288" lon="6.77373">
        <ele>373.8</ele>
        <time>2017-10-04T16:24:08Z</time>
      </trkpt>
      <trkpt lat="47.5329" lon="6.77366">
        <ele>373.1</ele>
        <time>2017-10-04T16:24:09Z</time>
      </trkpt>
      <trkpt lat="47.53291" lon="6.77361">
        <ele>372.6</ele>
        <time>2017-10-04T16:24:10Z</time>
      </trkpt>
      <trkpt lat="47.53294" lon="6.77356">
        <ele>372</ele>
        <time>2017-10-04T16:24:11Z</time>
      </trkpt>
      <trkpt lat="47.53297" lon="6.77352">
        <ele>371.4</ele>
        <time>2017-10-04T16:24:13Z</time>
      </trkpt>
      <trkpt lat="47.53302" lon="6.77347">
        <ele>370.7</ele>
        <time>2017-10-04T16:24:15Z</time>
      </trkpt>
      <trkpt lat="47.53306" lon="6.77342">
        <ele>370.1</ele>
        <time>2017-10-04T16:24:17Z</time>
      </trkpt>
      <trkpt lat="47.53312" lon="6.77341">
        <ele>369.3</ele>
        <time>2017-10-04T16:24:18Z</time>
      </trkpt>
      <trkpt lat="47.53314" lon="6.7734">
        <ele>368.7</ele>
        <time>2017-10-04T16:24:19Z</time>
      </trkpt>
      <trkpt lat="47.53318" lon="6.77334">
        <ele>367.9</ele>
        <time>2017-10-04T16:24:21Z</time>
      </trkpt>
      <trkpt lat="47.53321" lon="6.7733">
        <ele>367.3</ele>
        <time>2017-10-04T16:24:23Z</time>
      </trkpt>
      <trkpt lat="47.53324" lon="6.77325">
        <ele>366.7</ele>
        <time>2017-10-04T16:24:25Z</time>
      </trkpt>
      <trkpt lat="47.53327" lon="6.7732">
        <ele>366.1</ele>
        <time>2017-10-04T16:24:27Z</time>
      </trkpt>
      <trkpt lat="47.53331" lon="6.77317">
        <ele>365.7</ele>
        <time>2017-10-04T16:24:29Z</time>
      </trkpt>
      <trkpt lat="47.53335" lon="6.77313">
        <ele>365.4</ele>
        <time>2017-10-04T16:24:31Z</time>
      </trkpt>
      <trkpt lat="47.53339" lon="6.77309">
        <ele>365.2</ele>
        <time>2017-10-04T16:24:32Z</time>
      </trkpt>
      <trkpt lat="47.53345" lon="6.77303">
        <ele>365</ele>
        <time>2017-10-04T16:24:34Z</time>
      </trkpt>
      <trkpt lat="47.53347" lon="6.77301">
        <ele>365</ele>
        <time>2017-10-04T16:24:35Z</time>
      </trkpt>
      <trkpt lat="47.5335" lon="6.77298">
        <ele>364.9</ele>
        <time>2017-10-04T16:24:36Z</time>
      </trkpt>
      <trkpt lat="47.53352" lon="6.77295">
        <ele>364.8</ele>
        <time>2017-10-04T16:24:37Z</time>
      </trkpt>
      <trkpt lat="47.53355" lon="6.77291">
        <ele>364.6</ele>
        <time>2017-10-04T16:24:39Z</time>
      </trkpt>
      <trkpt lat="47.53358" lon="6.77286">
        <ele>364.7</ele>
        <time>2017-10-04T16:24:41Z</time>
      </trkpt>
      <trkpt lat="47.5336" lon="6.7728">
        <ele>364.6</ele>
        <time>2017-10-04T16:24:42Z</time>
      </trkpt>
      <trkpt lat="47.53363" lon="6.77271">
        <ele>364.5</ele>
        <time>2017-10-04T16:24:44Z</time>
      </trkpt>
      <trkpt lat="47.53365" lon="6.77265">
        <ele>364.7</ele>
        <time>2017-10-04T16:24:45Z</time>
      </trkpt>
      <trkpt lat="47.53368" lon="6.77258">
        <ele>364.8</ele>
        <time>2017-10-04T16:24:46Z</time>
      </trkpt>
      <trkpt lat="47.53371" lon="6.77254">
        <ele>365</ele>
        <time>2017-10-04T16:24:48Z</time>
      </trkpt>
      <trkpt lat="47.53373" lon="6.7725">
        <ele>365.2</ele>
        <time>2017-10-04T16:24:50Z</time>
      </trkpt>
      <trkpt lat="47.53376" lon="6.77246">
        <ele>365.5</ele>
        <time>2017-10-04T16:24:52Z</time>
      </trkpt>
      <trkpt lat="47.53378" lon="6.77242">
        <ele>365.6</ele>
        <time>2017-10-04T16:24:54Z</time>
      </trkpt>
      <trkpt lat="47.5338" lon="6.77236">
        <ele>365.8</ele>
        <time>2017-10-04T16:24:55Z</time>
      </trkpt>
      <trkpt lat="47.53385" lon="6.77232">
        <ele>366</ele>
        <time>2017-10-04T16:24:57Z</time>
      </trkpt>
      <trkpt lat="47.5339" lon="6.77229">
        <ele>366</ele>
        <time>2017-10-04T16:24:59Z</time>
      </trkpt>
      <trkpt lat="47.53393" lon="6.77228">
        <ele>366</ele>
        <time>2017-10-04T16:25:03Z</time>
      </trkpt>
      <trkpt lat="47.53396" lon="6.77232">
        <ele>366</ele>
        <time>2017-10-04T16:25:05Z</time>
      </trkpt>
      <trkpt lat="47.53399" lon="6.77236">
        <ele>365.7</ele>
        <time>2017-10-04T16:25:06Z</time>
      </trkpt>
      <trkpt lat="47.53404" lon="6.77238">
        <ele>365.3</ele>
        <time>2017-10-04T16:25:08Z</time>
      </trkpt>
      <trkpt lat="47.53409" lon="6.77241">
        <ele>365.2</ele>
        <time>2017-10-04T16:25:11Z</time>
      </trkpt>
      <trkpt lat="47.53411" lon="6.77242">
        <ele>365.1</ele>
        <time>2017-10-04T16:25:12Z</time>
      </trkpt>
      <trkpt lat="47.53416" lon="6.77244">
        <ele>365.1</ele>
        <time>2017-10-04T16:25:13Z</time>
      </trkpt>
      <trkpt lat="47.53421" lon="6.77242">
        <ele>365.1</ele>
        <time>2017-10-04T16:25:14Z</time>
      </trkpt>
      <trkpt lat="47.53425" lon="6.77244">
        <ele>365.1</ele>
        <time>2017-10-04T16:25:15Z</time>
      </trkpt>
      <trkpt lat="47.53428" lon="6.77243">
        <ele>365.1</ele>
        <time>2017-10-04T16:25:17Z</time>
      </trkpt>
      <trkpt lat="47.53431" lon="6.77242">
        <ele>365.2</ele>
        <time>2017-10-04T16:25:19Z</time>
      </trkpt>
      <trkpt lat="47.53435" lon="6.77242">
        <ele>365.2</ele>
        <time>2017-10-04T16:25:20Z</time>
      </trkpt>
      <trkpt lat="47.53439" lon="6.77242">
        <ele>365.2</ele>
        <time>2017-10-04T16:25:22Z</time>
      </trkpt>
      <trkpt lat="47.53443" lon="6.77243">
        <ele>365.2</ele>
        <time>2017-10-04T16:25:24Z</time>
      </trkpt>
      <trkpt lat="47.53448" lon="6.77244">
        <ele>365.3</ele>
        <time>2017-10-04T16:25:26Z</time>
      </trkpt>
      <trkpt lat="47.53451" lon="6.77246">
        <ele>365.3</ele>
        <time>2017-10-04T16:25:28Z</time>
      </trkpt>
      <trkpt lat="47.53454" lon="6.77248">
        <ele>365.3</ele>
        <time>2017-10-04T16:25:30Z</time>
      </trkpt>
      <trkpt lat="47.53457" lon="6.77249">
        <ele>365.3</ele>
        <time>2017-10-04T16:25:32Z</time>
      </trkpt>
      <trkpt lat="47.53461" lon="6.7725">
        <ele>365.4</ele>
        <time>2017-10-04T16:25:34Z</time>
      </trkpt>
      <trkpt lat="47.53465" lon="6.77249">
        <ele>365.4</ele>
        <time>2017-10-04T16:25:37Z</time>
      </trkpt>
      <trkpt lat="47.53468" lon="6.77251">
        <ele>365.4</ele>
        <time>2017-10-04T16:25:39Z</time>
      </trkpt>
      <trkpt lat="47.53471" lon="6.77251">
        <ele>365.5</ele>
        <time>2017-10-04T16:25:40Z</time>
      </trkpt>
      <trkpt lat="47.53477" lon="6.7725">
        <ele>365.4</ele>
        <time>2017-10-04T16:25:42Z</time>
      </trkpt>
      <trkpt lat="47.5348" lon="6.77251">
        <ele>365.3</ele>
        <time>2017-10-04T16:25:43Z</time>
      </trkpt>
      <trkpt lat="47.53483" lon="6.77251">
        <ele>365.3</ele>
        <time>2017-10-04T16:25:46Z</time>
      </trkpt>
      <trkpt lat="47.53486" lon="6.77251">
        <ele>365.2</ele>
        <time>2017-10-04T16:25:51Z</time>
      </trkpt>
      <trkpt lat="47.53489" lon="6.77255">
        <ele>365.1</ele>
        <time>2017-10-04T16:25:53Z</time>
      </trkpt>
      <trkpt lat="47.53493" lon="6.77257">
        <ele>365.1</ele>
        <time>2017-10-04T16:26:01Z</time>
      </trkpt>
      <trkpt lat="47.53496" lon="6.77256">
        <ele>365.8</ele>
        <time>2017-10-04T16:26:02Z</time>
      </trkpt>
      <trkpt lat="47.535" lon="6.77256">
        <ele>366.4</ele>
        <time>2017-10-04T16:26:04Z</time>
      </trkpt>
      <trkpt lat="47.53503" lon="6.77256">
        <ele>367</ele>
        <time>2017-10-04T16:26:13Z</time>
      </trkpt>
      <trkpt lat="47.53506" lon="6.77256">
        <ele>367.6</ele>
        <time>2017-10-04T16:26:14Z</time>
      </trkpt>
      <trkpt lat="47.53509" lon="6.77256">
        <ele>368.1</ele>
        <time>2017-10-04T16:26:15Z</time>
      </trkpt>
      <trkpt lat="47.53512" lon="6.77257">
        <ele>368.6</ele>
        <time>2017-10-04T16:26:16Z</time>
      </trkpt>
      <trkpt lat="47.53515" lon="6.77257">
        <ele>369.1</ele>
        <time>2017-10-04T16:26:17Z</time>
      </trkpt>
      <trkpt lat="47.53518" lon="6.77257">
        <ele>369.6</ele>
        <time>2017-10-04T16:26:18Z</time>
      </trkpt>
      <trkpt lat="47.53521" lon="6.77258">
        <ele>370.1</ele>
        <time>2017-10-04T16:26:19Z</time>
      </trkpt>
      <trkpt lat="47.53524" lon="6.77258">
        <ele>370.5</ele>
        <time>2017-10-04T16:26:20Z</time>
      </trkpt>
      <trkpt lat="47.53528" lon="6.77258">
        <ele>371.2</ele>
        <time>2017-10-04T16:26:25Z</time>
      </trkpt>
      <trkpt lat="47.53531" lon="6.77258">
        <ele>371.6</ele>
        <time>2017-10-04T16:26:26Z</time>
      </trkpt>
      <trkpt lat="47.53534" lon="6.77258">
        <ele>372.2</ele>
        <time>2017-10-04T16:26:27Z</time>
      </trkpt>
      <trkpt lat="47.53538" lon="6.77259">
        <ele>372.7</ele>
        <time>2017-10-04T16:26:28Z</time>
      </trkpt>
      <trkpt lat="47.53542" lon="6.77261">
        <ele>373.3</ele>
        <time>2017-10-04T16:26:29Z</time>
      </trkpt>
      <trkpt lat="47.53545" lon="6.77266">
        <ele>373.8</ele>
        <time>2017-10-04T16:26:31Z</time>
      </trkpt>
      <trkpt lat="47.53554" lon="6.77273">
        <ele>374.6</ele>
        <time>2017-10-04T16:26:36Z</time>
      </trkpt>
      <trkpt lat="47.53556" lon="6.77276">
        <ele>374.8</ele>
        <time>2017-10-04T16:26:38Z</time>
      </trkpt>
      <trkpt lat="47.53559" lon="6.77279">
        <ele>375</ele>
        <time>2017-10-04T16:26:39Z</time>
      </trkpt>
      <trkpt lat="47.53562" lon="6.7728">
        <ele>375.1</ele>
        <time>2017-10-04T16:26:42Z</time>
      </trkpt>
      <trkpt lat="47.53565" lon="6.77281">
        <ele>375.3</ele>
        <time>2017-10-04T16:26:43Z</time>
      </trkpt>
      <trkpt lat="47.53568" lon="6.77283">
        <ele>375.5</ele>
        <time>2017-10-04T16:26:45Z</time>
      </trkpt>
      <trkpt lat="47.53571" lon="6.77281">
        <ele>375.8</ele>
        <time>2017-10-04T16:27:02Z</time>
      </trkpt>
      <trkpt lat="47.53574" lon="6.77279">
        <ele>376</ele>
        <time>2017-10-04T16:27:03Z</time>
      </trkpt>
      <trkpt lat="47.53576" lon="6.77277">
        <ele>376.1</ele>
        <time>2017-10-04T16:27:04Z</time>
      </trkpt>
      <trkpt lat="47.53579" lon="6.77276">
        <ele>376.3</ele>
        <time>2017-10-04T16:27:07Z</time>
      </trkpt>
      <trkpt lat="47.53582" lon="6.77277">
        <ele>376.5</ele>
        <time>2017-10-04T16:27:09Z</time>
      </trkpt>
      <trkpt lat="47.53586" lon="6.7728">
        <ele>376.8</ele>
        <time>2017-10-04T16:27:10Z</time>
      </trkpt>
      <trkpt lat="47.53589" lon="6.77283">
        <ele>377</ele>
        <time>2017-10-04T16:27:11Z</time>
      </trkpt>
      <trkpt lat="47.53593" lon="6.77287">
        <ele>377.2</ele>
        <time>2017-10-04T16:27:13Z</time>
      </trkpt>
      <trkpt lat="47.53596" lon="6.77289">
        <ele>377.4</ele>
        <time>2017-10-04T16:27:14Z</time>
      </trkpt>
      <trkpt lat="47.53599" lon="6.77291">
        <ele>377.6</ele>
        <time>2017-10-04T16:27:15Z</time>
      </trkpt>
      <trkpt lat="47.53602" lon="6.77293">
        <ele>377.8</ele>
        <time>2017-10-04T16:27:16Z</time>
      </trkpt>
      <trkpt lat="47.53606" lon="6.77295">
        <ele>377.9</ele>
        <time>2017-10-04T16:27:17Z</time>
      </trkpt>
      <trkpt lat="47.53609" lon="6.77297">
        <ele>378.1</ele>
        <time>2017-10-04T16:27:18Z</time>
      </trkpt>
      <trkpt lat="47.53613" lon="6.77299">
        <ele>378.2</ele>
        <time>2017-10-04T16:27:19Z</time>
      </trkpt>
      <trkpt lat="47.53617" lon="6.773">
        <ele>378.4</ele>
        <time>2017-10-04T16:27:20Z</time>
      </trkpt>
      <trkpt lat="47.53621" lon="6.773">
        <ele>378.6</ele>
        <time>2017-10-04T16:27:21Z</time>
      </trkpt>
      <trkpt lat="47.53624" lon="6.77299">
        <ele>378.8</ele>
        <time>2017-10-04T16:27:23Z</time>
      </trkpt>
      <trkpt lat="47.53628" lon="6.77301">
        <ele>379.1</ele>
        <time>2017-10-04T16:27:24Z</time>
      </trkpt>
      <trkpt lat="47.5363" lon="6.77301">
        <ele>379.6</ele>
        <time>2017-10-04T16:27:26Z</time>
      </trkpt>
      <trkpt lat="47.53634" lon="6.77303">
        <ele>381.5</ele>
        <time>2017-10-04T16:27:27Z</time>
      </trkpt>
      <trkpt lat="47.53637" lon="6.77307">
        <ele>382.1</ele>
        <time>2017-10-04T16:27:29Z</time>
      </trkpt>
      <trkpt lat="47.53639" lon="6.7731">
        <ele>382.5</ele>
        <time>2017-10-04T16:27:32Z</time>
      </trkpt>
      <trkpt lat="47.53643" lon="6.77313">
        <ele>383</ele>
        <time>2017-10-04T16:27:33Z</time>
      </trkpt>
      <trkpt lat="47.53647" lon="6.77317">
        <ele>383.5</ele>
        <time>2017-10-04T16:27:35Z</time>
      </trkpt>
      <trkpt lat="47.5365" lon="6.77321">
        <ele>383.9</ele>
        <time>2017-10-04T16:27:36Z</time>
      </trkpt>
      <trkpt lat="47.53652" lon="6.77324">
        <ele>384.2</ele>
        <time>2017-10-04T16:27:38Z</time>
      </trkpt>
      <trkpt lat="47.53656" lon="6.77327">
        <ele>384.5</ele>
        <time>2017-10-04T16:27:39Z</time>
      </trkpt>
      <trkpt lat="47.53659" lon="6.7733">
        <ele>384.9</ele>
        <time>2017-10-04T16:27:40Z</time>
      </trkpt>
      <trkpt lat="47.53663" lon="6.77328">
        <ele>385.2</ele>
        <time>2017-10-04T16:27:41Z</time>
      </trkpt>
      <trkpt lat="47.53667" lon="6.77328">
        <ele>385.4</ele>
        <time>2017-10-04T16:27:43Z</time>
      </trkpt>
      <trkpt lat="47.5367" lon="6.7733">
        <ele>385.9</ele>
        <time>2017-10-04T16:27:44Z</time>
      </trkpt>
      <trkpt lat="47.53674" lon="6.77333">
        <ele>386.4</ele>
        <time>2017-10-04T16:27:45Z</time>
      </trkpt>
      <trkpt lat="47.53677" lon="6.77336">
        <ele>387</ele>
        <time>2017-10-04T16:27:47Z</time>
      </trkpt>
      <trkpt lat="47.53679" lon="6.77338">
        <ele>387.4</ele>
        <time>2017-10-04T16:27:49Z</time>
      </trkpt>
      <trkpt lat="47.53682" lon="6.7734">
        <ele>387.9</ele>
        <time>2017-10-04T16:27:52Z</time>
      </trkpt>
      <trkpt lat="47.53687" lon="6.7734">
        <ele>388.7</ele>
        <time>2017-10-04T16:27:54Z</time>
      </trkpt>
      <trkpt lat="47.53692" lon="6.77339">
        <ele>389.5</ele>
        <time>2017-10-04T16:27:55Z</time>
      </trkpt>
      <trkpt lat="47.53696" lon="6.77338">
        <ele>390</ele>
        <time>2017-10-04T16:27:57Z</time>
      </trkpt>
      <trkpt lat="47.537" lon="6.77336">
        <ele>390.7</ele>
        <time>2017-10-04T16:27:58Z</time>
      </trkpt>
      <trkpt lat="47.53703" lon="6.77333">
        <ele>391.3</ele>
        <time>2017-10-04T16:27:59Z</time>
      </trkpt>
      <trkpt lat="47.53707" lon="6.7733">
        <ele>391.8</ele>
        <time>2017-10-04T16:28:01Z</time>
      </trkpt>
      <trkpt lat="47.53712" lon="6.77327">
        <ele>392.6</ele>
        <time>2017-10-04T16:28:03Z</time>
      </trkpt>
      <trkpt lat="47.53714" lon="6.77325">
        <ele>393</ele>
        <time>2017-10-04T16:28:05Z</time>
      </trkpt>
      <trkpt lat="47.53718" lon="6.77322">
        <ele>393.6</ele>
        <time>2017-10-04T16:28:06Z</time>
      </trkpt>
      <trkpt lat="47.5372" lon="6.7732">
        <ele>394.1</ele>
        <time>2017-10-04T16:28:08Z</time>
      </trkpt>
      <trkpt lat="47.53724" lon="6.77315">
        <ele>394.9</ele>
        <time>2017-10-04T16:28:10Z</time>
      </trkpt>
      <trkpt lat="47.53725" lon="6.77309">
        <ele>395.6</ele>
        <time>2017-10-04T16:28:12Z</time>
      </trkpt>
      <trkpt lat="47.53726" lon="6.77303">
        <ele>396.2</ele>
        <time>2017-10-04T16:28:14Z</time>
      </trkpt>
      <trkpt lat="47.53727" lon="6.77297">
        <ele>397</ele>
        <time>2017-10-04T16:28:15Z</time>
      </trkpt>
      <trkpt lat="47.53728" lon="6.77292">
        <ele>397.6</ele>
        <time>2017-10-04T16:28:17Z</time>
      </trkpt>
      <trkpt lat="47.53729" lon="6.77287">
        <ele>398.2</ele>
        <time>2017-10-04T16:28:19Z</time>
      </trkpt>
      <trkpt lat="47.5373" lon="6.77281">
        <ele>398.9</ele>
        <time>2017-10-04T16:28:20Z</time>
      </trkpt>
      <trkpt lat="47.53733" lon="6.77273">
        <ele>399.8</ele>
        <time>2017-10-04T16:28:22Z</time>
      </trkpt>
      <trkpt lat="47.53733" lon="6.77268">
        <ele>400.2</ele>
        <time>2017-10-04T16:28:23Z</time>
      </trkpt>
      <trkpt lat="47.53734" lon="6.77263">
        <ele>400.6</ele>
        <time>2017-10-04T16:28:25Z</time>
      </trkpt>
      <trkpt lat="47.53735" lon="6.77258">
        <ele>401</ele>
        <time>2017-10-04T16:28:27Z</time>
      </trkpt>
      <trkpt lat="47.53734" lon="6.77253">
        <ele>401.3</ele>
        <time>2017-10-04T16:28:29Z</time>
      </trkpt>
      <trkpt lat="47.53735" lon="6.77249">
        <ele>401.6</ele>
        <time>2017-10-04T16:28:30Z</time>
      </trkpt>
      <trkpt lat="47.53738" lon="6.77244">
        <ele>401.8</ele>
        <time>2017-10-04T16:28:31Z</time>
      </trkpt>
      <trkpt lat="47.5374" lon="6.7724">
        <ele>402</ele>
        <time>2017-10-04T16:28:33Z</time>
      </trkpt>
      <trkpt lat="47.53743" lon="6.77233">
        <ele>402.3</ele>
        <time>2017-10-04T16:28:37Z</time>
      </trkpt>
      <trkpt lat="47.53745" lon="6.77227">
        <ele>402.6</ele>
        <time>2017-10-04T16:28:38Z</time>
      </trkpt>
      <trkpt lat="47.53744" lon="6.7722">
        <ele>403.4</ele>
        <time>2017-10-04T16:28:40Z</time>
      </trkpt>
      <trkpt lat="47.53744" lon="6.77216">
        <ele>404</ele>
        <time>2017-10-04T16:28:41Z</time>
      </trkpt>
      <trkpt lat="47.53747" lon="6.77212">
        <ele>404.9</ele>
        <time>2017-10-04T16:28:43Z</time>
      </trkpt>
      <trkpt lat="47.5375" lon="6.77207">
        <ele>405.9</ele>
        <time>2017-10-04T16:28:44Z</time>
      </trkpt>
      <trkpt lat="47.53752" lon="6.77202">
        <ele>407</ele>
        <time>2017-10-04T16:28:45Z</time>
      </trkpt>
      <trkpt lat="47.53753" lon="6.77196">
        <ele>407.9</ele>
        <time>2017-10-04T16:28:48Z</time>
      </trkpt>
      <trkpt lat="47.53756" lon="6.77189">
        <ele>409.5</ele>
        <time>2017-10-04T16:28:50Z</time>
      </trkpt>
      <trkpt lat="47.53757" lon="6.77185">
        <ele>409.8</ele>
        <time>2017-10-04T16:28:51Z</time>
      </trkpt>
      <trkpt lat="47.53759" lon="6.77181">
        <ele>410.1</ele>
        <time>2017-10-04T16:28:53Z</time>
      </trkpt>
      <trkpt lat="47.5376" lon="6.77177">
        <ele>410.4</ele>
        <time>2017-10-04T16:28:55Z</time>
      </trkpt>
      <trkpt lat="47.53761" lon="6.77173">
        <ele>410.7</ele>
        <time>2017-10-04T16:28:57Z</time>
      </trkpt>
      <trkpt lat="47.53761" lon="6.77167">
        <ele>411.1</ele>
        <time>2017-10-04T16:28:59Z</time>
      </trkpt>
      <trkpt lat="47.53762" lon="6.77161">
        <ele>411.4</ele>
        <time>2017-10-04T16:29:00Z</time>
      </trkpt>
      <trkpt lat="47.53763" lon="6.77152">
        <ele>412</ele>
        <time>2017-10-04T16:29:02Z</time>
      </trkpt>
      <trkpt lat="47.53766" lon="6.77143">
        <ele>412.5</ele>
        <time>2017-10-04T16:29:04Z</time>
      </trkpt>
      <trkpt lat="47.53769" lon="6.77138">
        <ele>412.8</ele>
        <time>2017-10-04T16:29:06Z</time>
      </trkpt>
      <trkpt lat="47.5377" lon="6.77133">
        <ele>413.1</ele>
        <time>2017-10-04T16:29:07Z</time>
      </trkpt>
      <trkpt lat="47.5377" lon="6.77128">
        <ele>413.3</ele>
        <time>2017-10-04T16:29:09Z</time>
      </trkpt>
      <trkpt lat="47.53771" lon="6.77123">
        <ele>413.6</ele>
        <time>2017-10-04T16:29:11Z</time>
      </trkpt>
      <trkpt lat="47.53773" lon="6.77119">
        <ele>413.8</ele>
        <time>2017-10-04T16:29:13Z</time>
      </trkpt>
      <trkpt lat="47.53777" lon="6.77112">
        <ele>414.2</ele>
        <time>2017-10-04T16:29:16Z</time>
      </trkpt>
      <trkpt lat="47.53778" lon="6.77109">
        <ele>414.3</ele>
        <time>2017-10-04T16:29:17Z</time>
      </trkpt>
      <trkpt lat="47.53779" lon="6.77104">
        <ele>414.5</ele>
        <time>2017-10-04T16:29:20Z</time>
      </trkpt>
      <trkpt lat="47.53781" lon="6.77096">
        <ele>414.8</ele>
        <time>2017-10-04T16:29:22Z</time>
      </trkpt>
      <trkpt lat="47.53781" lon="6.7709">
        <ele>415</ele>
        <time>2017-10-04T16:29:24Z</time>
      </trkpt>
      <trkpt lat="47.53781" lon="6.77084">
        <ele>415.2</ele>
        <time>2017-10-04T16:29:25Z</time>
      </trkpt>
      <trkpt lat="47.53781" lon="6.77079">
        <ele>415.4</ele>
        <time>2017-10-04T16:29:27Z</time>
      </trkpt>
      <trkpt lat="47.53781" lon="6.77073">
        <ele>415.6</ele>
        <time>2017-10-04T16:29:29Z</time>
      </trkpt>
      <trkpt lat="47.53781" lon="6.77067">
        <ele>415.7</ele>
        <time>2017-10-04T16:29:30Z</time>
      </trkpt>
      <trkpt lat="47.53783" lon="6.77058">
        <ele>415.9</ele>
        <time>2017-10-04T16:29:32Z</time>
      </trkpt>
      <trkpt lat="47.53783" lon="6.77051">
        <ele>416.1</ele>
        <time>2017-10-04T16:29:34Z</time>
      </trkpt>
      <trkpt lat="47.53782" lon="6.77045">
        <ele>416.2</ele>
        <time>2017-10-04T16:29:36Z</time>
      </trkpt>
      <trkpt lat="47.53781" lon="6.77041">
        <ele>416.3</ele>
        <time>2017-10-04T16:29:37Z</time>
      </trkpt>
      <trkpt lat="47.53782" lon="6.77033">
        <ele>416.5</ele>
        <time>2017-10-04T16:29:39Z</time>
      </trkpt>
      <trkpt lat="47.53781" lon="6.77028">
        <ele>416.6</ele>
        <time>2017-10-04T16:29:41Z</time>
      </trkpt>
      <trkpt lat="47.53783" lon="6.77025">
        <ele>416.8</ele>
        <time>2017-10-04T16:29:43Z</time>
      </trkpt>
      <trkpt lat="47.53782" lon="6.77021">
        <ele>416.9</ele>
        <time>2017-10-04T16:29:44Z</time>
      </trkpt>
      <trkpt lat="47.53781" lon="6.77016">
        <ele>417.1</ele>
        <time>2017-10-04T16:29:45Z</time>
      </trkpt>
      <trkpt lat="47.53777" lon="6.77008">
        <ele>417.5</ele>
        <time>2017-10-04T16:29:46Z</time>
      </trkpt>
      <trkpt lat="47.53775" lon="6.77003">
        <ele>417.7</ele>
        <time>2017-10-04T16:29:47Z</time>
      </trkpt>
      <trkpt lat="47.53774" lon="6.76997">
        <ele>418</ele>
        <time>2017-10-04T16:29:50Z</time>
      </trkpt>
      <trkpt lat="47.53774" lon="6.76991">
        <ele>418.2</ele>
        <time>2017-10-04T16:29:52Z</time>
      </trkpt>
      <trkpt lat="47.53774" lon="6.76987">
        <ele>418.4</ele>
        <time>2017-10-04T16:29:53Z</time>
      </trkpt>
      <trkpt lat="47.53773" lon="6.76983">
        <ele>418.5</ele>
        <time>2017-10-04T16:29:54Z</time>
      </trkpt>
      <trkpt lat="47.53772" lon="6.76976">
        <ele>418.7</ele>
        <time>2017-10-04T16:29:56Z</time>
      </trkpt>
      <trkpt lat="47.53771" lon="6.76969">
        <ele>418.9</ele>
        <time>2017-10-04T16:29:57Z</time>
      </trkpt>
      <trkpt lat="47.53769" lon="6.76962">
        <ele>419.1</ele>
        <time>2017-10-04T16:29:59Z</time>
      </trkpt>
      <trkpt lat="47.53767" lon="6.76956">
        <ele>419.5</ele>
        <time>2017-10-04T16:30:01Z</time>
      </trkpt>
      <trkpt lat="47.53766" lon="6.7695">
        <ele>419.8</ele>
        <time>2017-10-04T16:30:03Z</time>
      </trkpt>
      <trkpt lat="47.53764" lon="6.76943">
        <ele>420.2</ele>
        <time>2017-10-04T16:30:05Z</time>
      </trkpt>
      <trkpt lat="47.53764" lon="6.76939">
        <ele>420.4</ele>
        <time>2017-10-04T16:30:06Z</time>
      </trkpt>
      <trkpt lat="47.53764" lon="6.76934">
        <ele>420.7</ele>
        <time>2017-10-04T16:30:07Z</time>
      </trkpt>
      <trkpt lat="47.53764" lon="6.76929">
        <ele>421</ele>
        <time>2017-10-04T16:30:08Z</time>
      </trkpt>
      <trkpt lat="47.53765" lon="6.76925">
        <ele>421.2</ele>
        <time>2017-10-04T16:30:09Z</time>
      </trkpt>
      <trkpt lat="47.53767" lon="6.76919">
        <ele>421.6</ele>
        <time>2017-10-04T16:30:11Z</time>
      </trkpt>
      <trkpt lat="47.53767" lon="6.76915">
        <ele>421.8</ele>
        <time>2017-10-04T16:30:12Z</time>
      </trkpt>
      <trkpt lat="47.53769" lon="6.76908">
        <ele>422.3</ele>
        <time>2017-10-04T16:30:14Z</time>
      </trkpt>
      <trkpt lat="47.5377" lon="6.76902">
        <ele>422.7</ele>
        <time>2017-10-04T16:30:15Z</time>
      </trkpt>
      <trkpt lat="47.5377" lon="6.76898">
        <ele>423</ele>
        <time>2017-10-04T16:30:16Z</time>
      </trkpt>
      <trkpt lat="47.5377" lon="6.76894">
        <ele>423.2</ele>
        <time>2017-10-04T16:30:17Z</time>
      </trkpt>
      <trkpt lat="47.53771" lon="6.76887">
        <ele>423.5</ele>
        <time>2017-10-04T16:30:19Z</time>
      </trkpt>
      <trkpt lat="47.53772" lon="6.7688">
        <ele>423.9</ele>
        <time>2017-10-04T16:30:21Z</time>
      </trkpt>
      <trkpt lat="47.53773" lon="6.76874">
        <ele>424.2</ele>
        <time>2017-10-04T16:30:23Z</time>
      </trkpt>
      <trkpt lat="47.53775" lon="6.76866">
        <ele>424.7</ele>
        <time>2017-10-04T16:30:25Z</time>
      </trkpt>
      <trkpt lat="47.53778" lon="6.76857">
        <ele>425.2</ele>
        <time>2017-10-04T16:30:27Z</time>
      </trkpt>
      <trkpt lat="47.53779" lon="6.76851">
        <ele>425.5</ele>
        <time>2017-10-04T16:30:29Z</time>
      </trkpt>
      <trkpt lat="47.53779" lon="6.76845">
        <ele>425.8</ele>
        <time>2017-10-04T16:30:31Z</time>
      </trkpt>
      <trkpt lat="47.5378" lon="6.76841">
        <ele>426.1</ele>
        <time>2017-10-04T16:30:33Z</time>
      </trkpt>
      <trkpt lat="47.53782" lon="6.76836">
        <ele>426.4</ele>
        <time>2017-10-04T16:30:35Z</time>
      </trkpt>
      <trkpt lat="47.53783" lon="6.7683">
        <ele>426.7</ele>
        <time>2017-10-04T16:30:37Z</time>
      </trkpt>
      <trkpt lat="47.53784" lon="6.76825">
        <ele>427.1</ele>
        <time>2017-10-04T16:30:39Z</time>
      </trkpt>
      <trkpt lat="47.53787" lon="6.76823">
        <ele>427.4</ele>
        <time>2017-10-04T16:30:40Z</time>
      </trkpt>
      <trkpt lat="47.53789" lon="6.7682">
        <ele>427.8</ele>
        <time>2017-10-04T16:30:42Z</time>
      </trkpt>
      <trkpt lat="47.5379" lon="6.76814">
        <ele>428.2</ele>
        <time>2017-10-04T16:30:44Z</time>
      </trkpt>
      <trkpt lat="47.53791" lon="6.76808">
        <ele>428.6</ele>
        <time>2017-10-04T16:30:46Z</time>
      </trkpt>
      <trkpt lat="47.53792" lon="6.768">
        <ele>429.1</ele>
        <time>2017-10-04T16:30:47Z</time>
      </trkpt>
      <trkpt lat="47.53794" lon="6.76796">
        <ele>429.4</ele>
        <time>2017-10-04T16:30:48Z</time>
      </trkpt>
      <trkpt lat="47.53796" lon="6.76792">
        <ele>429.8</ele>
        <time>2017-10-04T16:30:49Z</time>
      </trkpt>
      <trkpt lat="47.53797" lon="6.76789">
        <ele>430.1</ele>
        <time>2017-10-04T16:30:50Z</time>
      </trkpt>
      <trkpt lat="47.53799" lon="6.76785">
        <ele>430.4</ele>
        <time>2017-10-04T16:30:52Z</time>
      </trkpt>
      <trkpt lat="47.538" lon="6.76779">
        <ele>430.8</ele>
        <time>2017-10-04T16:30:55Z</time>
      </trkpt>
      <trkpt lat="47.53798" lon="6.76772">
        <ele>431.3</ele>
        <time>2017-10-04T16:30:57Z</time>
      </trkpt>
      <trkpt lat="47.53799" lon="6.76767">
        <ele>431.7</ele>
        <time>2017-10-04T16:31:00Z</time>
      </trkpt>
      <trkpt lat="47.538" lon="6.76763">
        <ele>432</ele>
        <time>2017-10-04T16:31:03Z</time>
      </trkpt>
      <trkpt lat="47.53801" lon="6.76759">
        <ele>432.3</ele>
        <time>2017-10-04T16:31:05Z</time>
      </trkpt>
      <trkpt lat="47.53803" lon="6.76754">
        <ele>432.7</ele>
        <time>2017-10-04T16:31:06Z</time>
      </trkpt>
      <trkpt lat="47.53805" lon="6.76749">
        <ele>433.1</ele>
        <time>2017-10-04T16:31:08Z</time>
      </trkpt>
      <trkpt lat="47.53806" lon="6.76744">
        <ele>433.5</ele>
        <time>2017-10-04T16:31:09Z</time>
      </trkpt>
      <trkpt lat="47.53807" lon="6.7674">
        <ele>433.8</ele>
        <time>2017-10-04T16:31:11Z</time>
      </trkpt>
      <trkpt lat="47.53807" lon="6.76733">
        <ele>434.1</ele>
        <time>2017-10-04T16:31:13Z</time>
      </trkpt>
      <trkpt lat="47.53809" lon="6.76729">
        <ele>434.3</ele>
        <time>2017-10-04T16:31:15Z</time>
      </trkpt>
      <trkpt lat="47.53811" lon="6.76724">
        <ele>434.5</ele>
        <time>2017-10-04T16:31:17Z</time>
      </trkpt>
      <trkpt lat="47.53815" lon="6.76721">
        <ele>434.7</ele>
        <time>2017-10-04T16:31:19Z</time>
      </trkpt>
      <trkpt lat="47.53819" lon="6.76717">
        <ele>434.8</ele>
        <time>2017-10-04T16:31:20Z</time>
      </trkpt>
      <trkpt lat="47.53821" lon="6.76714">
        <ele>434.9</ele>
        <time>2017-10-04T16:31:21Z</time>
      </trkpt>
      <trkpt lat="47.53825" lon="6.76707">
        <ele>435.1</ele>
        <time>2017-10-04T16:31:23Z</time>
      </trkpt>
      <trkpt lat="47.53828" lon="6.76704">
        <ele>435.1</ele>
        <time>2017-10-04T16:31:25Z</time>
      </trkpt>
      <trkpt lat="47.53832" lon="6.76699">
        <ele>435.2</ele>
        <time>2017-10-04T16:31:27Z</time>
      </trkpt>
      <trkpt lat="47.53834" lon="6.76695">
        <ele>435.3</ele>
        <time>2017-10-04T16:31:30Z</time>
      </trkpt>
      <trkpt lat="47.53838" lon="6.76691">
        <ele>435.4</ele>
        <time>2017-10-04T16:31:33Z</time>
      </trkpt>
      <trkpt lat="47.53842" lon="6.76689">
        <ele>435.4</ele>
        <time>2017-10-04T16:31:34Z</time>
      </trkpt>
      <trkpt lat="47.53844" lon="6.76684">
        <ele>435.4</ele>
        <time>2017-10-04T16:31:36Z</time>
      </trkpt>
      <trkpt lat="47.53847" lon="6.76678">
        <ele>435.5</ele>
        <time>2017-10-04T16:31:38Z</time>
      </trkpt>
      <trkpt lat="47.5385" lon="6.76673">
        <ele>435.5</ele>
        <time>2017-10-04T16:31:39Z</time>
      </trkpt>
      <trkpt lat="47.53852" lon="6.76669">
        <ele>435.5</ele>
        <time>2017-10-04T16:31:41Z</time>
      </trkpt>
      <trkpt lat="47.53854" lon="6.76663">
        <ele>435.6</ele>
        <time>2017-10-04T16:31:43Z</time>
      </trkpt>
      <trkpt lat="47.53856" lon="6.76657">
        <ele>435.6</ele>
        <time>2017-10-04T16:31:44Z</time>
      </trkpt>
      <trkpt lat="47.5386" lon="6.76652">
        <ele>435.6</ele>
        <time>2017-10-04T16:31:46Z</time>
      </trkpt>
      <trkpt lat="47.53862" lon="6.7665">
        <ele>435.6</ele>
        <time>2017-10-04T16:31:47Z</time>
      </trkpt>
      <trkpt lat="47.53864" lon="6.76648">
        <ele>435.6</ele>
        <time>2017-10-04T16:31:48Z</time>
      </trkpt>
      <trkpt lat="47.53867" lon="6.76642">
        <ele>435.6</ele>
        <time>2017-10-04T16:31:50Z</time>
      </trkpt>
      <trkpt lat="47.5387" lon="6.76637">
        <ele>435.6</ele>
        <time>2017-10-04T16:31:52Z</time>
      </trkpt>
      <trkpt lat="47.53872" lon="6.76634">
        <ele>435.5</ele>
        <time>2017-10-04T16:31:54Z</time>
      </trkpt>
      <trkpt lat="47.53875" lon="6.76629">
        <ele>435.5</ele>
        <time>2017-10-04T16:31:56Z</time>
      </trkpt>
      <trkpt lat="47.53877" lon="6.76625">
        <ele>435.5</ele>
        <time>2017-10-04T16:31:58Z</time>
      </trkpt>
      <trkpt lat="47.53881" lon="6.76622">
        <ele>435.4</ele>
        <time>2017-10-04T16:32:00Z</time>
      </trkpt>
      <trkpt lat="47.53884" lon="6.76615">
        <ele>435.2</ele>
        <time>2017-10-04T16:32:02Z</time>
      </trkpt>
      <trkpt lat="47.53886" lon="6.76612">
        <ele>435.1</ele>
        <time>2017-10-04T16:32:03Z</time>
      </trkpt>
      <trkpt lat="47.53887" lon="6.76608">
        <ele>435</ele>
        <time>2017-10-04T16:32:04Z</time>
      </trkpt>
      <trkpt lat="47.53889" lon="6.76603">
        <ele>434.9</ele>
        <time>2017-10-04T16:32:06Z</time>
      </trkpt>
      <trkpt lat="47.53891" lon="6.76598">
        <ele>434.8</ele>
        <time>2017-10-04T16:32:08Z</time>
      </trkpt>
      <trkpt lat="47.53898" lon="6.76595">
        <ele>434.8</ele>
        <time>2017-10-04T16:32:10Z</time>
      </trkpt>
      <trkpt lat="47.53902" lon="6.76589">
        <ele>434.8</ele>
        <time>2017-10-04T16:32:12Z</time>
      </trkpt>
      <trkpt lat="47.53905" lon="6.76584">
        <ele>434.8</ele>
        <time>2017-10-04T16:32:13Z</time>
      </trkpt>
      <trkpt lat="47.53909" lon="6.76579">
        <ele>434.8</ele>
        <time>2017-10-04T16:32:14Z</time>
      </trkpt>
      <trkpt lat="47.53912" lon="6.76573">
        <ele>434.8</ele>
        <time>2017-10-04T16:32:16Z</time>
      </trkpt>
      <trkpt lat="47.53914" lon="6.76566">
        <ele>434.8</ele>
        <time>2017-10-04T16:32:18Z</time>
      </trkpt>
      <trkpt lat="47.53915" lon="6.76562">
        <ele>434.8</ele>
        <time>2017-10-04T16:32:19Z</time>
      </trkpt>
      <trkpt lat="47.53917" lon="6.76558">
        <ele>434.9</ele>
        <time>2017-10-04T16:32:20Z</time>
      </trkpt>
      <trkpt lat="47.53918" lon="6.76555">
        <ele>434.9</ele>
        <time>2017-10-04T16:32:21Z</time>
      </trkpt>
      <trkpt lat="47.53921" lon="6.76553">
        <ele>434.9</ele>
        <time>2017-10-04T16:32:22Z</time>
      </trkpt>
      <trkpt lat="47.53924" lon="6.76547">
        <ele>435</ele>
        <time>2017-10-04T16:32:24Z</time>
      </trkpt>
      <trkpt lat="47.53926" lon="6.76544">
        <ele>435</ele>
        <time>2017-10-04T16:32:25Z</time>
      </trkpt>
      <trkpt lat="47.53929" lon="6.7654">
        <ele>435</ele>
        <time>2017-10-04T16:32:26Z</time>
      </trkpt>
      <trkpt lat="47.53932" lon="6.76539">
        <ele>435.1</ele>
        <time>2017-10-04T16:32:27Z</time>
      </trkpt>
      <trkpt lat="47.53935" lon="6.76537">
        <ele>435.1</ele>
        <time>2017-10-04T16:32:28Z</time>
      </trkpt>
      <trkpt lat="47.53937" lon="6.76532">
        <ele>435.2</ele>
        <time>2017-10-04T16:32:30Z</time>
      </trkpt>
      <trkpt lat="47.53942" lon="6.76529">
        <ele>435.2</ele>
        <time>2017-10-04T16:32:32Z</time>
      </trkpt>
      <trkpt lat="47.53946" lon="6.76525">
        <ele>435.3</ele>
        <time>2017-10-04T16:32:34Z</time>
      </trkpt>
      <trkpt lat="47.53949" lon="6.7652">
        <ele>435.3</ele>
        <time>2017-10-04T16:32:36Z</time>
      </trkpt>
      <trkpt lat="47.53951" lon="6.76515">
        <ele>435.4</ele>
        <time>2017-10-04T16:32:38Z</time>
      </trkpt>
      <trkpt lat="47.53954" lon="6.7651">
        <ele>435.4</ele>
        <time>2017-10-04T16:32:40Z</time>
      </trkpt>
      <trkpt lat="47.53957" lon="6.76506">
        <ele>435.4</ele>
        <time>2017-10-04T16:32:42Z</time>
      </trkpt>
      <trkpt lat="47.5396" lon="6.76502">
        <ele>435.5</ele>
        <time>2017-10-04T16:32:43Z</time>
      </trkpt>
      <trkpt lat="47.53962" lon="6.76496">
        <ele>435.6</ele>
        <time>2017-10-04T16:32:45Z</time>
      </trkpt>
      <trkpt lat="47.53964" lon="6.76492">
        <ele>435.6</ele>
        <time>2017-10-04T16:32:46Z</time>
      </trkpt>
      <trkpt lat="47.53966" lon="6.76487">
        <ele>435.6</ele>
        <time>2017-10-04T16:32:47Z</time>
      </trkpt>
      <trkpt lat="47.53968" lon="6.76482">
        <ele>435.7</ele>
        <time>2017-10-04T16:32:48Z</time>
      </trkpt>
      <trkpt lat="47.53968" lon="6.76476">
        <ele>435.7</ele>
        <time>2017-10-04T16:32:49Z</time>
      </trkpt>
      <trkpt lat="47.5397" lon="6.76471">
        <ele>435.7</ele>
        <time>2017-10-04T16:32:50Z</time>
      </trkpt>
      <trkpt lat="47.53971" lon="6.76467">
        <ele>435.7</ele>
        <time>2017-10-04T16:32:51Z</time>
      </trkpt>
      <trkpt lat="47.53973" lon="6.76461">
        <ele>435.8</ele>
        <time>2017-10-04T16:32:53Z</time>
      </trkpt>
      <trkpt lat="47.53974" lon="6.76457">
        <ele>435.8</ele>
        <time>2017-10-04T16:32:54Z</time>
      </trkpt>
      <trkpt lat="47.53976" lon="6.76453">
        <ele>435.9</ele>
        <time>2017-10-04T16:32:55Z</time>
      </trkpt>
      <trkpt lat="47.53978" lon="6.76449">
        <ele>435.9</ele>
        <time>2017-10-04T16:32:56Z</time>
      </trkpt>
      <trkpt lat="47.5398" lon="6.76445">
        <ele>435.9</ele>
        <time>2017-10-04T16:32:57Z</time>
      </trkpt>
      <trkpt lat="47.53984" lon="6.76443">
        <ele>436</ele>
        <time>2017-10-04T16:32:58Z</time>
      </trkpt>
      <trkpt lat="47.53987" lon="6.7644">
        <ele>436</ele>
        <time>2017-10-04T16:32:59Z</time>
      </trkpt>
      <trkpt lat="47.5399" lon="6.76437">
        <ele>436</ele>
        <time>2017-10-04T16:33:00Z</time>
      </trkpt>
      <trkpt lat="47.53991" lon="6.76433">
        <ele>436.1</ele>
        <time>2017-10-04T16:33:01Z</time>
      </trkpt>
      <trkpt lat="47.53993" lon="6.76429">
        <ele>436.1</ele>
        <time>2017-10-04T16:33:02Z</time>
      </trkpt>
      <trkpt lat="47.53995" lon="6.76426">
        <ele>436.1</ele>
        <time>2017-10-04T16:33:03Z</time>
      </trkpt>
      <trkpt lat="47.53997" lon="6.76421">
        <ele>436.2</ele>
        <time>2017-10-04T16:33:05Z</time>
      </trkpt>
      <trkpt lat="47.54001" lon="6.76417">
        <ele>436.3</ele>
        <time>2017-10-04T16:33:07Z</time>
      </trkpt>
      <trkpt lat="47.54003" lon="6.76415">
        <ele>436.3</ele>
        <time>2017-10-04T16:33:08Z</time>
      </trkpt>
      <trkpt lat="47.54006" lon="6.76409">
        <ele>436.4</ele>
        <time>2017-10-04T16:33:10Z</time>
      </trkpt>
      <trkpt lat="47.54008" lon="6.76404">
        <ele>436.4</ele>
        <time>2017-10-04T16:33:11Z</time>
      </trkpt>
      <trkpt lat="47.5401" lon="6.76401">
        <ele>436.4</ele>
        <time>2017-10-04T16:33:12Z</time>
      </trkpt>
      <trkpt lat="47.54013" lon="6.76397">
        <ele>436.5</ele>
        <time>2017-10-04T16:33:13Z</time>
      </trkpt>
      <trkpt lat="47.54014" lon="6.76393">
        <ele>436.5</ele>
        <time>2017-10-04T16:33:14Z</time>
      </trkpt>
      <trkpt lat="47.54016" lon="6.76389">
        <ele>436.6</ele>
        <time>2017-10-04T16:33:15Z</time>
      </trkpt>
      <trkpt lat="47.54018" lon="6.76385">
        <ele>436.6</ele>
        <time>2017-10-04T16:33:16Z</time>
      </trkpt>
      <trkpt lat="47.54021" lon="6.76381">
        <ele>436.6</ele>
        <time>2017-10-04T16:33:17Z</time>
      </trkpt>
      <trkpt lat="47.54024" lon="6.76377">
        <ele>436.6</ele>
        <time>2017-10-04T16:33:18Z</time>
      </trkpt>
      <trkpt lat="47.54026" lon="6.76373">
        <ele>436.6</ele>
        <time>2017-10-04T16:33:19Z</time>
      </trkpt>
      <trkpt lat="47.54028" lon="6.76369">
        <ele>436.7</ele>
        <time>2017-10-04T16:33:20Z</time>
      </trkpt>
      <trkpt lat="47.5403" lon="6.76366">
        <ele>436.7</ele>
        <time>2017-10-04T16:33:21Z</time>
      </trkpt>
      <trkpt lat="47.54031" lon="6.76361">
        <ele>436.7</ele>
        <time>2017-10-04T16:33:22Z</time>
      </trkpt>
      <trkpt lat="47.54035" lon="6.76358">
        <ele>436.6</ele>
        <time>2017-10-04T16:33:24Z</time>
      </trkpt>
      <trkpt lat="47.54036" lon="6.76348">
        <ele>436.6</ele>
        <time>2017-10-04T16:33:26Z</time>
      </trkpt>
      <trkpt lat="47.54036" lon="6.76343">
        <ele>436.6</ele>
        <time>2017-10-04T16:33:27Z</time>
      </trkpt>
      <trkpt lat="47.54037" lon="6.76334">
        <ele>436.3</ele>
        <time>2017-10-04T16:33:28Z</time>
      </trkpt>
      <trkpt lat="47.54039" lon="6.76325">
        <ele>436.2</ele>
        <time>2017-10-04T16:33:29Z</time>
      </trkpt>
      <trkpt lat="47.5404" lon="6.76317">
        <ele>436.1</ele>
        <time>2017-10-04T16:33:30Z</time>
      </trkpt>
      <trkpt lat="47.54039" lon="6.76312">
        <ele>436.1</ele>
        <time>2017-10-04T16:33:31Z</time>
      </trkpt>
      <trkpt lat="47.5404" lon="6.76308">
        <ele>436.2</ele>
        <time>2017-10-04T16:33:32Z</time>
      </trkpt>
      <trkpt lat="47.54042" lon="6.76302">
        <ele>436.2</ele>
        <time>2017-10-04T16:33:34Z</time>
      </trkpt>
      <trkpt lat="47.54042" lon="6.76296">
        <ele>436.3</ele>
        <time>2017-10-04T16:33:36Z</time>
      </trkpt>
      <trkpt lat="47.54043" lon="6.76292">
        <ele>436.3</ele>
        <time>2017-10-04T16:33:38Z</time>
      </trkpt>
      <trkpt lat="47.54045" lon="6.76287">
        <ele>436.3</ele>
        <time>2017-10-04T16:33:40Z</time>
      </trkpt>
      <trkpt lat="47.54047" lon="6.76282">
        <ele>436.3</ele>
        <time>2017-10-04T16:33:42Z</time>
      </trkpt>
      <trkpt lat="47.54049" lon="6.76279">
        <ele>436.4</ele>
        <time>2017-10-04T16:33:44Z</time>
      </trkpt>
      <trkpt lat="47.5405" lon="6.76275">
        <ele>436.4</ele>
        <time>2017-10-04T16:33:46Z</time>
      </trkpt>
      <trkpt lat="47.54053" lon="6.76268">
        <ele>436.4</ele>
        <time>2017-10-04T16:33:48Z</time>
      </trkpt>
      <trkpt lat="47.54055" lon="6.76264">
        <ele>436.5</ele>
        <time>2017-10-04T16:33:49Z</time>
      </trkpt>
      <trkpt lat="47.54055" lon="6.7626">
        <ele>436.5</ele>
        <time>2017-10-04T16:33:50Z</time>
      </trkpt>
      <trkpt lat="47.54057" lon="6.76253">
        <ele>436.5</ele>
        <time>2017-10-04T16:33:52Z</time>
      </trkpt>
      <trkpt lat="47.54061" lon="6.76253">
        <ele>436.6</ele>
        <time>2017-10-04T16:33:53Z</time>
      </trkpt>
      <trkpt lat="47.54064" lon="6.76248">
        <ele>436.6</ele>
        <time>2017-10-04T16:33:55Z</time>
      </trkpt>
      <trkpt lat="47.54067" lon="6.76241">
        <ele>436.6</ele>
        <time>2017-10-04T16:33:57Z</time>
      </trkpt>
      <trkpt lat="47.5407" lon="6.76237">
        <ele>436.7</ele>
        <time>2017-10-04T16:33:59Z</time>
      </trkpt>
      <trkpt lat="47.54072" lon="6.76231">
        <ele>436.7</ele>
        <time>2017-10-04T16:34:01Z</time>
      </trkpt>
      <trkpt lat="47.54074" lon="6.76225">
        <ele>436.7</ele>
        <time>2017-10-04T16:34:03Z</time>
      </trkpt>
      <trkpt lat="47.54077" lon="6.7622">
        <ele>436.8</ele>
        <time>2017-10-04T16:34:05Z</time>
      </trkpt>
      <trkpt lat="47.54079" lon="6.76217">
        <ele>436.8</ele>
        <time>2017-10-04T16:34:07Z</time>
      </trkpt>
      <trkpt lat="47.54081" lon="6.76209">
        <ele>436.8</ele>
        <time>2017-10-04T16:34:09Z</time>
      </trkpt>
      <trkpt lat="47.54082" lon="6.76204">
        <ele>436.9</ele>
        <time>2017-10-04T16:34:10Z</time>
      </trkpt>
      <trkpt lat="47.54085" lon="6.76198">
        <ele>436.9</ele>
        <time>2017-10-04T16:34:12Z</time>
      </trkpt>
      <trkpt lat="47.54085" lon="6.76192">
        <ele>436.9</ele>
        <time>2017-10-04T16:34:13Z</time>
      </trkpt>
      <trkpt lat="47.54087" lon="6.76188">
        <ele>437</ele>
        <time>2017-10-04T16:34:14Z</time>
      </trkpt>
      <trkpt lat="47.54088" lon="6.76184">
        <ele>437</ele>
        <time>2017-10-04T16:34:15Z</time>
      </trkpt>
      <trkpt lat="47.54091" lon="6.76178">
        <ele>437</ele>
        <time>2017-10-04T16:34:17Z</time>
      </trkpt>
      <trkpt lat="47.54092" lon="6.76173">
        <ele>437.1</ele>
        <time>2017-10-04T16:34:18Z</time>
      </trkpt>
      <trkpt lat="47.54093" lon="6.76168">
        <ele>437.1</ele>
        <time>2017-10-04T16:34:19Z</time>
      </trkpt>
      <trkpt lat="47.54095" lon="6.76162">
        <ele>437.1</ele>
        <time>2017-10-04T16:34:21Z</time>
      </trkpt>
      <trkpt lat="47.54096" lon="6.76158">
        <ele>437.1</ele>
        <time>2017-10-04T16:34:22Z</time>
      </trkpt>
      <trkpt lat="47.54097" lon="6.76154">
        <ele>437.2</ele>
        <time>2017-10-04T16:34:23Z</time>
      </trkpt>
      <trkpt lat="47.54098" lon="6.76147">
        <ele>437.2</ele>
        <time>2017-10-04T16:34:25Z</time>
      </trkpt>
      <trkpt lat="47.54101" lon="6.76142">
        <ele>437.2</ele>
        <time>2017-10-04T16:34:27Z</time>
      </trkpt>
      <trkpt lat="47.54104" lon="6.76136">
        <ele>437.3</ele>
        <time>2017-10-04T16:34:29Z</time>
      </trkpt>
      <trkpt lat="47.54106" lon="6.76126">
        <ele>437.3</ele>
        <time>2017-10-04T16:34:31Z</time>
      </trkpt>
      <trkpt lat="47.54107" lon="6.76121">
        <ele>437.4</ele>
        <time>2017-10-04T16:34:33Z</time>
      </trkpt>
      <trkpt lat="47.54107" lon="6.76116">
        <ele>437.4</ele>
        <time>2017-10-04T16:34:34Z</time>
      </trkpt>
      <trkpt lat="47.54106" lon="6.76108">
        <ele>437.4</ele>
        <time>2017-10-04T16:34:36Z</time>
      </trkpt>
      <trkpt lat="47.54104" lon="6.76104">
        <ele>437.5</ele>
        <time>2017-10-04T16:34:37Z</time>
      </trkpt>
      <trkpt lat="47.54099" lon="6.76098">
        <ele>437.5</ele>
        <time>2017-10-04T16:34:38Z</time>
      </trkpt>
      <trkpt lat="47.54095" lon="6.76094">
        <ele>437.5</ele>
        <time>2017-10-04T16:34:39Z</time>
      </trkpt>
      <trkpt lat="47.54088" lon="6.76089">
        <ele>437.6</ele>
        <time>2017-10-04T16:34:41Z</time>
      </trkpt>
      <trkpt lat="47.5408" lon="6.76085">
        <ele>437.7</ele>
        <time>2017-10-04T16:34:43Z</time>
      </trkpt>
      <trkpt lat="47.54075" lon="6.76082">
        <ele>437.4</ele>
        <time>2017-10-04T16:34:44Z</time>
      </trkpt>
      <trkpt lat="47.54072" lon="6.76081">
        <ele>437.3</ele>
        <time>2017-10-04T16:34:45Z</time>
      </trkpt>
      <trkpt lat="47.54068" lon="6.7608">
        <ele>437.1</ele>
        <time>2017-10-04T16:34:46Z</time>
      </trkpt>
      <trkpt lat="47.54065" lon="6.7608">
        <ele>436.9</ele>
        <time>2017-10-04T16:34:47Z</time>
      </trkpt>
      <trkpt lat="47.54061" lon="6.76078">
        <ele>436.7</ele>
        <time>2017-10-04T16:34:49Z</time>
      </trkpt>
      <trkpt lat="47.54056" lon="6.76077">
        <ele>436.5</ele>
        <time>2017-10-04T16:34:51Z</time>
      </trkpt>
      <trkpt lat="47.54053" lon="6.76078">
        <ele>436.3</ele>
        <time>2017-10-04T16:34:54Z</time>
      </trkpt>
      <trkpt lat="47.54047" lon="6.76082">
        <ele>436.1</ele>
        <time>2017-10-04T16:34:56Z</time>
      </trkpt>
      <trkpt lat="47.54043" lon="6.76084">
        <ele>435.9</ele>
        <time>2017-10-04T16:34:57Z</time>
      </trkpt>
      <trkpt lat="47.54041" lon="6.76083">
        <ele>435.9</ele>
        <time>2017-10-04T16:34:59Z</time>
      </trkpt>
      <trkpt lat="47.54038" lon="6.76082">
        <ele>435.8</ele>
        <time>2017-10-04T16:35:02Z</time>
      </trkpt>
      <trkpt lat="47.54035" lon="6.76083">
        <ele>435.8</ele>
        <time>2017-10-04T16:35:04Z</time>
      </trkpt>
      <trkpt lat="47.54032" lon="6.76084">
        <ele>435.8</ele>
        <time>2017-10-04T16:35:05Z</time>
      </trkpt>
      <trkpt lat="47.54028" lon="6.76086">
        <ele>435.7</ele>
        <time>2017-10-04T16:35:06Z</time>
      </trkpt>
      <trkpt lat="47.54024" lon="6.76089">
        <ele>435.5</ele>
        <time>2017-10-04T16:35:07Z</time>
      </trkpt>
      <trkpt lat="47.54021" lon="6.76092">
        <ele>435.4</ele>
        <time>2017-10-04T16:35:08Z</time>
      </trkpt>
      <trkpt lat="47.54016" lon="6.76094">
        <ele>435.1</ele>
        <time>2017-10-04T16:35:09Z</time>
      </trkpt>
      <trkpt lat="47.5401" lon="6.76095">
        <ele>434.9</ele>
        <time>2017-10-04T16:35:11Z</time>
      </trkpt>
      <trkpt lat="47.54004" lon="6.76094">
        <ele>434.5</ele>
        <time>2017-10-04T16:35:13Z</time>
      </trkpt>
      <trkpt lat="47.53999" lon="6.76092">
        <ele>434</ele>
        <time>2017-10-04T16:35:16Z</time>
      </trkpt>
      <trkpt lat="47.5399" lon="6.76091">
        <ele>432.9</ele>
        <time>2017-10-04T16:35:20Z</time>
      </trkpt>
      <trkpt lat="47.53986" lon="6.76093">
        <ele>432.5</ele>
        <time>2017-10-04T16:35:22Z</time>
      </trkpt>
      <trkpt lat="47.53983" lon="6.76096">
        <ele>431.6</ele>
        <time>2017-10-04T16:35:24Z</time>
      </trkpt>
      <trkpt lat="47.5398" lon="6.76094">
        <ele>431.3</ele>
        <time>2017-10-04T16:35:28Z</time>
      </trkpt>
      <trkpt lat="47.53974" lon="6.7609">
        <ele>430.6</ele>
        <time>2017-10-04T16:35:30Z</time>
      </trkpt>
      <trkpt lat="47.5397" lon="6.76088">
        <ele>430.3</ele>
        <time>2017-10-04T16:35:31Z</time>
      </trkpt>
      <trkpt lat="47.53966" lon="6.76085">
        <ele>429.9</ele>
        <time>2017-10-04T16:35:32Z</time>
      </trkpt>
      <trkpt lat="47.53959" lon="6.76076">
        <ele>429.3</ele>
        <time>2017-10-04T16:35:34Z</time>
      </trkpt>
      <trkpt lat="47.53955" lon="6.76066">
        <ele>428.8</ele>
        <time>2017-10-04T16:35:35Z</time>
      </trkpt>
      <trkpt lat="47.53952" lon="6.76058">
        <ele>428.4</ele>
        <time>2017-10-04T16:35:36Z</time>
      </trkpt>
      <trkpt lat="47.5395" lon="6.76055">
        <ele>428.2</ele>
        <time>2017-10-04T16:35:37Z</time>
      </trkpt>
      <trkpt lat="47.53945" lon="6.7605">
        <ele>427.9</ele>
        <time>2017-10-04T16:35:38Z</time>
      </trkpt>
      <trkpt lat="47.53941" lon="6.76047">
        <ele>427.9</ele>
        <time>2017-10-04T16:35:40Z</time>
      </trkpt>
      <trkpt lat="47.53938" lon="6.76044">
        <ele>427.8</ele>
        <time>2017-10-04T16:35:41Z</time>
      </trkpt>
      <trkpt lat="47.53934" lon="6.76041">
        <ele>427.6</ele>
        <time>2017-10-04T16:35:43Z</time>
      </trkpt>
      <trkpt lat="47.53929" lon="6.76037">
        <ele>427.3</ele>
        <time>2017-10-04T16:35:45Z</time>
      </trkpt>
      <trkpt lat="47.53925" lon="6.76034">
        <ele>426.9</ele>
        <time>2017-10-04T16:35:47Z</time>
      </trkpt>
      <trkpt lat="47.53918" lon="6.76028">
        <ele>426.5</ele>
        <time>2017-10-04T16:35:49Z</time>
      </trkpt>
      <trkpt lat="47.53914" lon="6.76024">
        <ele>426.2</ele>
        <time>2017-10-04T16:35:51Z</time>
      </trkpt>
      <trkpt lat="47.5391" lon="6.76023">
        <ele>425.6</ele>
        <time>2017-10-04T16:35:53Z</time>
      </trkpt>
      <trkpt lat="47.53905" lon="6.76022">
        <ele>425.2</ele>
        <time>2017-10-04T16:35:55Z</time>
      </trkpt>
      <trkpt lat="47.539" lon="6.76021">
        <ele>424.4</ele>
        <time>2017-10-04T16:35:56Z</time>
      </trkpt>
      <trkpt lat="47.53897" lon="6.76023">
        <ele>424</ele>
        <time>2017-10-04T16:35:58Z</time>
      </trkpt>
      <trkpt lat="47.53892" lon="6.76022">
        <ele>423.2</ele>
        <time>2017-10-04T16:35:59Z</time>
      </trkpt>
      <trkpt lat="47.53888" lon="6.76018">
        <ele>423</ele>
        <time>2017-10-04T16:36:00Z</time>
      </trkpt>
      <trkpt lat="47.53884" lon="6.76016">
        <ele>422.4</ele>
        <time>2017-10-04T16:36:02Z</time>
      </trkpt>
      <trkpt lat="47.53879" lon="6.76012">
        <ele>421.8</ele>
        <time>2017-10-04T16:36:04Z</time>
      </trkpt>
      <trkpt lat="47.53875" lon="6.76009">
        <ele>421.7</ele>
        <time>2017-10-04T16:36:06Z</time>
      </trkpt>
      <trkpt lat="47.5387" lon="6.76006">
        <ele>421.6</ele>
        <time>2017-10-04T16:36:07Z</time>
      </trkpt>
      <trkpt lat="47.53866" lon="6.76004">
        <ele>421.1</ele>
        <time>2017-10-04T16:36:09Z</time>
      </trkpt>
      <trkpt lat="47.53857" lon="6.75999">
        <ele>420.9</ele>
        <time>2017-10-04T16:36:12Z</time>
      </trkpt>
      <trkpt lat="47.53852" lon="6.75997">
        <ele>420.8</ele>
        <time>2017-10-04T16:36:14Z</time>
      </trkpt>
      <trkpt lat="47.53849" lon="6.75994">
        <ele>420.7</ele>
        <time>2017-10-04T16:36:16Z</time>
      </trkpt>
      <trkpt lat="47.53845" lon="6.75993">
        <ele>420.7</ele>
        <time>2017-10-04T16:36:18Z</time>
      </trkpt>
      <trkpt lat="47.5384" lon="6.75991">
        <ele>420.3</ele>
        <time>2017-10-04T16:36:19Z</time>
      </trkpt>
      <trkpt lat="47.53832" lon="6.7599">
        <ele>419.5</ele>
        <time>2017-10-04T16:36:22Z</time>
      </trkpt>
      <trkpt lat="47.53827" lon="6.75989">
        <ele>419.4</ele>
        <time>2017-10-04T16:36:23Z</time>
      </trkpt>
      <trkpt lat="47.53822" lon="6.75988">
        <ele>418.7</ele>
        <time>2017-10-04T16:36:24Z</time>
      </trkpt>
      <trkpt lat="47.53817" lon="6.7599">
        <ele>417.6</ele>
        <time>2017-10-04T16:36:25Z</time>
      </trkpt>
      <trkpt lat="47.53812" lon="6.75989">
        <ele>417.1</ele>
        <time>2017-10-04T16:36:26Z</time>
      </trkpt>
      <trkpt lat="47.53809" lon="6.75988">
        <ele>416.8</ele>
        <time>2017-10-04T16:36:27Z</time>
      </trkpt>
      <trkpt lat="47.53805" lon="6.75987">
        <ele>416.5</ele>
        <time>2017-10-04T16:36:28Z</time>
      </trkpt>
      <trkpt lat="47.53799" lon="6.75987">
        <ele>415.9</ele>
        <time>2017-10-04T16:36:30Z</time>
      </trkpt>
      <trkpt lat="47.53796" lon="6.75988">
        <ele>415.6</ele>
        <time>2017-10-04T16:36:31Z</time>
      </trkpt>
      <trkpt lat="47.53793" lon="6.75988">
        <ele>415.3</ele>
        <time>2017-10-04T16:36:32Z</time>
      </trkpt>
      <trkpt lat="47.53787" lon="6.75985">
        <ele>414.6</ele>
        <time>2017-10-04T16:36:33Z</time>
      </trkpt>
      <trkpt lat="47.53781" lon="6.75983">
        <ele>414.2</ele>
        <time>2017-10-04T16:36:34Z</time>
      </trkpt>
      <trkpt lat="47.53776" lon="6.7598">
        <ele>413.8</ele>
        <time>2017-10-04T16:36:35Z</time>
      </trkpt>
      <trkpt lat="47.5377" lon="6.75977">
        <ele>413.2</ele>
        <time>2017-10-04T16:36:36Z</time>
      </trkpt>
      <trkpt lat="47.53765" lon="6.75974">
        <ele>412.6</ele>
        <time>2017-10-04T16:36:37Z</time>
      </trkpt>
      <trkpt lat="47.5376" lon="6.75971">
        <ele>412.1</ele>
        <time>2017-10-04T16:36:38Z</time>
      </trkpt>
      <trkpt lat="47.53755" lon="6.75965">
        <ele>412</ele>
        <time>2017-10-04T16:36:39Z</time>
      </trkpt>
      <trkpt lat="47.53749" lon="6.75959">
        <ele>412.1</ele>
        <time>2017-10-04T16:36:40Z</time>
      </trkpt>
      <trkpt lat="47.53745" lon="6.75956">
        <ele>411.8</ele>
        <time>2017-10-04T16:36:41Z</time>
      </trkpt>
      <trkpt lat="47.53743" lon="6.75954">
        <ele>411.8</ele>
        <time>2017-10-04T16:36:42Z</time>
      </trkpt>
      <trkpt lat="47.53739" lon="6.75951">
        <ele>411.7</ele>
        <time>2017-10-04T16:36:43Z</time>
      </trkpt>
      <trkpt lat="47.53737" lon="6.75948">
        <ele>411.5</ele>
        <time>2017-10-04T16:36:44Z</time>
      </trkpt>
      <trkpt lat="47.53733" lon="6.75944">
        <ele>411.4</ele>
        <time>2017-10-04T16:36:46Z</time>
      </trkpt>
      <trkpt lat="47.53729" lon="6.75942">
        <ele>411.3</ele>
        <time>2017-10-04T16:36:48Z</time>
      </trkpt>
      <trkpt lat="47.53725" lon="6.7594">
        <ele>411</ele>
        <time>2017-10-04T16:36:50Z</time>
      </trkpt>
      <trkpt lat="47.5372" lon="6.7594">
        <ele>411</ele>
        <time>2017-10-04T16:36:52Z</time>
      </trkpt>
      <trkpt lat="47.53716" lon="6.7594">
        <ele>410.9</ele>
        <time>2017-10-04T16:36:54Z</time>
      </trkpt>
      <trkpt lat="47.53712" lon="6.75938">
        <ele>410.9</ele>
        <time>2017-10-04T16:36:56Z</time>
      </trkpt>
      <trkpt lat="47.53709" lon="6.75936">
        <ele>410.9</ele>
        <time>2017-10-04T16:36:58Z</time>
      </trkpt>
      <trkpt lat="47.53706" lon="6.75935">
        <ele>410.9</ele>
        <time>2017-10-04T16:36:59Z</time>
      </trkpt>
      <trkpt lat="47.53701" lon="6.75934">
        <ele>410.7</ele>
        <time>2017-10-04T16:37:00Z</time>
      </trkpt>
      <trkpt lat="47.53695" lon="6.75932">
        <ele>410.6</ele>
        <time>2017-10-04T16:37:02Z</time>
      </trkpt>
      <trkpt lat="47.53691" lon="6.75932">
        <ele>410.6</ele>
        <time>2017-10-04T16:37:04Z</time>
      </trkpt>
      <trkpt lat="47.53687" lon="6.7593">
        <ele>410.3</ele>
        <time>2017-10-04T16:37:05Z</time>
      </trkpt>
      <trkpt lat="47.53683" lon="6.75927">
        <ele>410.1</ele>
        <time>2017-10-04T16:37:06Z</time>
      </trkpt>
      <trkpt lat="47.53679" lon="6.75925">
        <ele>409.6</ele>
        <time>2017-10-04T16:37:08Z</time>
      </trkpt>
      <trkpt lat="47.53675" lon="6.75923">
        <ele>409.4</ele>
        <time>2017-10-04T16:37:09Z</time>
      </trkpt>
      <trkpt lat="47.53671" lon="6.7592">
        <ele>409.2</ele>
        <time>2017-10-04T16:37:10Z</time>
      </trkpt>
      <trkpt lat="47.53667" lon="6.75918">
        <ele>408.8</ele>
        <time>2017-10-04T16:37:12Z</time>
      </trkpt>
      <trkpt lat="47.53661" lon="6.75913">
        <ele>408.5</ele>
        <time>2017-10-04T16:37:14Z</time>
      </trkpt>
      <trkpt lat="47.53656" lon="6.7591">
        <ele>408.4</ele>
        <time>2017-10-04T16:37:15Z</time>
      </trkpt>
      <trkpt lat="47.53652" lon="6.75908">
        <ele>408</ele>
        <time>2017-10-04T16:37:16Z</time>
      </trkpt>
      <trkpt lat="47.53645" lon="6.75905">
        <ele>407.4</ele>
        <time>2017-10-04T16:37:18Z</time>
      </trkpt>
      <trkpt lat="47.5364" lon="6.759">
        <ele>406.7</ele>
        <time>2017-10-04T16:37:19Z</time>
      </trkpt>
      <trkpt lat="47.53637" lon="6.75898">
        <ele>406.3</ele>
        <time>2017-10-04T16:37:21Z</time>
      </trkpt>
      <trkpt lat="47.53634" lon="6.75895">
        <ele>405.8</ele>
        <time>2017-10-04T16:37:22Z</time>
      </trkpt>
      <trkpt lat="47.5363" lon="6.75892">
        <ele>405.5</ele>
        <time>2017-10-04T16:37:23Z</time>
      </trkpt>
      <trkpt lat="47.53627" lon="6.75889">
        <ele>405.1</ele>
        <time>2017-10-04T16:37:24Z</time>
      </trkpt>
      <trkpt lat="47.53624" lon="6.75886">
        <ele>404.3</ele>
        <time>2017-10-04T16:37:25Z</time>
      </trkpt>
      <trkpt lat="47.53619" lon="6.75883">
        <ele>404.1</ele>
        <time>2017-10-04T16:37:27Z</time>
      </trkpt>
      <trkpt lat="47.53614" lon="6.75884">
        <ele>403.6</ele>
        <time>2017-10-04T16:37:28Z</time>
      </trkpt>
      <trkpt lat="47.5361" lon="6.75884">
        <ele>403.5</ele>
        <time>2017-10-04T16:37:29Z</time>
      </trkpt>
      <trkpt lat="47.53603" lon="6.75881">
        <ele>402.9</ele>
        <time>2017-10-04T16:37:31Z</time>
      </trkpt>
      <trkpt lat="47.536" lon="6.75879">
        <ele>402.9</ele>
        <time>2017-10-04T16:37:33Z</time>
      </trkpt>
      <trkpt lat="47.53596" lon="6.75878">
        <ele>402.6</ele>
        <time>2017-10-04T16:37:35Z</time>
      </trkpt>
      <trkpt lat="47.53593" lon="6.75877">
        <ele>402.7</ele>
        <time>2017-10-04T16:37:36Z</time>
      </trkpt>
      <trkpt lat="47.53586" lon="6.75874">
        <ele>403</ele>
        <time>2017-10-04T16:37:38Z</time>
      </trkpt>
      <trkpt lat="47.53581" lon="6.75873">
        <ele>402.8</ele>
        <time>2017-10-04T16:37:39Z</time>
      </trkpt>
      <trkpt lat="47.53579" lon="6.75877">
        <ele>403.4</ele>
        <time>2017-10-04T16:37:40Z</time>
      </trkpt>
      <trkpt lat="47.53575" lon="6.75882">
        <ele>403.9</ele>
        <time>2017-10-04T16:37:41Z</time>
      </trkpt>
      <trkpt lat="47.53574" lon="6.75889">
        <ele>403.9</ele>
        <time>2017-10-04T16:37:43Z</time>
      </trkpt>
      <trkpt lat="47.53572" lon="6.75893">
        <ele>403.9</ele>
        <time>2017-10-04T16:37:44Z</time>
      </trkpt>
      <trkpt lat="47.5357" lon="6.759">
        <ele>403.9</ele>
        <time>2017-10-04T16:37:45Z</time>
      </trkpt>
      <trkpt lat="47.53569" lon="6.75905">
        <ele>403.8</ele>
        <time>2017-10-04T16:37:46Z</time>
      </trkpt>
      <trkpt lat="47.53566" lon="6.7591">
        <ele>403.8</ele>
        <time>2017-10-04T16:37:47Z</time>
      </trkpt>
      <trkpt lat="47.53566" lon="6.75922">
        <ele>403.9</ele>
        <time>2017-10-04T16:37:49Z</time>
      </trkpt>
      <trkpt lat="47.53565" lon="6.7593">
        <ele>404.1</ele>
        <time>2017-10-04T16:37:50Z</time>
      </trkpt>
      <trkpt lat="47.53565" lon="6.75936">
        <ele>404.3</ele>
        <time>2017-10-04T16:37:52Z</time>
      </trkpt>
      <trkpt lat="47.53565" lon="6.7594">
        <ele>404.3</ele>
        <time>2017-10-04T16:37:53Z</time>
      </trkpt>
      <trkpt lat="47.53564" lon="6.75947">
        <ele>404.4</ele>
        <time>2017-10-04T16:37:55Z</time>
      </trkpt>
      <trkpt lat="47.53563" lon="6.75955">
        <ele>404.1</ele>
        <time>2017-10-04T16:37:57Z</time>
      </trkpt>
      <trkpt lat="47.53562" lon="6.75963">
        <ele>404</ele>
        <time>2017-10-04T16:37:58Z</time>
      </trkpt>
      <trkpt lat="47.53563" lon="6.7597">
        <ele>403.9</ele>
        <time>2017-10-04T16:38:00Z</time>
      </trkpt>
      <trkpt lat="47.53562" lon="6.75982">
        <ele>403.8</ele>
        <time>2017-10-04T16:38:03Z</time>
      </trkpt>
      <trkpt lat="47.53562" lon="6.75988">
        <ele>403.7</ele>
        <time>2017-10-04T16:38:06Z</time>
      </trkpt>
      <trkpt lat="47.53563" lon="6.75993">
        <ele>403.7</ele>
        <time>2017-10-04T16:38:07Z</time>
      </trkpt>
      <trkpt lat="47.53562" lon="6.76">
        <ele>403.6</ele>
        <time>2017-10-04T16:38:08Z</time>
      </trkpt>
      <trkpt lat="47.53563" lon="6.76004">
        <ele>403.6</ele>
        <time>2017-10-04T16:38:11Z</time>
      </trkpt>
      <trkpt lat="47.53563" lon="6.76011">
        <ele>403.6</ele>
        <time>2017-10-04T16:38:12Z</time>
      </trkpt>
      <trkpt lat="47.53564" lon="6.76016">
        <ele>403.5</ele>
        <time>2017-10-04T16:38:14Z</time>
      </trkpt>
      <trkpt lat="47.53559" lon="6.76015">
        <ele>403.5</ele>
        <time>2017-10-04T16:38:17Z</time>
      </trkpt>
      <trkpt lat="47.53556" lon="6.76016">
        <ele>403.5</ele>
        <time>2017-10-04T16:38:24Z</time>
      </trkpt>
      <trkpt lat="47.53553" lon="6.76016">
        <ele>403.5</ele>
        <time>2017-10-04T16:38:25Z</time>
      </trkpt>
      <trkpt lat="47.53547" lon="6.76015">
        <ele>403.5</ele>
        <time>2017-10-04T16:38:26Z</time>
      </trkpt>
      <trkpt lat="47.53542" lon="6.76015">
        <ele>403.6</ele>
        <time>2017-10-04T16:38:27Z</time>
      </trkpt>
      <trkpt lat="47.53535" lon="6.76015">
        <ele>403.4</ele>
        <time>2017-10-04T16:38:28Z</time>
      </trkpt>
      <trkpt lat="47.5353" lon="6.76016">
        <ele>403.1</ele>
        <time>2017-10-04T16:38:29Z</time>
      </trkpt>
      <trkpt lat="47.53526" lon="6.76015">
        <ele>403.2</ele>
        <time>2017-10-04T16:38:31Z</time>
      </trkpt>
      <trkpt lat="47.5352" lon="6.76013">
        <ele>403</ele>
        <time>2017-10-04T16:38:33Z</time>
      </trkpt>
      <trkpt lat="47.53517" lon="6.76012">
        <ele>402.9</ele>
        <time>2017-10-04T16:38:34Z</time>
      </trkpt>
      <trkpt lat="47.53513" lon="6.7601">
        <ele>402.9</ele>
        <time>2017-10-04T16:38:36Z</time>
      </trkpt>
      <trkpt lat="47.53509" lon="6.76007">
        <ele>402.9</ele>
        <time>2017-10-04T16:38:38Z</time>
      </trkpt>
      <trkpt lat="47.53506" lon="6.76005">
        <ele>402.8</ele>
        <time>2017-10-04T16:38:39Z</time>
      </trkpt>
      <trkpt lat="47.53502" lon="6.76004">
        <ele>402.5</ele>
        <time>2017-10-04T16:38:40Z</time>
      </trkpt>
      <trkpt lat="47.53498" lon="6.76001">
        <ele>402.5</ele>
        <time>2017-10-04T16:38:41Z</time>
      </trkpt>
      <trkpt lat="47.53494" lon="6.75996">
        <ele>402.5</ele>
        <time>2017-10-04T16:38:42Z</time>
      </trkpt>
      <trkpt lat="47.5349" lon="6.75992">
        <ele>402.1</ele>
        <time>2017-10-04T16:38:43Z</time>
      </trkpt>
      <trkpt lat="47.53487" lon="6.75986">
        <ele>401.9</ele>
        <time>2017-10-04T16:38:44Z</time>
      </trkpt>
      <trkpt lat="47.53485" lon="6.7598">
        <ele>401.6</ele>
        <time>2017-10-04T16:38:45Z</time>
      </trkpt>
      <trkpt lat="47.53481" lon="6.75975">
        <ele>401.2</ele>
        <time>2017-10-04T16:38:46Z</time>
      </trkpt>
      <trkpt lat="47.53477" lon="6.75972">
        <ele>400.9</ele>
        <time>2017-10-04T16:38:48Z</time>
      </trkpt>
      <trkpt lat="47.53473" lon="6.7597">
        <ele>400.5</ele>
        <time>2017-10-04T16:38:49Z</time>
      </trkpt>
      <trkpt lat="47.53468" lon="6.75969">
        <ele>400.2</ele>
        <time>2017-10-04T16:38:51Z</time>
      </trkpt>
      <trkpt lat="47.53464" lon="6.75967">
        <ele>399.5</ele>
        <time>2017-10-04T16:38:53Z</time>
      </trkpt>
      <trkpt lat="47.53461" lon="6.75968">
        <ele>399.2</ele>
        <time>2017-10-04T16:38:55Z</time>
      </trkpt>
      <trkpt lat="47.53454" lon="6.75968">
        <ele>398.6</ele>
        <time>2017-10-04T16:38:57Z</time>
      </trkpt>
      <trkpt lat="47.5345" lon="6.75967">
        <ele>397.9</ele>
        <time>2017-10-04T16:38:58Z</time>
      </trkpt>
      <trkpt lat="47.53445" lon="6.75967">
        <ele>397.6</ele>
        <time>2017-10-04T16:39:00Z</time>
      </trkpt>
      <trkpt lat="47.53442" lon="6.7597">
        <ele>397.3</ele>
        <time>2017-10-04T16:39:02Z</time>
      </trkpt>
      <trkpt lat="47.5344" lon="6.75971">
        <ele>397</ele>
        <time>2017-10-04T16:39:03Z</time>
      </trkpt>
      <trkpt lat="47.53435" lon="6.75974">
        <ele>396.3</ele>
        <time>2017-10-04T16:39:04Z</time>
      </trkpt>
      <trkpt lat="47.53431" lon="6.75971">
        <ele>396</ele>
        <time>2017-10-04T16:39:06Z</time>
      </trkpt>
      <trkpt lat="47.53427" lon="6.75971">
        <ele>395.4</ele>
        <time>2017-10-04T16:39:08Z</time>
      </trkpt>
      <trkpt lat="47.53422" lon="6.7597">
        <ele>395</ele>
        <time>2017-10-04T16:39:10Z</time>
      </trkpt>
      <trkpt lat="47.53418" lon="6.75969">
        <ele>394.4</ele>
        <time>2017-10-04T16:39:11Z</time>
      </trkpt>
      <trkpt lat="47.53413" lon="6.75969">
        <ele>394.1</ele>
        <time>2017-10-04T16:39:12Z</time>
      </trkpt>
      <trkpt lat="47.53411" lon="6.75968">
        <ele>393.9</ele>
        <time>2017-10-04T16:39:13Z</time>
      </trkpt>
      <trkpt lat="47.53407" lon="6.75966">
        <ele>393.1</ele>
        <time>2017-10-04T16:39:15Z</time>
      </trkpt>
      <trkpt lat="47.53401" lon="6.75966">
        <ele>392.7</ele>
        <time>2017-10-04T16:39:17Z</time>
      </trkpt>
      <trkpt lat="47.53395" lon="6.75964">
        <ele>392</ele>
        <time>2017-10-04T16:39:19Z</time>
      </trkpt>
      <trkpt lat="47.5339" lon="6.75962">
        <ele>391.8</ele>
        <time>2017-10-04T16:39:20Z</time>
      </trkpt>
      <trkpt lat="47.53386" lon="6.75959">
        <ele>391.6</ele>
        <time>2017-10-04T16:39:21Z</time>
      </trkpt>
      <trkpt lat="47.53382" lon="6.75956">
        <ele>391.4</ele>
        <time>2017-10-04T16:39:22Z</time>
      </trkpt>
      <trkpt lat="47.53379" lon="6.75951">
        <ele>391.4</ele>
        <time>2017-10-04T16:39:23Z</time>
      </trkpt>
      <trkpt lat="47.53375" lon="6.75948">
        <ele>390.9</ele>
        <time>2017-10-04T16:39:25Z</time>
      </trkpt>
      <trkpt lat="47.53372" lon="6.75944">
        <ele>390.7</ele>
        <time>2017-10-04T16:39:27Z</time>
      </trkpt>
      <trkpt lat="47.53368" lon="6.75943">
        <ele>390.5</ele>
        <time>2017-10-04T16:39:29Z</time>
      </trkpt>
      <trkpt lat="47.53363" lon="6.7594">
        <ele>390.2</ele>
        <time>2017-10-04T16:39:31Z</time>
      </trkpt>
      <trkpt lat="47.53358" lon="6.75938">
        <ele>390</ele>
        <time>2017-10-04T16:39:33Z</time>
      </trkpt>
      <trkpt lat="47.53352" lon="6.75937">
        <ele>389.6</ele>
        <time>2017-10-04T16:39:35Z</time>
      </trkpt>
      <trkpt lat="47.53348" lon="6.75936">
        <ele>389.1</ele>
        <time>2017-10-04T16:39:36Z</time>
      </trkpt>
      <trkpt lat="47.53343" lon="6.75934">
        <ele>388.7</ele>
        <time>2017-10-04T16:39:37Z</time>
      </trkpt>
      <trkpt lat="47.5334" lon="6.75931">
        <ele>388.7</ele>
        <time>2017-10-04T16:39:38Z</time>
      </trkpt>
      <trkpt lat="47.53335" lon="6.7593">
        <ele>388.2</ele>
        <time>2017-10-04T16:39:40Z</time>
      </trkpt>
      <trkpt lat="47.5333" lon="6.75929">
        <ele>387.8</ele>
        <time>2017-10-04T16:39:42Z</time>
      </trkpt>
      <trkpt lat="47.53327" lon="6.75927">
        <ele>387.6</ele>
        <time>2017-10-04T16:39:43Z</time>
      </trkpt>
      <trkpt lat="47.53323" lon="6.75925">
        <ele>387.3</ele>
        <time>2017-10-04T16:39:44Z</time>
      </trkpt>
      <trkpt lat="47.53319" lon="6.75922">
        <ele>386.8</ele>
        <time>2017-10-04T16:39:45Z</time>
      </trkpt>
      <trkpt lat="47.53314" lon="6.75918">
        <ele>386.4</ele>
        <time>2017-10-04T16:39:47Z</time>
      </trkpt>
      <trkpt lat="47.53308" lon="6.75916">
        <ele>386</ele>
        <time>2017-10-04T16:39:49Z</time>
      </trkpt>
      <trkpt lat="47.53303" lon="6.75913">
        <ele>385.9</ele>
        <time>2017-10-04T16:39:51Z</time>
      </trkpt>
      <trkpt lat="47.53299" lon="6.75906">
        <ele>385.7</ele>
        <time>2017-10-04T16:39:52Z</time>
      </trkpt>
      <trkpt lat="47.53295" lon="6.75903">
        <ele>385.6</ele>
        <time>2017-10-04T16:39:54Z</time>
      </trkpt>
      <trkpt lat="47.53292" lon="6.75901">
        <ele>385.5</ele>
        <time>2017-10-04T16:39:56Z</time>
      </trkpt>
      <trkpt lat="47.53288" lon="6.75901">
        <ele>385.4</ele>
        <time>2017-10-04T16:39:58Z</time>
      </trkpt>
      <trkpt lat="47.53285" lon="6.759">
        <ele>385.3</ele>
        <time>2017-10-04T16:39:59Z</time>
      </trkpt>
      <trkpt lat="47.53281" lon="6.759">
        <ele>385.1</ele>
        <time>2017-10-04T16:40:00Z</time>
      </trkpt>
      <trkpt lat="47.53274" lon="6.75895">
        <ele>384.8</ele>
        <time>2017-10-04T16:40:02Z</time>
      </trkpt>
      <trkpt lat="47.5327" lon="6.75893">
        <ele>384.5</ele>
        <time>2017-10-04T16:40:04Z</time>
      </trkpt>
      <trkpt lat="47.53266" lon="6.75895">
        <ele>384.3</ele>
        <time>2017-10-04T16:40:06Z</time>
      </trkpt>
      <trkpt lat="47.53263" lon="6.75896">
        <ele>384.1</ele>
        <time>2017-10-04T16:40:07Z</time>
      </trkpt>
      <trkpt lat="47.53256" lon="6.75895">
        <ele>383.3</ele>
        <time>2017-10-04T16:40:09Z</time>
      </trkpt>
      <trkpt lat="47.53253" lon="6.75894">
        <ele>383</ele>
        <time>2017-10-04T16:40:10Z</time>
      </trkpt>
      <trkpt lat="47.5325" lon="6.75896">
        <ele>382.8</ele>
        <time>2017-10-04T16:40:11Z</time>
      </trkpt>
      <trkpt lat="47.53247" lon="6.75897">
        <ele>382.5</ele>
        <time>2017-10-04T16:40:12Z</time>
      </trkpt>
      <trkpt lat="47.53242" lon="6.75896">
        <ele>382.2</ele>
        <time>2017-10-04T16:40:14Z</time>
      </trkpt>
      <trkpt lat="47.53237" lon="6.75891">
        <ele>381.4</ele>
        <time>2017-10-04T16:40:15Z</time>
      </trkpt>
      <trkpt lat="47.53233" lon="6.75887">
        <ele>380.6</ele>
        <time>2017-10-04T16:40:16Z</time>
      </trkpt>
      <trkpt lat="47.53229" lon="6.75883">
        <ele>380.1</ele>
        <time>2017-10-04T16:40:17Z</time>
      </trkpt>
      <trkpt lat="47.53226" lon="6.75881">
        <ele>379.6</ele>
        <time>2017-10-04T16:40:19Z</time>
      </trkpt>
      <trkpt lat="47.53223" lon="6.75881">
        <ele>379.4</ele>
        <time>2017-10-04T16:40:21Z</time>
      </trkpt>
      <trkpt lat="47.53218" lon="6.75879">
        <ele>378.9</ele>
        <time>2017-10-04T16:40:23Z</time>
      </trkpt>
      <trkpt lat="47.53212" lon="6.75878">
        <ele>378.6</ele>
        <time>2017-10-04T16:40:25Z</time>
      </trkpt>
      <trkpt lat="47.53207" lon="6.7588">
        <ele>378.9</ele>
        <time>2017-10-04T16:40:27Z</time>
      </trkpt>
      <trkpt lat="47.53205" lon="6.75884">
        <ele>379.1</ele>
        <time>2017-10-04T16:40:29Z</time>
      </trkpt>
      <trkpt lat="47.532" lon="6.7589">
        <ele>379.6</ele>
        <time>2017-10-04T16:40:32Z</time>
      </trkpt>
      <trkpt lat="47.53198" lon="6.75892">
        <ele>379.7</ele>
        <time>2017-10-04T16:40:34Z</time>
      </trkpt>
      <trkpt lat="47.53194" lon="6.75894">
        <ele>379.8</ele>
        <time>2017-10-04T16:40:35Z</time>
      </trkpt>
      <trkpt lat="47.5319" lon="6.75897">
        <ele>379.9</ele>
        <time>2017-10-04T16:40:36Z</time>
      </trkpt>
      <trkpt lat="47.53185" lon="6.75904">
        <ele>380.3</ele>
        <time>2017-10-04T16:40:38Z</time>
      </trkpt>
      <trkpt lat="47.53181" lon="6.75908">
        <ele>380.7</ele>
        <time>2017-10-04T16:40:40Z</time>
      </trkpt>
      <trkpt lat="47.53178" lon="6.7591">
        <ele>380.7</ele>
        <time>2017-10-04T16:40:41Z</time>
      </trkpt>
      <trkpt lat="47.53175" lon="6.75911">
        <ele>380.8</ele>
        <time>2017-10-04T16:40:42Z</time>
      </trkpt>
      <trkpt lat="47.5317" lon="6.75914">
        <ele>380.9</ele>
        <time>2017-10-04T16:40:44Z</time>
      </trkpt>
      <trkpt lat="47.53167" lon="6.75917">
        <ele>381.1</ele>
        <time>2017-10-04T16:40:46Z</time>
      </trkpt>
      <trkpt lat="47.53163" lon="6.75919">
        <ele>381.3</ele>
        <time>2017-10-04T16:40:48Z</time>
      </trkpt>
      <trkpt lat="47.53159" lon="6.75921">
        <ele>381.4</ele>
        <time>2017-10-04T16:40:50Z</time>
      </trkpt>
      <trkpt lat="47.53155" lon="6.75924">
        <ele>381.6</ele>
        <time>2017-10-04T16:40:52Z</time>
      </trkpt>
      <trkpt lat="47.53151" lon="6.75927">
        <ele>381.6</ele>
        <time>2017-10-04T16:40:53Z</time>
      </trkpt>
      <trkpt lat="47.53148" lon="6.75929">
        <ele>381.7</ele>
        <time>2017-10-04T16:40:55Z</time>
      </trkpt>
      <trkpt lat="47.53145" lon="6.75932">
        <ele>381.7</ele>
        <time>2017-10-04T16:40:57Z</time>
      </trkpt>
      <trkpt lat="47.53144" lon="6.75936">
        <ele>381.8</ele>
        <time>2017-10-04T16:40:58Z</time>
      </trkpt>
      <trkpt lat="47.53141" lon="6.75944">
        <ele>382.4</ele>
        <time>2017-10-04T16:40:59Z</time>
      </trkpt>
      <trkpt lat="47.53139" lon="6.7595">
        <ele>382.8</ele>
        <time>2017-10-04T16:41:00Z</time>
      </trkpt>
      <trkpt lat="47.53137" lon="6.75956">
        <ele>383.6</ele>
        <time>2017-10-04T16:41:01Z</time>
      </trkpt>
      <trkpt lat="47.53134" lon="6.75961">
        <ele>384</ele>
        <time>2017-10-04T16:41:02Z</time>
      </trkpt>
      <trkpt lat="47.5313" lon="6.75966">
        <ele>384.4</ele>
        <time>2017-10-04T16:41:03Z</time>
      </trkpt>
      <trkpt lat="47.53126" lon="6.75967">
        <ele>384.4</ele>
        <time>2017-10-04T16:41:05Z</time>
      </trkpt>
      <trkpt lat="47.53123" lon="6.75966">
        <ele>384.4</ele>
        <time>2017-10-04T16:41:06Z</time>
      </trkpt>
      <trkpt lat="47.5312" lon="6.75964">
        <ele>384.4</ele>
        <time>2017-10-04T16:41:07Z</time>
      </trkpt>
      <trkpt lat="47.53115" lon="6.75963">
        <ele>384</ele>
        <time>2017-10-04T16:41:08Z</time>
      </trkpt>
      <trkpt lat="47.5311" lon="6.75962">
        <ele>383.8</ele>
        <time>2017-10-04T16:41:09Z</time>
      </trkpt>
      <trkpt lat="47.53106" lon="6.75959">
        <ele>383.3</ele>
        <time>2017-10-04T16:41:10Z</time>
      </trkpt>
      <trkpt lat="47.53101" lon="6.75957">
        <ele>383</ele>
        <time>2017-10-04T16:41:11Z</time>
      </trkpt>
      <trkpt lat="47.53094" lon="6.75952">
        <ele>382.3</ele>
        <time>2017-10-04T16:41:13Z</time>
      </trkpt>
      <trkpt lat="47.53089" lon="6.7595">
        <ele>382.4</ele>
        <time>2017-10-04T16:41:14Z</time>
      </trkpt>
      <trkpt lat="47.53085" lon="6.75947">
        <ele>382.4</ele>
        <time>2017-10-04T16:41:15Z</time>
      </trkpt>
      <trkpt lat="47.53083" lon="6.75946">
        <ele>382.4</ele>
        <time>2017-10-04T16:41:16Z</time>
      </trkpt>
      <trkpt lat="47.53078" lon="6.75945">
        <ele>382.4</ele>
        <time>2017-10-04T16:41:18Z</time>
      </trkpt>
      <trkpt lat="47.53072" lon="6.75944">
        <ele>382.3</ele>
        <time>2017-10-04T16:41:20Z</time>
      </trkpt>
      <trkpt lat="47.53068" lon="6.75944">
        <ele>382.3</ele>
        <time>2017-10-04T16:41:22Z</time>
      </trkpt>
      <trkpt lat="47.53064" lon="6.75944">
        <ele>382.2</ele>
        <time>2017-10-04T16:41:24Z</time>
      </trkpt>
      <trkpt lat="47.53059" lon="6.75945">
        <ele>381.9</ele>
        <time>2017-10-04T16:41:26Z</time>
      </trkpt>
      <trkpt lat="47.53054" lon="6.75944">
        <ele>381.7</ele>
        <time>2017-10-04T16:41:28Z</time>
      </trkpt>
      <trkpt lat="47.5305" lon="6.75945">
        <ele>381.5</ele>
        <time>2017-10-04T16:41:30Z</time>
      </trkpt>
      <trkpt lat="47.53045" lon="6.75947">
        <ele>381.4</ele>
        <time>2017-10-04T16:41:32Z</time>
      </trkpt>
      <trkpt lat="47.53041" lon="6.7595">
        <ele>381.4</ele>
        <time>2017-10-04T16:41:34Z</time>
      </trkpt>
      <trkpt lat="47.53033" lon="6.75959">
        <ele>381.9</ele>
        <time>2017-10-04T16:41:38Z</time>
      </trkpt>
      <trkpt lat="47.5303" lon="6.75965">
        <ele>382.4</ele>
        <time>2017-10-04T16:41:40Z</time>
      </trkpt>
      <trkpt lat="47.53024" lon="6.75973">
        <ele>383.5</ele>
        <time>2017-10-04T16:41:42Z</time>
      </trkpt>
      <trkpt lat="47.5302" lon="6.75977">
        <ele>384</ele>
        <time>2017-10-04T16:41:44Z</time>
      </trkpt>
      <trkpt lat="47.53017" lon="6.75981">
        <ele>384.4</ele>
        <time>2017-10-04T16:41:46Z</time>
      </trkpt>
      <trkpt lat="47.53015" lon="6.75986">
        <ele>384.9</ele>
        <time>2017-10-04T16:41:48Z</time>
      </trkpt>
      <trkpt lat="47.53012" lon="6.75992">
        <ele>385.4</ele>
        <time>2017-10-04T16:41:50Z</time>
      </trkpt>
      <trkpt lat="47.53009" lon="6.75996">
        <ele>385.8</ele>
        <time>2017-10-04T16:41:52Z</time>
      </trkpt>
      <trkpt lat="47.53002" lon="6.76">
        <ele>386.2</ele>
        <time>2017-10-04T16:41:55Z</time>
      </trkpt>
      <trkpt lat="47.52998" lon="6.76002">
        <ele>386.3</ele>
        <time>2017-10-04T16:41:56Z</time>
      </trkpt>
      <trkpt lat="47.52996" lon="6.76003">
        <ele>386.4</ele>
        <time>2017-10-04T16:41:57Z</time>
      </trkpt>
      <trkpt lat="47.52991" lon="6.76006">
        <ele>386.3</ele>
        <time>2017-10-04T16:41:58Z</time>
      </trkpt>
      <trkpt lat="47.52987" lon="6.76009">
        <ele>386.2</ele>
        <time>2017-10-04T16:42:00Z</time>
      </trkpt>
      <trkpt lat="47.52983" lon="6.76012">
        <ele>385.9</ele>
        <time>2017-10-04T16:42:02Z</time>
      </trkpt>
      <trkpt lat="47.5298" lon="6.76017">
        <ele>385.5</ele>
        <time>2017-10-04T16:42:04Z</time>
      </trkpt>
      <trkpt lat="47.52978" lon="6.7602">
        <ele>385.2</ele>
        <time>2017-10-04T16:42:05Z</time>
      </trkpt>
      <trkpt lat="47.52976" lon="6.76027">
        <ele>384.7</ele>
        <time>2017-10-04T16:42:06Z</time>
      </trkpt>
      <trkpt lat="47.52974" lon="6.76032">
        <ele>384.3</ele>
        <time>2017-10-04T16:42:07Z</time>
      </trkpt>
      <trkpt lat="47.52974" lon="6.76037">
        <ele>383.9</ele>
        <time>2017-10-04T16:42:08Z</time>
      </trkpt>
      <trkpt lat="47.52974" lon="6.76043">
        <ele>383.5</ele>
        <time>2017-10-04T16:42:09Z</time>
      </trkpt>
      <trkpt lat="47.52975" lon="6.76051">
        <ele>382.9</ele>
        <time>2017-10-04T16:42:10Z</time>
      </trkpt>
      <trkpt lat="47.52978" lon="6.76056">
        <ele>382.4</ele>
        <time>2017-10-04T16:42:11Z</time>
      </trkpt>
      <trkpt lat="47.52981" lon="6.7606">
        <ele>381.9</ele>
        <time>2017-10-04T16:42:13Z</time>
      </trkpt>
      <trkpt lat="47.52983" lon="6.76063">
        <ele>381.5</ele>
        <time>2017-10-04T16:42:14Z</time>
      </trkpt>
      <trkpt lat="47.52986" lon="6.76069">
        <ele>380.9</ele>
        <time>2017-10-04T16:42:16Z</time>
      </trkpt>
      <trkpt lat="47.52986" lon="6.76075">
        <ele>380.9</ele>
        <time>2017-10-04T16:42:18Z</time>
      </trkpt>
      <trkpt lat="47.52984" lon="6.76083">
        <ele>381.1</ele>
        <time>2017-10-04T16:42:20Z</time>
      </trkpt>
      <trkpt lat="47.52983" lon="6.76094">
        <ele>381.2</ele>
        <time>2017-10-04T16:42:22Z</time>
      </trkpt>
      <trkpt lat="47.52982" lon="6.76099">
        <ele>381.3</ele>
        <time>2017-10-04T16:42:23Z</time>
      </trkpt>
      <trkpt lat="47.52983" lon="6.76105">
        <ele>381.3</ele>
        <time>2017-10-04T16:42:25Z</time>
      </trkpt>
      <trkpt lat="47.52984" lon="6.76113">
        <ele>381.4</ele>
        <time>2017-10-04T16:42:27Z</time>
      </trkpt>
      <trkpt lat="47.52984" lon="6.76123">
        <ele>381.4</ele>
        <time>2017-10-04T16:42:29Z</time>
      </trkpt>
      <trkpt lat="47.52985" lon="6.76127">
        <ele>381.6</ele>
        <time>2017-10-04T16:42:30Z</time>
      </trkpt>
      <trkpt lat="47.52986" lon="6.76135">
        <ele>381.7</ele>
        <time>2017-10-04T16:42:32Z</time>
      </trkpt>
      <trkpt lat="47.52986" lon="6.76146">
        <ele>382.2</ele>
        <time>2017-10-04T16:42:34Z</time>
      </trkpt>
      <trkpt lat="47.52987" lon="6.76157">
        <ele>382.2</ele>
        <time>2017-10-04T16:42:36Z</time>
      </trkpt>
      <trkpt lat="47.52986" lon="6.76161">
        <ele>382.2</ele>
        <time>2017-10-04T16:42:37Z</time>
      </trkpt>
      <trkpt lat="47.52985" lon="6.76165">
        <ele>382.2</ele>
        <time>2017-10-04T16:42:38Z</time>
      </trkpt>
      <trkpt lat="47.52984" lon="6.76171">
        <ele>382.3</ele>
        <time>2017-10-04T16:42:39Z</time>
      </trkpt>
      <trkpt lat="47.52983" lon="6.76179">
        <ele>382.5</ele>
        <time>2017-10-04T16:42:41Z</time>
      </trkpt>
      <trkpt lat="47.52983" lon="6.76185">
        <ele>382.5</ele>
        <time>2017-10-04T16:42:42Z</time>
      </trkpt>
      <trkpt lat="47.52983" lon="6.76191">
        <ele>382.6</ele>
        <time>2017-10-04T16:42:43Z</time>
      </trkpt>
      <trkpt lat="47.52984" lon="6.76195">
        <ele>382.5</ele>
        <time>2017-10-04T16:42:44Z</time>
      </trkpt>
      <trkpt lat="47.52986" lon="6.76199">
        <ele>382.5</ele>
        <time>2017-10-04T16:42:45Z</time>
      </trkpt>
      <trkpt lat="47.52987" lon="6.76205">
        <ele>382.4</ele>
        <time>2017-10-04T16:42:47Z</time>
      </trkpt>
      <trkpt lat="47.52987" lon="6.76209">
        <ele>382.4</ele>
        <time>2017-10-04T16:42:48Z</time>
      </trkpt>
      <trkpt lat="47.52988" lon="6.76216">
        <ele>382.3</ele>
        <time>2017-10-04T16:42:49Z</time>
      </trkpt>
      <trkpt lat="47.52988" lon="6.76224">
        <ele>382</ele>
        <time>2017-10-04T16:42:51Z</time>
      </trkpt>
      <trkpt lat="47.52989" lon="6.76228">
        <ele>381.8</ele>
        <time>2017-10-04T16:42:52Z</time>
      </trkpt>
      <trkpt lat="47.5299" lon="6.76236">
        <ele>381.4</ele>
        <time>2017-10-04T16:42:54Z</time>
      </trkpt>
      <trkpt lat="47.5299" lon="6.76245">
        <ele>380.8</ele>
        <time>2017-10-04T16:42:56Z</time>
      </trkpt>
      <trkpt lat="47.5299" lon="6.76249">
        <ele>380.4</ele>
        <time>2017-10-04T16:42:57Z</time>
      </trkpt>
      <trkpt lat="47.52992" lon="6.76256">
        <ele>379.8</ele>
        <time>2017-10-04T16:42:58Z</time>
      </trkpt>
      <trkpt lat="47.52994" lon="6.76261">
        <ele>379.3</ele>
        <time>2017-10-04T16:43:00Z</time>
      </trkpt>
      <trkpt lat="47.52994" lon="6.76266">
        <ele>378.8</ele>
        <time>2017-10-04T16:43:01Z</time>
      </trkpt>
      <trkpt lat="47.52994" lon="6.76273">
        <ele>377.9</ele>
        <time>2017-10-04T16:43:03Z</time>
      </trkpt>
      <trkpt lat="47.52994" lon="6.76279">
        <ele>377.2</ele>
        <time>2017-10-04T16:43:05Z</time>
      </trkpt>
      <trkpt lat="47.52992" lon="6.76284">
        <ele>376.6</ele>
        <time>2017-10-04T16:43:06Z</time>
      </trkpt>
      <trkpt lat="47.52991" lon="6.76289">
        <ele>376.1</ele>
        <time>2017-10-04T16:43:08Z</time>
      </trkpt>
      <trkpt lat="47.52989" lon="6.76294">
        <ele>375.4</ele>
        <time>2017-10-04T16:43:09Z</time>
      </trkpt>
      <trkpt lat="47.52986" lon="6.76299">
        <ele>374.7</ele>
        <time>2017-10-04T16:43:10Z</time>
      </trkpt>
      <trkpt lat="47.52984" lon="6.76303">
        <ele>374.3</ele>
        <time>2017-10-04T16:43:11Z</time>
      </trkpt>
      <trkpt lat="47.52983" lon="6.76308">
        <ele>374</ele>
        <time>2017-10-04T16:43:12Z</time>
      </trkpt>
      <trkpt lat="47.52983" lon="6.76312">
        <ele>373.8</ele>
        <time>2017-10-04T16:43:14Z</time>
      </trkpt>
      <trkpt lat="47.52983" lon="6.76318">
        <ele>373.4</ele>
        <time>2017-10-04T16:43:15Z</time>
      </trkpt>
      <trkpt lat="47.52984" lon="6.76329">
        <ele>372.7</ele>
        <time>2017-10-04T16:43:17Z</time>
      </trkpt>
      <trkpt lat="47.52985" lon="6.76336">
        <ele>372.4</ele>
        <time>2017-10-04T16:43:19Z</time>
      </trkpt>
      <trkpt lat="47.52986" lon="6.7634">
        <ele>372.2</ele>
        <time>2017-10-04T16:43:20Z</time>
      </trkpt>
      <trkpt lat="47.52988" lon="6.76348">
        <ele>372</ele>
        <time>2017-10-04T16:43:21Z</time>
      </trkpt>
      <trkpt lat="47.52991" lon="6.76354">
        <ele>372</ele>
        <time>2017-10-04T16:43:23Z</time>
      </trkpt>
      <trkpt lat="47.52992" lon="6.76362">
        <ele>372</ele>
        <time>2017-10-04T16:43:25Z</time>
      </trkpt>
      <trkpt lat="47.52993" lon="6.76369">
        <ele>372</ele>
        <time>2017-10-04T16:43:26Z</time>
      </trkpt>
      <trkpt lat="47.52993" lon="6.76374">
        <ele>372</ele>
        <time>2017-10-04T16:43:27Z</time>
      </trkpt>
      <trkpt lat="47.52993" lon="6.76381">
        <ele>371.9</ele>
        <time>2017-10-04T16:43:28Z</time>
      </trkpt>
      <trkpt lat="47.52992" lon="6.76389">
        <ele>371.5</ele>
        <time>2017-10-04T16:43:30Z</time>
      </trkpt>
      <trkpt lat="47.52992" lon="6.76395">
        <ele>371.3</ele>
        <time>2017-10-04T16:43:32Z</time>
      </trkpt>
      <trkpt lat="47.52992" lon="6.76405">
        <ele>371</ele>
        <time>2017-10-04T16:43:34Z</time>
      </trkpt>
      <trkpt lat="47.52992" lon="6.76409">
        <ele>370.5</ele>
        <time>2017-10-04T16:43:35Z</time>
      </trkpt>
      <trkpt lat="47.52993" lon="6.76414">
        <ele>370</ele>
        <time>2017-10-04T16:43:36Z</time>
      </trkpt>
      <trkpt lat="47.52993" lon="6.76418">
        <ele>369.5</ele>
        <time>2017-10-04T16:43:37Z</time>
      </trkpt>
      <trkpt lat="47.52995" lon="6.76425">
        <ele>368.9</ele>
        <time>2017-10-04T16:43:39Z</time>
      </trkpt>
      <trkpt lat="47.52997" lon="6.76432">
        <ele>368.2</ele>
        <time>2017-10-04T16:43:41Z</time>
      </trkpt>
      <trkpt lat="47.52999" lon="6.76435">
        <ele>367.7</ele>
        <time>2017-10-04T16:43:42Z</time>
      </trkpt>
      <trkpt lat="47.53001" lon="6.76438">
        <ele>367.1</ele>
        <time>2017-10-04T16:43:43Z</time>
      </trkpt>
      <trkpt lat="47.53002" lon="6.76443">
        <ele>366.6</ele>
        <time>2017-10-04T16:43:45Z</time>
      </trkpt>
      <trkpt lat="47.53003" lon="6.76449">
        <ele>366.2</ele>
        <time>2017-10-04T16:43:46Z</time>
      </trkpt>
      <trkpt lat="47.53004" lon="6.76455">
        <ele>365.9</ele>
        <time>2017-10-04T16:43:48Z</time>
      </trkpt>
      <trkpt lat="47.53006" lon="6.76461">
        <ele>365.7</ele>
        <time>2017-10-04T16:43:50Z</time>
      </trkpt>
      <trkpt lat="47.53008" lon="6.76465">
        <ele>365.4</ele>
        <time>2017-10-04T16:43:52Z</time>
      </trkpt>
      <trkpt lat="47.53008" lon="6.7647">
        <ele>365.7</ele>
        <time>2017-10-04T16:43:54Z</time>
      </trkpt>
      <trkpt lat="47.53009" lon="6.76479">
        <ele>366.2</ele>
        <time>2017-10-04T16:43:56Z</time>
      </trkpt>
      <trkpt lat="47.53009" lon="6.76488">
        <ele>366.6</ele>
        <time>2017-10-04T16:43:58Z</time>
      </trkpt>
      <trkpt lat="47.53007" lon="6.76492">
        <ele>366.9</ele>
        <time>2017-10-04T16:43:59Z</time>
      </trkpt>
      <trkpt lat="47.53005" lon="6.76497">
        <ele>367.3</ele>
        <time>2017-10-04T16:44:00Z</time>
      </trkpt>
      <trkpt lat="47.53004" lon="6.76501">
        <ele>367.6</ele>
        <time>2017-10-04T16:44:02Z</time>
      </trkpt>
      <trkpt lat="47.53002" lon="6.76506">
        <ele>367.9</ele>
        <time>2017-10-04T16:44:05Z</time>
      </trkpt>
      <trkpt lat="47.53" lon="6.76511">
        <ele>367.9</ele>
        <time>2017-10-04T16:44:07Z</time>
      </trkpt>
      <trkpt lat="47.52995" lon="6.76515">
        <ele>367.9</ele>
        <time>2017-10-04T16:44:08Z</time>
      </trkpt>
      <trkpt lat="47.52992" lon="6.7652">
        <ele>367.8</ele>
        <time>2017-10-04T16:44:09Z</time>
      </trkpt>
      <trkpt lat="47.52991" lon="6.76525">
        <ele>367.7</ele>
        <time>2017-10-04T16:44:10Z</time>
      </trkpt>
      <trkpt lat="47.5299" lon="6.76531">
        <ele>367.8</ele>
        <time>2017-10-04T16:44:11Z</time>
      </trkpt>
      <trkpt lat="47.52988" lon="6.76536">
        <ele>367.9</ele>
        <time>2017-10-04T16:44:13Z</time>
      </trkpt>
      <trkpt lat="47.52986" lon="6.76539">
        <ele>368.1</ele>
        <time>2017-10-04T16:44:15Z</time>
      </trkpt>
      <trkpt lat="47.52984" lon="6.76543">
        <ele>368.5</ele>
        <time>2017-10-04T16:44:16Z</time>
      </trkpt>
      <trkpt lat="47.52981" lon="6.76548">
        <ele>368.9</ele>
        <time>2017-10-04T16:44:18Z</time>
      </trkpt>
      <trkpt lat="47.5298" lon="6.76554">
        <ele>369.4</ele>
        <time>2017-10-04T16:44:20Z</time>
      </trkpt>
      <trkpt lat="47.52979" lon="6.76561">
        <ele>370</ele>
        <time>2017-10-04T16:44:22Z</time>
      </trkpt>
      <trkpt lat="47.52978" lon="6.76569">
        <ele>370.4</ele>
        <time>2017-10-04T16:44:24Z</time>
      </trkpt>
      <trkpt lat="47.52976" lon="6.76577">
        <ele>370.7</ele>
        <time>2017-10-04T16:44:26Z</time>
      </trkpt>
      <trkpt lat="47.52975" lon="6.76582">
        <ele>371</ele>
        <time>2017-10-04T16:44:27Z</time>
      </trkpt>
      <trkpt lat="47.52974" lon="6.7659">
        <ele>371.1</ele>
        <time>2017-10-04T16:44:29Z</time>
      </trkpt>
      <trkpt lat="47.52973" lon="6.76594">
        <ele>371.1</ele>
        <time>2017-10-04T16:44:30Z</time>
      </trkpt>
      <trkpt lat="47.52973" lon="6.76603">
        <ele>371.1</ele>
        <time>2017-10-04T16:44:32Z</time>
      </trkpt>
      <trkpt lat="47.52973" lon="6.76612">
        <ele>370.9</ele>
        <time>2017-10-04T16:44:34Z</time>
      </trkpt>
      <trkpt lat="47.52972" lon="6.76615">
        <ele>370.7</ele>
        <time>2017-10-04T16:44:35Z</time>
      </trkpt>
      <trkpt lat="47.52971" lon="6.7662">
        <ele>370.4</ele>
        <time>2017-10-04T16:44:37Z</time>
      </trkpt>
      <trkpt lat="47.5297" lon="6.7663">
        <ele>370.3</ele>
        <time>2017-10-04T16:44:39Z</time>
      </trkpt>
      <trkpt lat="47.52969" lon="6.76637">
        <ele>370.3</ele>
        <time>2017-10-04T16:44:40Z</time>
      </trkpt>
      <trkpt lat="47.52967" lon="6.76643">
        <ele>370.6</ele>
        <time>2017-10-04T16:44:43Z</time>
      </trkpt>
      <trkpt lat="47.52967" lon="6.76647">
        <ele>370.8</ele>
        <time>2017-10-04T16:44:44Z</time>
      </trkpt>
      <trkpt lat="47.52963" lon="6.76655">
        <ele>371.2</ele>
        <time>2017-10-04T16:44:46Z</time>
      </trkpt>
      <trkpt lat="47.52962" lon="6.76659">
        <ele>371.1</ele>
        <time>2017-10-04T16:44:47Z</time>
      </trkpt>
      <trkpt lat="47.52958" lon="6.76666">
        <ele>371.5</ele>
        <time>2017-10-04T16:44:49Z</time>
      </trkpt>
      <trkpt lat="47.52955" lon="6.76675">
        <ele>371.7</ele>
        <time>2017-10-04T16:44:50Z</time>
      </trkpt>
      <trkpt lat="47.52953" lon="6.76682">
        <ele>371.8</ele>
        <time>2017-10-04T16:44:51Z</time>
      </trkpt>
      <trkpt lat="47.52954" lon="6.76689">
        <ele>372</ele>
        <time>2017-10-04T16:44:53Z</time>
      </trkpt>
      <trkpt lat="47.52957" lon="6.76692">
        <ele>372.3</ele>
        <time>2017-10-04T16:44:55Z</time>
      </trkpt>
      <trkpt lat="47.52959" lon="6.76696">
        <ele>372.7</ele>
        <time>2017-10-04T16:44:57Z</time>
      </trkpt>
      <trkpt lat="47.5296" lon="6.76701">
        <ele>372.6</ele>
        <time>2017-10-04T16:44:59Z</time>
      </trkpt>
      <trkpt lat="47.5296" lon="6.76705">
        <ele>372.5</ele>
        <time>2017-10-04T16:45:00Z</time>
      </trkpt>
      <trkpt lat="47.52961" lon="6.76713">
        <ele>372.6</ele>
        <time>2017-10-04T16:45:01Z</time>
      </trkpt>
      <trkpt lat="47.52958" lon="6.76722">
        <ele>372</ele>
        <time>2017-10-04T16:45:03Z</time>
      </trkpt>
      <trkpt lat="47.52956" lon="6.76727">
        <ele>371.5</ele>
        <time>2017-10-04T16:45:05Z</time>
      </trkpt>
      <trkpt lat="47.52955" lon="6.76731">
        <ele>371.4</ele>
        <time>2017-10-04T16:45:06Z</time>
      </trkpt>
      <trkpt lat="47.52953" lon="6.76737">
        <ele>370.9</ele>
        <time>2017-10-04T16:45:08Z</time>
      </trkpt>
      <trkpt lat="47.5295" lon="6.76743">
        <ele>370.6</ele>
        <time>2017-10-04T16:45:09Z</time>
      </trkpt>
      <trkpt lat="47.52946" lon="6.76749">
        <ele>370</ele>
        <time>2017-10-04T16:45:10Z</time>
      </trkpt>
      <trkpt lat="47.52942" lon="6.76755">
        <ele>369.7</ele>
        <time>2017-10-04T16:45:11Z</time>
      </trkpt>
      <trkpt lat="47.5294" lon="6.76761">
        <ele>369.4</ele>
        <time>2017-10-04T16:45:13Z</time>
      </trkpt>
      <trkpt lat="47.52938" lon="6.76768">
        <ele>369.3</ele>
        <time>2017-10-04T16:45:15Z</time>
      </trkpt>
      <trkpt lat="47.52936" lon="6.76773">
        <ele>369.2</ele>
        <time>2017-10-04T16:45:16Z</time>
      </trkpt>
      <trkpt lat="47.52933" lon="6.7678">
        <ele>369.2</ele>
        <time>2017-10-04T16:45:18Z</time>
      </trkpt>
      <trkpt lat="47.52933" lon="6.76785">
        <ele>369.2</ele>
        <time>2017-10-04T16:45:20Z</time>
      </trkpt>
      <trkpt lat="47.5293" lon="6.76791">
        <ele>369.2</ele>
        <time>2017-10-04T16:45:22Z</time>
      </trkpt>
      <trkpt lat="47.52928" lon="6.76794">
        <ele>369.2</ele>
        <time>2017-10-04T16:45:23Z</time>
      </trkpt>
      <trkpt lat="47.52923" lon="6.76798">
        <ele>369.1</ele>
        <time>2017-10-04T16:45:25Z</time>
      </trkpt>
      <trkpt lat="47.52918" lon="6.76799">
        <ele>369.1</ele>
        <time>2017-10-04T16:45:26Z</time>
      </trkpt>
      <trkpt lat="47.52915" lon="6.76801">
        <ele>369.1</ele>
        <time>2017-10-04T16:45:28Z</time>
      </trkpt>
      <trkpt lat="47.52912" lon="6.76802">
        <ele>369.1</ele>
        <time>2017-10-04T16:45:29Z</time>
      </trkpt>
      <trkpt lat="47.52909" lon="6.76802">
        <ele>369.1</ele>
        <time>2017-10-04T16:45:30Z</time>
      </trkpt>
      <trkpt lat="47.52906" lon="6.76804">
        <ele>369</ele>
        <time>2017-10-04T16:45:32Z</time>
      </trkpt>
      <trkpt lat="47.52903" lon="6.76806">
        <ele>369.6</ele>
        <time>2017-10-04T16:45:34Z</time>
      </trkpt>
      <trkpt lat="47.52899" lon="6.76807">
        <ele>370</ele>
        <time>2017-10-04T16:45:35Z</time>
      </trkpt>
      <trkpt lat="47.52895" lon="6.7681">
        <ele>370.1</ele>
        <time>2017-10-04T16:45:37Z</time>
      </trkpt>
      <trkpt lat="47.5289" lon="6.76812">
        <ele>370.2</ele>
        <time>2017-10-04T16:45:38Z</time>
      </trkpt>
      <trkpt lat="47.52885" lon="6.76814">
        <ele>370.5</ele>
        <time>2017-10-04T16:45:39Z</time>
      </trkpt>
      <trkpt lat="47.52882" lon="6.76817">
        <ele>371</ele>
        <time>2017-10-04T16:45:41Z</time>
      </trkpt>
      <trkpt lat="47.52877" lon="6.76818">
        <ele>371.5</ele>
        <time>2017-10-04T16:45:42Z</time>
      </trkpt>
      <trkpt lat="47.52872" lon="6.76821">
        <ele>372.2</ele>
        <time>2017-10-04T16:45:43Z</time>
      </trkpt>
      <trkpt lat="47.52867" lon="6.76824">
        <ele>372.6</ele>
        <time>2017-10-04T16:45:45Z</time>
      </trkpt>
      <trkpt lat="47.52863" lon="6.76827">
        <ele>373</ele>
        <time>2017-10-04T16:45:46Z</time>
      </trkpt>
      <trkpt lat="47.52857" lon="6.76833">
        <ele>373.9</ele>
        <time>2017-10-04T16:45:48Z</time>
      </trkpt>
      <trkpt lat="47.52852" lon="6.76835">
        <ele>374.2</ele>
        <time>2017-10-04T16:45:50Z</time>
      </trkpt>
      <trkpt lat="47.52849" lon="6.7684">
        <ele>374.6</ele>
        <time>2017-10-04T16:45:52Z</time>
      </trkpt>
      <trkpt lat="47.52845" lon="6.76844">
        <ele>375</ele>
        <time>2017-10-04T16:45:53Z</time>
      </trkpt>
      <trkpt lat="47.52843" lon="6.76846">
        <ele>375.5</ele>
        <time>2017-10-04T16:45:54Z</time>
      </trkpt>
      <trkpt lat="47.5284" lon="6.76847">
        <ele>376</ele>
        <time>2017-10-04T16:45:55Z</time>
      </trkpt>
      <trkpt lat="47.52836" lon="6.7685">
        <ele>376.3</ele>
        <time>2017-10-04T16:45:56Z</time>
      </trkpt>
      <trkpt lat="47.52832" lon="6.76852">
        <ele>376.6</ele>
        <time>2017-10-04T16:45:58Z</time>
      </trkpt>
      <trkpt lat="47.52828" lon="6.76853">
        <ele>377.1</ele>
        <time>2017-10-04T16:46:00Z</time>
      </trkpt>
      <trkpt lat="47.52822" lon="6.76852">
        <ele>378</ele>
        <time>2017-10-04T16:46:02Z</time>
      </trkpt>
      <trkpt lat="47.52815" lon="6.76854">
        <ele>378.5</ele>
        <time>2017-10-04T16:46:04Z</time>
      </trkpt>
      <trkpt lat="47.5281" lon="6.76855">
        <ele>378.9</ele>
        <time>2017-10-04T16:46:06Z</time>
      </trkpt>
      <trkpt lat="47.52806" lon="6.76856">
        <ele>379.3</ele>
        <time>2017-10-04T16:46:07Z</time>
      </trkpt>
      <trkpt lat="47.52803" lon="6.76858">
        <ele>379.9</ele>
        <time>2017-10-04T16:46:08Z</time>
      </trkpt>
      <trkpt lat="47.528" lon="6.76859">
        <ele>380.2</ele>
        <time>2017-10-04T16:46:09Z</time>
      </trkpt>
      <trkpt lat="47.52798" lon="6.76861">
        <ele>380.4</ele>
        <time>2017-10-04T16:46:10Z</time>
      </trkpt>
      <trkpt lat="47.52795" lon="6.76862">
        <ele>380.5</ele>
        <time>2017-10-04T16:46:11Z</time>
      </trkpt>
      <trkpt lat="47.52791" lon="6.76864">
        <ele>380.8</ele>
        <time>2017-10-04T16:46:12Z</time>
      </trkpt>
      <trkpt lat="47.52785" lon="6.76864">
        <ele>381.1</ele>
        <time>2017-10-04T16:46:14Z</time>
      </trkpt>
      <trkpt lat="47.52781" lon="6.76864">
        <ele>381.4</ele>
        <time>2017-10-04T16:46:16Z</time>
      </trkpt>
      <trkpt lat="47.52778" lon="6.76864">
        <ele>381.8</ele>
        <time>2017-10-04T16:46:17Z</time>
      </trkpt>
      <trkpt lat="47.52773" lon="6.76868">
        <ele>382.4</ele>
        <time>2017-10-04T16:46:19Z</time>
      </trkpt>
      <trkpt lat="47.52771" lon="6.76868">
        <ele>382.5</ele>
        <time>2017-10-04T16:46:20Z</time>
      </trkpt>
      <trkpt lat="47.52768" lon="6.76868">
        <ele>382.7</ele>
        <time>2017-10-04T16:46:21Z</time>
      </trkpt>
      <trkpt lat="47.5276" lon="6.76869">
        <ele>383.1</ele>
        <time>2017-10-04T16:46:23Z</time>
      </trkpt>
      <trkpt lat="47.52757" lon="6.76869">
        <ele>383.3</ele>
        <time>2017-10-04T16:46:24Z</time>
      </trkpt>
      <trkpt lat="47.52753" lon="6.7687">
        <ele>383.7</ele>
        <time>2017-10-04T16:46:26Z</time>
      </trkpt>
      <trkpt lat="47.52748" lon="6.7687">
        <ele>384.3</ele>
        <time>2017-10-04T16:46:28Z</time>
      </trkpt>
      <trkpt lat="47.52744" lon="6.76873">
        <ele>384.8</ele>
        <time>2017-10-04T16:46:30Z</time>
      </trkpt>
      <trkpt lat="47.52739" lon="6.76874">
        <ele>385.1</ele>
        <time>2017-10-04T16:46:32Z</time>
      </trkpt>
      <trkpt lat="47.52734" lon="6.76875">
        <ele>385.5</ele>
        <time>2017-10-04T16:46:34Z</time>
      </trkpt>
      <trkpt lat="47.52729" lon="6.76875">
        <ele>386.2</ele>
        <time>2017-10-04T16:46:36Z</time>
      </trkpt>
      <trkpt lat="47.52724" lon="6.76876">
        <ele>386.5</ele>
        <time>2017-10-04T16:46:38Z</time>
      </trkpt>
      <trkpt lat="47.52721" lon="6.76876">
        <ele>386.7</ele>
        <time>2017-10-04T16:46:39Z</time>
      </trkpt>
      <trkpt lat="47.52716" lon="6.76876">
        <ele>387.1</ele>
        <time>2017-10-04T16:46:41Z</time>
      </trkpt>
      <trkpt lat="47.52712" lon="6.76878">
        <ele>387.5</ele>
        <time>2017-10-04T16:46:43Z</time>
      </trkpt>
      <trkpt lat="47.52707" lon="6.76879">
        <ele>388.2</ele>
        <time>2017-10-04T16:46:45Z</time>
      </trkpt>
      <trkpt lat="47.52704" lon="6.76882">
        <ele>389.2</ele>
        <time>2017-10-04T16:46:47Z</time>
      </trkpt>
      <trkpt lat="47.52701" lon="6.76885">
        <ele>389.4</ele>
        <time>2017-10-04T16:46:49Z</time>
      </trkpt>
      <trkpt lat="47.52696" lon="6.76887">
        <ele>389.6</ele>
        <time>2017-10-04T16:46:51Z</time>
      </trkpt>
      <trkpt lat="47.52692" lon="6.76887">
        <ele>389.8</ele>
        <time>2017-10-04T16:46:52Z</time>
      </trkpt>
      <trkpt lat="47.52688" lon="6.76888">
        <ele>390</ele>
        <time>2017-10-04T16:46:54Z</time>
      </trkpt>
      <trkpt lat="47.52683" lon="6.76891">
        <ele>390.5</ele>
        <time>2017-10-04T16:46:56Z</time>
      </trkpt>
      <trkpt lat="47.52678" lon="6.76892">
        <ele>390.9</ele>
        <time>2017-10-04T16:46:58Z</time>
      </trkpt>
      <trkpt lat="47.52673" lon="6.76892">
        <ele>391.4</ele>
        <time>2017-10-04T16:47:00Z</time>
      </trkpt>
      <trkpt lat="47.52669" lon="6.76893">
        <ele>391.9</ele>
        <time>2017-10-04T16:47:02Z</time>
      </trkpt>
      <trkpt lat="47.52664" lon="6.76895">
        <ele>392.9</ele>
        <time>2017-10-04T16:47:04Z</time>
      </trkpt>
      <trkpt lat="47.5266" lon="6.76895">
        <ele>393.2</ele>
        <time>2017-10-04T16:47:06Z</time>
      </trkpt>
      <trkpt lat="47.52657" lon="6.76895">
        <ele>393.6</ele>
        <time>2017-10-04T16:47:07Z</time>
      </trkpt>
      <trkpt lat="47.52653" lon="6.76895">
        <ele>394.2</ele>
        <time>2017-10-04T16:47:09Z</time>
      </trkpt>
      <trkpt lat="47.5265" lon="6.76896">
        <ele>394.8</ele>
        <time>2017-10-04T16:47:11Z</time>
      </trkpt>
      <trkpt lat="47.52646" lon="6.76899">
        <ele>395.3</ele>
        <time>2017-10-04T16:47:13Z</time>
      </trkpt>
      <trkpt lat="47.52643" lon="6.769">
        <ele>395.8</ele>
        <time>2017-10-04T16:47:14Z</time>
      </trkpt>
      <trkpt lat="47.52637" lon="6.76898">
        <ele>396.8</ele>
        <time>2017-10-04T16:47:16Z</time>
      </trkpt>
      <trkpt lat="47.52634" lon="6.76898">
        <ele>397.2</ele>
        <time>2017-10-04T16:47:18Z</time>
      </trkpt>
      <trkpt lat="47.52629" lon="6.76898">
        <ele>397.8</ele>
        <time>2017-10-04T16:47:19Z</time>
      </trkpt>
      <trkpt lat="47.52624" lon="6.769">
        <ele>398.6</ele>
        <time>2017-10-04T16:47:21Z</time>
      </trkpt>
      <trkpt lat="47.5262" lon="6.76897">
        <ele>399.2</ele>
        <time>2017-10-04T16:47:23Z</time>
      </trkpt>
      <trkpt lat="47.52616" lon="6.76897">
        <ele>399.6</ele>
        <time>2017-10-04T16:47:24Z</time>
      </trkpt>
      <trkpt lat="47.52612" lon="6.76896">
        <ele>400.1</ele>
        <time>2017-10-04T16:47:25Z</time>
      </trkpt>
      <trkpt lat="47.52607" lon="6.76893">
        <ele>400.9</ele>
        <time>2017-10-04T16:47:27Z</time>
      </trkpt>
      <trkpt lat="47.52603" lon="6.76892">
        <ele>401.3</ele>
        <time>2017-10-04T16:47:28Z</time>
      </trkpt>
      <trkpt lat="47.526" lon="6.76892">
        <ele>401.7</ele>
        <time>2017-10-04T16:47:30Z</time>
      </trkpt>
      <trkpt lat="47.52595" lon="6.76894">
        <ele>402.8</ele>
        <time>2017-10-04T16:47:32Z</time>
      </trkpt>
      <trkpt lat="47.52591" lon="6.76895">
        <ele>403.2</ele>
        <time>2017-10-04T16:47:34Z</time>
      </trkpt>
      <trkpt lat="47.52587" lon="6.76897">
        <ele>403.9</ele>
        <time>2017-10-04T16:47:36Z</time>
      </trkpt>
      <trkpt lat="47.52583" lon="6.76899">
        <ele>404.7</ele>
        <time>2017-10-04T16:47:37Z</time>
      </trkpt>
      <trkpt lat="47.52579" lon="6.76898">
        <ele>405.2</ele>
        <time>2017-10-04T16:47:39Z</time>
      </trkpt>
      <trkpt lat="47.52575" lon="6.76897">
        <ele>405.5</ele>
        <time>2017-10-04T16:47:41Z</time>
      </trkpt>
      <trkpt lat="47.52572" lon="6.76898">
        <ele>406.2</ele>
        <time>2017-10-04T16:47:43Z</time>
      </trkpt>
      <trkpt lat="47.52568" lon="6.76898">
        <ele>407.1</ele>
        <time>2017-10-04T16:47:45Z</time>
      </trkpt>
      <trkpt lat="47.52564" lon="6.76896">
        <ele>407.5</ele>
        <time>2017-10-04T16:47:47Z</time>
      </trkpt>
      <trkpt lat="47.52561" lon="6.76894">
        <ele>407.8</ele>
        <time>2017-10-04T16:47:48Z</time>
      </trkpt>
      <trkpt lat="47.52559" lon="6.76893">
        <ele>408.3</ele>
        <time>2017-10-04T16:47:49Z</time>
      </trkpt>
      <trkpt lat="47.52554" lon="6.76892">
        <ele>409.3</ele>
        <time>2017-10-04T16:47:51Z</time>
      </trkpt>
      <trkpt lat="47.52551" lon="6.76893">
        <ele>409.7</ele>
        <time>2017-10-04T16:47:53Z</time>
      </trkpt>
      <trkpt lat="47.52546" lon="6.76896">
        <ele>410.4</ele>
        <time>2017-10-04T16:47:55Z</time>
      </trkpt>
      <trkpt lat="47.52543" lon="6.76897">
        <ele>411</ele>
        <time>2017-10-04T16:47:56Z</time>
      </trkpt>
      <trkpt lat="47.5254" lon="6.76898">
        <ele>411.4</ele>
        <time>2017-10-04T16:47:58Z</time>
      </trkpt>
      <trkpt lat="47.52537" lon="6.76899">
        <ele>411.7</ele>
        <time>2017-10-04T16:47:59Z</time>
      </trkpt>
      <trkpt lat="47.52533" lon="6.769">
        <ele>412.1</ele>
        <time>2017-10-04T16:48:01Z</time>
      </trkpt>
      <trkpt lat="47.5253" lon="6.76903">
        <ele>412.5</ele>
        <time>2017-10-04T16:48:03Z</time>
      </trkpt>
      <trkpt lat="47.52526" lon="6.76906">
        <ele>413.1</ele>
        <time>2017-10-04T16:48:05Z</time>
      </trkpt>
      <trkpt lat="47.52521" lon="6.76907">
        <ele>413.6</ele>
        <time>2017-10-04T16:48:07Z</time>
      </trkpt>
      <trkpt lat="47.52517" lon="6.76907">
        <ele>414</ele>
        <time>2017-10-04T16:48:08Z</time>
      </trkpt>
      <trkpt lat="47.52511" lon="6.76904">
        <ele>414.9</ele>
        <time>2017-10-04T16:48:10Z</time>
      </trkpt>
      <trkpt lat="47.52507" lon="6.76903">
        <ele>415.3</ele>
        <time>2017-10-04T16:48:12Z</time>
      </trkpt>
      <trkpt lat="47.52504" lon="6.76903">
        <ele>415.9</ele>
        <time>2017-10-04T16:48:13Z</time>
      </trkpt>
      <trkpt lat="47.525" lon="6.76903">
        <ele>416.6</ele>
        <time>2017-10-04T16:48:14Z</time>
      </trkpt>
      <trkpt lat="47.52496" lon="6.76901">
        <ele>417.2</ele>
        <time>2017-10-04T16:48:17Z</time>
      </trkpt>
      <trkpt lat="47.52492" lon="6.76903">
        <ele>417.9</ele>
        <time>2017-10-04T16:48:18Z</time>
      </trkpt>
      <trkpt lat="47.52487" lon="6.76904">
        <ele>418.4</ele>
        <time>2017-10-04T16:48:21Z</time>
      </trkpt>
      <trkpt lat="47.52484" lon="6.76907">
        <ele>419</ele>
        <time>2017-10-04T16:48:23Z</time>
      </trkpt>
      <trkpt lat="47.52482" lon="6.7691">
        <ele>419.3</ele>
        <time>2017-10-04T16:48:25Z</time>
      </trkpt>
      <trkpt lat="47.52479" lon="6.76912">
        <ele>419.5</ele>
        <time>2017-10-04T16:48:27Z</time>
      </trkpt>
      <trkpt lat="47.52476" lon="6.76917">
        <ele>419.6</ele>
        <time>2017-10-04T16:48:29Z</time>
      </trkpt>
      <trkpt lat="47.52474" lon="6.76923">
        <ele>419.7</ele>
        <time>2017-10-04T16:48:31Z</time>
      </trkpt>
      <trkpt lat="47.52472" lon="6.76928">
        <ele>419.7</ele>
        <time>2017-10-04T16:48:32Z</time>
      </trkpt>
      <trkpt lat="47.52469" lon="6.76935">
        <ele>419.8</ele>
        <time>2017-10-04T16:48:34Z</time>
      </trkpt>
      <trkpt lat="47.52466" lon="6.76938">
        <ele>419.8</ele>
        <time>2017-10-04T16:48:35Z</time>
      </trkpt>
      <trkpt lat="47.52464" lon="6.76943">
        <ele>419.8</ele>
        <time>2017-10-04T16:48:37Z</time>
      </trkpt>
      <trkpt lat="47.52462" lon="6.76947">
        <ele>419.8</ele>
        <time>2017-10-04T16:48:38Z</time>
      </trkpt>
      <trkpt lat="47.5246" lon="6.7695">
        <ele>419.8</ele>
        <time>2017-10-04T16:48:39Z</time>
      </trkpt>
      <trkpt lat="47.52457" lon="6.76956">
        <ele>419.7</ele>
        <time>2017-10-04T16:48:41Z</time>
      </trkpt>
      <trkpt lat="47.52454" lon="6.76963">
        <ele>419.7</ele>
        <time>2017-10-04T16:48:43Z</time>
      </trkpt>
      <trkpt lat="47.52451" lon="6.76967">
        <ele>419.6</ele>
        <time>2017-10-04T16:48:44Z</time>
      </trkpt>
      <trkpt lat="47.52449" lon="6.76972">
        <ele>419.6</ele>
        <time>2017-10-04T16:48:46Z</time>
      </trkpt>
      <trkpt lat="47.52445" lon="6.76979">
        <ele>419.5</ele>
        <time>2017-10-04T16:48:48Z</time>
      </trkpt>
      <trkpt lat="47.52443" lon="6.76984">
        <ele>419.4</ele>
        <time>2017-10-04T16:48:50Z</time>
      </trkpt>
      <trkpt lat="47.52441" lon="6.76987">
        <ele>419.3</ele>
        <time>2017-10-04T16:48:51Z</time>
      </trkpt>
      <trkpt lat="47.52439" lon="6.7699">
        <ele>419.2</ele>
        <time>2017-10-04T16:48:52Z</time>
      </trkpt>
      <trkpt lat="47.52436" lon="6.76993">
        <ele>419.1</ele>
        <time>2017-10-04T16:48:53Z</time>
      </trkpt>
      <trkpt lat="47.52432" lon="6.76998">
        <ele>418.6</ele>
        <time>2017-10-04T16:48:54Z</time>
      </trkpt>
      <trkpt lat="47.5243" lon="6.77001">
        <ele>418.3</ele>
        <time>2017-10-04T16:48:55Z</time>
      </trkpt>
      <trkpt lat="47.52428" lon="6.77005">
        <ele>417.9</ele>
        <time>2017-10-04T16:48:56Z</time>
      </trkpt>
      <trkpt lat="47.52426" lon="6.77009">
        <ele>417.5</ele>
        <time>2017-10-04T16:48:57Z</time>
      </trkpt>
      <trkpt lat="47.52424" lon="6.77013">
        <ele>417</ele>
        <time>2017-10-04T16:48:58Z</time>
      </trkpt>
      <trkpt lat="47.5242" lon="6.77018">
        <ele>416.2</ele>
        <time>2017-10-04T16:48:59Z</time>
      </trkpt>
      <trkpt lat="47.52418" lon="6.77023">
        <ele>415.8</ele>
        <time>2017-10-04T16:49:00Z</time>
      </trkpt>
      <trkpt lat="47.52415" lon="6.77029">
        <ele>415.2</ele>
        <time>2017-10-04T16:49:01Z</time>
      </trkpt>
      <trkpt lat="47.52414" lon="6.77033">
        <ele>414.9</ele>
        <time>2017-10-04T16:49:02Z</time>
      </trkpt>
      <trkpt lat="47.52411" lon="6.7704">
        <ele>414.3</ele>
        <time>2017-10-04T16:49:04Z</time>
      </trkpt>
      <trkpt lat="47.52409" lon="6.77046">
        <ele>414</ele>
        <time>2017-10-04T16:49:06Z</time>
      </trkpt>
      <trkpt lat="47.52408" lon="6.77054">
        <ele>413.4</ele>
        <time>2017-10-04T16:49:08Z</time>
      </trkpt>
      <trkpt lat="47.52407" lon="6.77058">
        <ele>413.1</ele>
        <time>2017-10-04T16:49:09Z</time>
      </trkpt>
      <trkpt lat="47.52405" lon="6.77068">
        <ele>412.6</ele>
        <time>2017-10-04T16:49:11Z</time>
      </trkpt>
      <trkpt lat="47.52402" lon="6.77076">
        <ele>412.2</ele>
        <time>2017-10-04T16:49:13Z</time>
      </trkpt>
      <trkpt lat="47.524" lon="6.77079">
        <ele>411.9</ele>
        <time>2017-10-04T16:49:14Z</time>
      </trkpt>
      <trkpt lat="47.52399" lon="6.77083">
        <ele>411.6</ele>
        <time>2017-10-04T16:49:15Z</time>
      </trkpt>
      <trkpt lat="47.52397" lon="6.77088">
        <ele>411.3</ele>
        <time>2017-10-04T16:49:16Z</time>
      </trkpt>
      <trkpt lat="47.52394" lon="6.7709">
        <ele>411</ele>
        <time>2017-10-04T16:49:17Z</time>
      </trkpt>
      <trkpt lat="47.52391" lon="6.77097">
        <ele>410.4</ele>
        <time>2017-10-04T16:49:19Z</time>
      </trkpt>
      <trkpt lat="47.5239" lon="6.771">
        <ele>410.1</ele>
        <time>2017-10-04T16:49:20Z</time>
      </trkpt>
      <trkpt lat="47.52388" lon="6.77106">
        <ele>409.6</ele>
        <time>2017-10-04T16:49:22Z</time>
      </trkpt>
      <trkpt lat="47.52386" lon="6.77112">
        <ele>409.1</ele>
        <time>2017-10-04T16:49:23Z</time>
      </trkpt>
      <trkpt lat="47.52384" lon="6.77116">
        <ele>408.7</ele>
        <time>2017-10-04T16:49:24Z</time>
      </trkpt>
      <trkpt lat="47.52382" lon="6.77121">
        <ele>408.2</ele>
        <time>2017-10-04T16:49:25Z</time>
      </trkpt>
      <trkpt lat="47.5238" lon="6.77128">
        <ele>407.4</ele>
        <time>2017-10-04T16:49:26Z</time>
      </trkpt>
      <trkpt lat="47.52376" lon="6.77134">
        <ele>406.6</ele>
        <time>2017-10-04T16:49:27Z</time>
      </trkpt>
      <trkpt lat="47.52375" lon="6.77138">
        <ele>406.2</ele>
        <time>2017-10-04T16:49:28Z</time>
      </trkpt>
      <trkpt lat="47.52373" lon="6.77142">
        <ele>405.9</ele>
        <time>2017-10-04T16:49:29Z</time>
      </trkpt>
      <trkpt lat="47.52373" lon="6.77146">
        <ele>405.6</ele>
        <time>2017-10-04T16:49:30Z</time>
      </trkpt>
      <trkpt lat="47.52372" lon="6.7715">
        <ele>405.3</ele>
        <time>2017-10-04T16:49:31Z</time>
      </trkpt>
      <trkpt lat="47.52369" lon="6.77156">
        <ele>404.8</ele>
        <time>2017-10-04T16:49:33Z</time>
      </trkpt>
      <trkpt lat="47.52366" lon="6.77161">
        <ele>404.4</ele>
        <time>2017-10-04T16:49:35Z</time>
      </trkpt>
      <trkpt lat="47.52364" lon="6.77164">
        <ele>404.2</ele>
        <time>2017-10-04T16:49:36Z</time>
      </trkpt>
      <trkpt lat="47.52362" lon="6.77169">
        <ele>403.9</ele>
        <time>2017-10-04T16:49:38Z</time>
      </trkpt>
      <trkpt lat="47.5236" lon="6.77172">
        <ele>403.6</ele>
        <time>2017-10-04T16:49:39Z</time>
      </trkpt>
      <trkpt lat="47.52356" lon="6.77177">
        <ele>403.3</ele>
        <time>2017-10-04T16:49:41Z</time>
      </trkpt>
      <trkpt lat="47.52354" lon="6.7718">
        <ele>403</ele>
        <time>2017-10-04T16:49:42Z</time>
      </trkpt>
      <trkpt lat="47.52353" lon="6.77184">
        <ele>402.8</ele>
        <time>2017-10-04T16:49:43Z</time>
      </trkpt>
      <trkpt lat="47.52351" lon="6.77187">
        <ele>402.6</ele>
        <time>2017-10-04T16:49:44Z</time>
      </trkpt>
      <trkpt lat="47.52349" lon="6.77192">
        <ele>402.4</ele>
        <time>2017-10-04T16:49:45Z</time>
      </trkpt>
      <trkpt lat="47.52348" lon="6.77196">
        <ele>402.2</ele>
        <time>2017-10-04T16:49:46Z</time>
      </trkpt>
      <trkpt lat="47.52348" lon="6.77202">
        <ele>401.8</ele>
        <time>2017-10-04T16:49:48Z</time>
      </trkpt>
      <trkpt lat="47.52347" lon="6.77207">
        <ele>401.6</ele>
        <time>2017-10-04T16:49:49Z</time>
      </trkpt>
      <trkpt lat="47.52346" lon="6.77213">
        <ele>401.4</ele>
        <time>2017-10-04T16:49:50Z</time>
      </trkpt>
      <trkpt lat="47.52345" lon="6.77221">
        <ele>401.1</ele>
        <time>2017-10-04T16:49:51Z</time>
      </trkpt>
      <trkpt lat="47.52344" lon="6.77228">
        <ele>400.9</ele>
        <time>2017-10-04T16:49:52Z</time>
      </trkpt>
      <trkpt lat="47.52343" lon="6.77233">
        <ele>400.8</ele>
        <time>2017-10-04T16:49:53Z</time>
      </trkpt>
      <trkpt lat="47.5234" lon="6.7724">
        <ele>400.6</ele>
        <time>2017-10-04T16:49:55Z</time>
      </trkpt>
      <trkpt lat="47.52338" lon="6.77245">
        <ele>400.5</ele>
        <time>2017-10-04T16:49:56Z</time>
      </trkpt>
      <trkpt lat="47.52337" lon="6.77252">
        <ele>400.2</ele>
        <time>2017-10-04T16:49:57Z</time>
      </trkpt>
      <trkpt lat="47.52336" lon="6.7726">
        <ele>399.8</ele>
        <time>2017-10-04T16:49:59Z</time>
      </trkpt>
      <trkpt lat="47.52333" lon="6.7727">
        <ele>399.3</ele>
        <time>2017-10-04T16:50:00Z</time>
      </trkpt>
      <trkpt lat="47.52333" lon="6.77279">
        <ele>398.9</ele>
        <time>2017-10-04T16:50:01Z</time>
      </trkpt>
      <trkpt lat="47.52333" lon="6.77283">
        <ele>398.7</ele>
        <time>2017-10-04T16:50:02Z</time>
      </trkpt>
      <trkpt lat="47.52331" lon="6.77295">
        <ele>398.1</ele>
        <time>2017-10-04T16:50:04Z</time>
      </trkpt>
      <trkpt lat="47.5233" lon="6.77299">
        <ele>397.8</ele>
        <time>2017-10-04T16:50:05Z</time>
      </trkpt>
      <trkpt lat="47.5233" lon="6.77304">
        <ele>397.6</ele>
        <time>2017-10-04T16:50:06Z</time>
      </trkpt>
      <trkpt lat="47.52331" lon="6.7731">
        <ele>397.2</ele>
        <time>2017-10-04T16:50:08Z</time>
      </trkpt>
      <trkpt lat="47.52332" lon="6.77315">
        <ele>397</ele>
        <time>2017-10-04T16:50:09Z</time>
      </trkpt>
      <trkpt lat="47.52334" lon="6.77324">
        <ele>396.6</ele>
        <time>2017-10-04T16:50:10Z</time>
      </trkpt>
      <trkpt lat="47.52334" lon="6.77331">
        <ele>396.2</ele>
        <time>2017-10-04T16:50:11Z</time>
      </trkpt>
      <trkpt lat="47.52334" lon="6.77338">
        <ele>395.9</ele>
        <time>2017-10-04T16:50:12Z</time>
      </trkpt>
      <trkpt lat="47.52335" lon="6.77342">
        <ele>395.7</ele>
        <time>2017-10-04T16:50:13Z</time>
      </trkpt>
      <trkpt lat="47.52335" lon="6.77347">
        <ele>395.5</ele>
        <time>2017-10-04T16:50:14Z</time>
      </trkpt>
      <trkpt lat="47.52337" lon="6.77352">
        <ele>395.2</ele>
        <time>2017-10-04T16:50:16Z</time>
      </trkpt>
      <trkpt lat="47.52339" lon="6.77357">
        <ele>394.9</ele>
        <time>2017-10-04T16:50:18Z</time>
      </trkpt>
      <trkpt lat="47.52341" lon="6.77363">
        <ele>394.6</ele>
        <time>2017-10-04T16:50:20Z</time>
      </trkpt>
      <trkpt lat="47.52344" lon="6.7737">
        <ele>394.5</ele>
        <time>2017-10-04T16:50:22Z</time>
      </trkpt>
      <trkpt lat="47.52348" lon="6.77376">
        <ele>394.4</ele>
        <time>2017-10-04T16:50:23Z</time>
      </trkpt>
      <trkpt lat="47.52351" lon="6.77386">
        <ele>394.4</ele>
        <time>2017-10-04T16:50:25Z</time>
      </trkpt>
      <trkpt lat="47.52353" lon="6.77389">
        <ele>394.3</ele>
        <time>2017-10-04T16:50:26Z</time>
      </trkpt>
      <trkpt lat="47.52355" lon="6.77393">
        <ele>394.3</ele>
        <time>2017-10-04T16:50:27Z</time>
      </trkpt>
      <trkpt lat="47.5236" lon="6.77398">
        <ele>394.3</ele>
        <time>2017-10-04T16:50:28Z</time>
      </trkpt>
      <trkpt lat="47.52361" lon="6.77402">
        <ele>394.3</ele>
        <time>2017-10-04T16:50:29Z</time>
      </trkpt>
      <trkpt lat="47.52363" lon="6.77405">
        <ele>394.3</ele>
        <time>2017-10-04T16:50:30Z</time>
      </trkpt>
      <trkpt lat="47.52366" lon="6.77411">
        <ele>394.3</ele>
        <time>2017-10-04T16:50:32Z</time>
      </trkpt>
      <trkpt lat="47.52369" lon="6.77414">
        <ele>394.2</ele>
        <time>2017-10-04T16:50:33Z</time>
      </trkpt>
      <trkpt lat="47.52372" lon="6.77416">
        <ele>394.2</ele>
        <time>2017-10-04T16:50:34Z</time>
      </trkpt>
      <trkpt lat="47.52377" lon="6.77419">
        <ele>394.1</ele>
        <time>2017-10-04T16:50:36Z</time>
      </trkpt>
      <trkpt lat="47.5238" lon="6.77421">
        <ele>394</ele>
        <time>2017-10-04T16:50:37Z</time>
      </trkpt>
      <trkpt lat="47.52385" lon="6.77426">
        <ele>393.9</ele>
        <time>2017-10-04T16:50:38Z</time>
      </trkpt>
      <trkpt lat="47.52388" lon="6.77431">
        <ele>393.8</ele>
        <time>2017-10-04T16:50:39Z</time>
      </trkpt>
      <trkpt lat="47.52391" lon="6.77433">
        <ele>393.8</ele>
        <time>2017-10-04T16:50:40Z</time>
      </trkpt>
      <trkpt lat="47.52394" lon="6.77435">
        <ele>393.7</ele>
        <time>2017-10-04T16:50:41Z</time>
      </trkpt>
      <trkpt lat="47.52397" lon="6.77436">
        <ele>393.6</ele>
        <time>2017-10-04T16:50:42Z</time>
      </trkpt>
      <trkpt lat="47.52401" lon="6.77438">
        <ele>393.5</ele>
        <time>2017-10-04T16:50:43Z</time>
      </trkpt>
      <trkpt lat="47.52404" lon="6.77441">
        <ele>393.4</ele>
        <time>2017-10-04T16:50:44Z</time>
      </trkpt>
      <trkpt lat="47.52406" lon="6.77443">
        <ele>393.2</ele>
        <time>2017-10-04T16:50:45Z</time>
      </trkpt>
      <trkpt lat="47.52409" lon="6.77446">
        <ele>392.8</ele>
        <time>2017-10-04T16:50:46Z</time>
      </trkpt>
      <trkpt lat="47.52406" lon="6.77448">
        <ele>391.9</ele>
        <time>2017-10-04T16:50:50Z</time>
      </trkpt>
      <trkpt lat="47.52405" lon="6.77452">
        <ele>391.9</ele>
        <time>2017-10-04T16:50:52Z</time>
      </trkpt>
      <trkpt lat="47.52403" lon="6.77458">
        <ele>391.8</ele>
        <time>2017-10-04T16:50:54Z</time>
      </trkpt>
      <trkpt lat="47.52402" lon="6.77461">
        <ele>391.7</ele>
        <time>2017-10-04T16:50:55Z</time>
      </trkpt>
      <trkpt lat="47.52398" lon="6.77469">
        <ele>391.6</ele>
        <time>2017-10-04T16:50:57Z</time>
      </trkpt>
      <trkpt lat="47.52396" lon="6.77473">
        <ele>391.6</ele>
        <time>2017-10-04T16:50:58Z</time>
      </trkpt>
      <trkpt lat="47.52393" lon="6.77478">
        <ele>391.4</ele>
        <time>2017-10-04T16:51:00Z</time>
      </trkpt>
      <trkpt lat="47.5239" lon="6.77484">
        <ele>391.1</ele>
        <time>2017-10-04T16:51:02Z</time>
      </trkpt>
      <trkpt lat="47.52388" lon="6.77487">
        <ele>390.8</ele>
        <time>2017-10-04T16:51:03Z</time>
      </trkpt>
      <trkpt lat="47.52383" lon="6.77489">
        <ele>390.4</ele>
        <time>2017-10-04T16:51:05Z</time>
      </trkpt>
      <trkpt lat="47.52378" lon="6.77491">
        <ele>390</ele>
        <time>2017-10-04T16:51:06Z</time>
      </trkpt>
      <trkpt lat="47.52375" lon="6.77492">
        <ele>389.7</ele>
        <time>2017-10-04T16:51:07Z</time>
      </trkpt>
      <trkpt lat="47.52373" lon="6.77492">
        <ele>389.5</ele>
        <time>2017-10-04T16:51:08Z</time>
      </trkpt>
      <trkpt lat="47.52368" lon="6.77496">
        <ele>389.3</ele>
        <time>2017-10-04T16:51:10Z</time>
      </trkpt>
      <trkpt lat="47.52364" lon="6.77499">
        <ele>389.1</ele>
        <time>2017-10-04T16:51:12Z</time>
      </trkpt>
      <trkpt lat="47.52361" lon="6.77501">
        <ele>389.1</ele>
        <time>2017-10-04T16:51:13Z</time>
      </trkpt>
      <trkpt lat="47.52358" lon="6.77503">
        <ele>389</ele>
        <time>2017-10-04T16:51:14Z</time>
      </trkpt>
      <trkpt lat="47.52356" lon="6.77505">
        <ele>389</ele>
        <time>2017-10-04T16:51:15Z</time>
      </trkpt>
      <trkpt lat="47.52351" lon="6.77507">
        <ele>388.9</ele>
        <time>2017-10-04T16:51:17Z</time>
      </trkpt>
      <trkpt lat="47.52348" lon="6.77508">
        <ele>388.8</ele>
        <time>2017-10-04T16:51:18Z</time>
      </trkpt>
      <trkpt lat="47.52344" lon="6.7751">
        <ele>388.7</ele>
        <time>2017-10-04T16:51:19Z</time>
      </trkpt>
      <trkpt lat="47.52339" lon="6.77513">
        <ele>388.6</ele>
        <time>2017-10-04T16:51:20Z</time>
      </trkpt>
      <trkpt lat="47.52335" lon="6.77517">
        <ele>388.6</ele>
        <time>2017-10-04T16:51:22Z</time>
      </trkpt>
      <trkpt lat="47.52333" lon="6.7752">
        <ele>388.5</ele>
        <time>2017-10-04T16:51:23Z</time>
      </trkpt>
      <trkpt lat="47.52331" lon="6.77525">
        <ele>388.5</ele>
        <time>2017-10-04T16:51:24Z</time>
      </trkpt>
      <trkpt lat="47.5233" lon="6.7753">
        <ele>388.4</ele>
        <time>2017-10-04T16:51:25Z</time>
      </trkpt>
      <trkpt lat="47.52328" lon="6.77535">
        <ele>388.4</ele>
        <time>2017-10-04T16:51:27Z</time>
      </trkpt>
      <trkpt lat="47.52324" lon="6.77535">
        <ele>388.3</ele>
        <time>2017-10-04T16:51:28Z</time>
      </trkpt>
      <trkpt lat="47.52322" lon="6.77534">
        <ele>388.3</ele>
        <time>2017-10-04T16:51:29Z</time>
      </trkpt>
      <trkpt lat="47.52319" lon="6.77535">
        <ele>388.3</ele>
        <time>2017-10-04T16:51:30Z</time>
      </trkpt>
      <trkpt lat="47.52316" lon="6.77537">
        <ele>388.2</ele>
        <time>2017-10-04T16:51:31Z</time>
      </trkpt>
      <trkpt lat="47.52313" lon="6.7754">
        <ele>388.2</ele>
        <time>2017-10-04T16:51:32Z</time>
      </trkpt>
      <trkpt lat="47.52308" lon="6.77543">
        <ele>388.2</ele>
        <time>2017-10-04T16:51:33Z</time>
      </trkpt>
      <trkpt lat="47.52303" lon="6.77545">
        <ele>388.1</ele>
        <time>2017-10-04T16:51:34Z</time>
      </trkpt>
      <trkpt lat="47.52298" lon="6.77548">
        <ele>388.1</ele>
        <time>2017-10-04T16:51:36Z</time>
      </trkpt>
      <trkpt lat="47.52292" lon="6.77552">
        <ele>388</ele>
        <time>2017-10-04T16:51:38Z</time>
      </trkpt>
      <trkpt lat="47.52289" lon="6.77555">
        <ele>387.9</ele>
        <time>2017-10-04T16:51:39Z</time>
      </trkpt>
      <trkpt lat="47.52287" lon="6.77557">
        <ele>387.9</ele>
        <time>2017-10-04T16:51:40Z</time>
      </trkpt>
      <trkpt lat="47.52284" lon="6.77559">
        <ele>387.9</ele>
        <time>2017-10-04T16:51:41Z</time>
      </trkpt>
      <trkpt lat="47.52282" lon="6.77562">
        <ele>387.8</ele>
        <time>2017-10-04T16:51:42Z</time>
      </trkpt>
      <trkpt lat="47.52276" lon="6.77564">
        <ele>387.8</ele>
        <time>2017-10-04T16:51:44Z</time>
      </trkpt>
      <trkpt lat="47.52273" lon="6.77567">
        <ele>387.7</ele>
        <time>2017-10-04T16:51:45Z</time>
      </trkpt>
      <trkpt lat="47.52271" lon="6.7757">
        <ele>387.7</ele>
        <time>2017-10-04T16:51:46Z</time>
      </trkpt>
      <trkpt lat="47.52268" lon="6.77572">
        <ele>387.7</ele>
        <time>2017-10-04T16:51:47Z</time>
      </trkpt>
      <trkpt lat="47.52265" lon="6.77574">
        <ele>387.6</ele>
        <time>2017-10-04T16:51:48Z</time>
      </trkpt>
      <trkpt lat="47.52261" lon="6.77574">
        <ele>387.6</ele>
        <time>2017-10-04T16:51:49Z</time>
      </trkpt>
      <trkpt lat="47.52258" lon="6.77577">
        <ele>387.6</ele>
        <time>2017-10-04T16:51:50Z</time>
      </trkpt>
      <trkpt lat="47.52255" lon="6.77579">
        <ele>387.6</ele>
        <time>2017-10-04T16:51:51Z</time>
      </trkpt>
      <trkpt lat="47.52252" lon="6.77581">
        <ele>387.5</ele>
        <time>2017-10-04T16:51:52Z</time>
      </trkpt>
      <trkpt lat="47.52249" lon="6.77582">
        <ele>387.5</ele>
        <time>2017-10-04T16:51:53Z</time>
      </trkpt>
      <trkpt lat="47.52245" lon="6.77583">
        <ele>387.5</ele>
        <time>2017-10-04T16:51:54Z</time>
      </trkpt>
      <trkpt lat="47.5224" lon="6.77583">
        <ele>387.5</ele>
        <time>2017-10-04T16:51:56Z</time>
      </trkpt>
      <trkpt lat="47.52237" lon="6.77585">
        <ele>387.5</ele>
        <time>2017-10-04T16:51:57Z</time>
      </trkpt>
      <trkpt lat="47.52234" lon="6.77587">
        <ele>387.5</ele>
        <time>2017-10-04T16:51:58Z</time>
      </trkpt>
      <trkpt lat="47.52232" lon="6.77588">
        <ele>387.5</ele>
        <time>2017-10-04T16:51:59Z</time>
      </trkpt>
      <trkpt lat="47.52228" lon="6.77593">
        <ele>387.5</ele>
        <time>2017-10-04T16:52:01Z</time>
      </trkpt>
      <trkpt lat="47.52223" lon="6.77596">
        <ele>387.6</ele>
        <time>2017-10-04T16:52:03Z</time>
      </trkpt>
      <trkpt lat="47.52221" lon="6.77597">
        <ele>387.7</ele>
        <time>2017-10-04T16:52:04Z</time>
      </trkpt>
      <trkpt lat="47.52216" lon="6.776">
        <ele>387.9</ele>
        <time>2017-10-04T16:52:06Z</time>
      </trkpt>
      <trkpt lat="47.52213" lon="6.77602">
        <ele>388</ele>
        <time>2017-10-04T16:52:07Z</time>
      </trkpt>
      <trkpt lat="47.52211" lon="6.77605">
        <ele>388.1</ele>
        <time>2017-10-04T16:52:08Z</time>
      </trkpt>
      <trkpt lat="47.52208" lon="6.77607">
        <ele>388.2</ele>
        <time>2017-10-04T16:52:09Z</time>
      </trkpt>
      <trkpt lat="47.52206" lon="6.77609">
        <ele>388.3</ele>
        <time>2017-10-04T16:52:10Z</time>
      </trkpt>
      <trkpt lat="47.52204" lon="6.77612">
        <ele>388.4</ele>
        <time>2017-10-04T16:52:11Z</time>
      </trkpt>
      <trkpt lat="47.522" lon="6.77617">
        <ele>388.6</ele>
        <time>2017-10-04T16:52:13Z</time>
      </trkpt>
      <trkpt lat="47.52197" lon="6.77621">
        <ele>388.7</ele>
        <time>2017-10-04T16:52:14Z</time>
      </trkpt>
      <trkpt lat="47.52195" lon="6.77623">
        <ele>388.8</ele>
        <time>2017-10-04T16:52:15Z</time>
      </trkpt>
      <trkpt lat="47.5219" lon="6.77626">
        <ele>388.9</ele>
        <time>2017-10-04T16:52:17Z</time>
      </trkpt>
      <trkpt lat="47.52187" lon="6.77629">
        <ele>389</ele>
        <time>2017-10-04T16:52:18Z</time>
      </trkpt>
      <trkpt lat="47.52182" lon="6.77632">
        <ele>389.1</ele>
        <time>2017-10-04T16:52:20Z</time>
      </trkpt>
      <trkpt lat="47.52177" lon="6.77632">
        <ele>389.3</ele>
        <time>2017-10-04T16:52:22Z</time>
      </trkpt>
      <trkpt lat="47.52172" lon="6.77634">
        <ele>389.6</ele>
        <time>2017-10-04T16:52:24Z</time>
      </trkpt>
      <trkpt lat="47.52168" lon="6.77635">
        <ele>389.8</ele>
        <time>2017-10-04T16:52:25Z</time>
      </trkpt>
      <trkpt lat="47.52163" lon="6.77638">
        <ele>390.1</ele>
        <time>2017-10-04T16:52:27Z</time>
      </trkpt>
      <trkpt lat="47.52156" lon="6.7764">
        <ele>390.4</ele>
        <time>2017-10-04T16:52:29Z</time>
      </trkpt>
      <trkpt lat="47.52153" lon="6.77643">
        <ele>390.5</ele>
        <time>2017-10-04T16:52:31Z</time>
      </trkpt>
      <trkpt lat="47.52147" lon="6.77648">
        <ele>390.7</ele>
        <time>2017-10-04T16:52:33Z</time>
      </trkpt>
      <trkpt lat="47.52144" lon="6.7765">
        <ele>390.8</ele>
        <time>2017-10-04T16:52:34Z</time>
      </trkpt>
      <trkpt lat="47.52141" lon="6.77651">
        <ele>390.9</ele>
        <time>2017-10-04T16:52:35Z</time>
      </trkpt>
      <trkpt lat="47.52138" lon="6.77652">
        <ele>391</ele>
        <time>2017-10-04T16:52:36Z</time>
      </trkpt>
      <trkpt lat="47.52135" lon="6.77655">
        <ele>391.1</ele>
        <time>2017-10-04T16:52:37Z</time>
      </trkpt>
      <trkpt lat="47.52133" lon="6.77657">
        <ele>391.2</ele>
        <time>2017-10-04T16:52:38Z</time>
      </trkpt>
      <trkpt lat="47.5213" lon="6.77659">
        <ele>391.3</ele>
        <time>2017-10-04T16:52:39Z</time>
      </trkpt>
      <trkpt lat="47.52127" lon="6.7766">
        <ele>391.5</ele>
        <time>2017-10-04T16:52:40Z</time>
      </trkpt>
      <trkpt lat="47.52122" lon="6.77662">
        <ele>391.8</ele>
        <time>2017-10-04T16:52:42Z</time>
      </trkpt>
      <trkpt lat="47.52117" lon="6.77666">
        <ele>392</ele>
        <time>2017-10-04T16:52:43Z</time>
      </trkpt>
      <trkpt lat="47.52115" lon="6.77668">
        <ele>392.2</ele>
        <time>2017-10-04T16:52:44Z</time>
      </trkpt>
      <trkpt lat="47.5211" lon="6.7767">
        <ele>392.4</ele>
        <time>2017-10-04T16:52:46Z</time>
      </trkpt>
      <trkpt lat="47.52106" lon="6.77674">
        <ele>392.6</ele>
        <time>2017-10-04T16:52:48Z</time>
      </trkpt>
      <trkpt lat="47.52102" lon="6.77676">
        <ele>392.8</ele>
        <time>2017-10-04T16:52:50Z</time>
      </trkpt>
      <trkpt lat="47.52098" lon="6.77678">
        <ele>392.9</ele>
        <time>2017-10-04T16:52:52Z</time>
      </trkpt>
      <trkpt lat="47.52094" lon="6.7767">
        <ele>392.9</ele>
        <time>2017-10-04T16:52:54Z</time>
      </trkpt>
      <trkpt lat="47.52094" lon="6.77666">
        <ele>392.8</ele>
        <time>2017-10-04T16:52:55Z</time>
      </trkpt>
      <trkpt lat="47.52093" lon="6.77657">
        <ele>392.7</ele>
        <time>2017-10-04T16:52:56Z</time>
      </trkpt>
      <trkpt lat="47.52093" lon="6.77648">
        <ele>392.7</ele>
        <time>2017-10-04T16:52:57Z</time>
      </trkpt>
      <trkpt lat="47.52094" lon="6.77644">
        <ele>392.6</ele>
        <time>2017-10-04T16:52:58Z</time>
      </trkpt>
      <trkpt lat="47.52094" lon="6.77636">
        <ele>392.4</ele>
        <time>2017-10-04T16:53:00Z</time>
      </trkpt>
      <trkpt lat="47.52095" lon="6.77632">
        <ele>392.3</ele>
        <time>2017-10-04T16:53:01Z</time>
      </trkpt>
      <trkpt lat="47.52095" lon="6.77628">
        <ele>392.2</ele>
        <time>2017-10-04T16:53:02Z</time>
      </trkpt>
      <trkpt lat="47.52095" lon="6.77619">
        <ele>391.9</ele>
        <time>2017-10-04T16:53:04Z</time>
      </trkpt>
      <trkpt lat="47.52096" lon="6.77612">
        <ele>391.7</ele>
        <time>2017-10-04T16:53:06Z</time>
      </trkpt>
      <trkpt lat="47.52095" lon="6.77605">
        <ele>391.6</ele>
        <time>2017-10-04T16:53:07Z</time>
      </trkpt>
      <trkpt lat="47.52096" lon="6.77593">
        <ele>391.5</ele>
        <time>2017-10-04T16:53:09Z</time>
      </trkpt>
      <trkpt lat="47.52097" lon="6.77588">
        <ele>391.4</ele>
        <time>2017-10-04T16:53:10Z</time>
      </trkpt>
      <trkpt lat="47.52097" lon="6.77583">
        <ele>391.4</ele>
        <time>2017-10-04T16:53:11Z</time>
      </trkpt>
      <trkpt lat="47.52097" lon="6.77579">
        <ele>391.2</ele>
        <time>2017-10-04T16:53:12Z</time>
      </trkpt>
      <trkpt lat="47.52098" lon="6.77574">
        <ele>391.1</ele>
        <time>2017-10-04T16:53:13Z</time>
      </trkpt>
      <trkpt lat="47.52098" lon="6.7757">
        <ele>390.9</ele>
        <time>2017-10-04T16:53:14Z</time>
      </trkpt>
      <trkpt lat="47.52097" lon="6.77566">
        <ele>390.7</ele>
        <time>2017-10-04T16:53:15Z</time>
      </trkpt>
      <trkpt lat="47.52097" lon="6.77562">
        <ele>390.5</ele>
        <time>2017-10-04T16:53:16Z</time>
      </trkpt>
      <trkpt lat="47.52096" lon="6.77558">
        <ele>390.3</ele>
        <time>2017-10-04T16:53:17Z</time>
      </trkpt>
      <trkpt lat="47.52094" lon="6.77554">
        <ele>390.1</ele>
        <time>2017-10-04T16:53:18Z</time>
      </trkpt>
      <trkpt lat="47.52092" lon="6.7755">
        <ele>389.9</ele>
        <time>2017-10-04T16:53:19Z</time>
      </trkpt>
      <trkpt lat="47.5209" lon="6.77547">
        <ele>389.8</ele>
        <time>2017-10-04T16:53:20Z</time>
      </trkpt>
      <trkpt lat="47.52088" lon="6.77545">
        <ele>389.6</ele>
        <time>2017-10-04T16:53:21Z</time>
      </trkpt>
      <trkpt lat="47.52083" lon="6.77543">
        <ele>389.4</ele>
        <time>2017-10-04T16:53:23Z</time>
      </trkpt>
      <trkpt lat="47.52077" lon="6.77542">
        <ele>389.3</ele>
        <time>2017-10-04T16:53:25Z</time>
      </trkpt>
      <trkpt lat="47.52074" lon="6.77542">
        <ele>389.2</ele>
        <time>2017-10-04T16:53:26Z</time>
      </trkpt>
      <trkpt lat="47.52071" lon="6.77542">
        <ele>389.2</ele>
        <time>2017-10-04T16:53:27Z</time>
      </trkpt>
      <trkpt lat="47.52068" lon="6.77542">
        <ele>389.2</ele>
        <time>2017-10-04T16:53:28Z</time>
      </trkpt>
      <trkpt lat="47.52065" lon="6.77541">
        <ele>389.2</ele>
        <time>2017-10-04T16:53:29Z</time>
      </trkpt>
      <trkpt lat="47.52062" lon="6.7754">
        <ele>389.2</ele>
        <time>2017-10-04T16:53:30Z</time>
      </trkpt>
      <trkpt lat="47.52059" lon="6.7754">
        <ele>389.2</ele>
        <time>2017-10-04T16:53:31Z</time>
      </trkpt>
      <trkpt lat="47.52055" lon="6.7754">
        <ele>389.3</ele>
        <time>2017-10-04T16:53:33Z</time>
      </trkpt>
      <trkpt lat="47.52052" lon="6.77539">
        <ele>389.3</ele>
        <time>2017-10-04T16:53:34Z</time>
      </trkpt>
      <trkpt lat="47.52048" lon="6.77539">
        <ele>389.3</ele>
        <time>2017-10-04T16:53:35Z</time>
      </trkpt>
      <trkpt lat="47.52043" lon="6.77539">
        <ele>389.3</ele>
        <time>2017-10-04T16:53:37Z</time>
      </trkpt>
      <trkpt lat="47.5204" lon="6.77538">
        <ele>389.3</ele>
        <time>2017-10-04T16:53:38Z</time>
      </trkpt>
      <trkpt lat="47.52035" lon="6.77539">
        <ele>389.3</ele>
        <time>2017-10-04T16:53:40Z</time>
      </trkpt>
      <trkpt lat="47.52032" lon="6.7754">
        <ele>389.3</ele>
        <time>2017-10-04T16:53:41Z</time>
      </trkpt>
      <trkpt lat="47.52029" lon="6.77539">
        <ele>389.3</ele>
        <time>2017-10-04T16:53:42Z</time>
      </trkpt>
      <trkpt lat="47.52026" lon="6.77538">
        <ele>389.2</ele>
        <time>2017-10-04T16:53:43Z</time>
      </trkpt>
      <trkpt lat="47.52024" lon="6.77536">
        <ele>389.2</ele>
        <time>2017-10-04T16:53:44Z</time>
      </trkpt>
      <trkpt lat="47.5202" lon="6.77535">
        <ele>389.1</ele>
        <time>2017-10-04T16:53:45Z</time>
      </trkpt>
      <trkpt lat="47.52017" lon="6.77535">
        <ele>389.1</ele>
        <time>2017-10-04T16:53:46Z</time>
      </trkpt>
      <trkpt lat="47.52013" lon="6.77535">
        <ele>389.1</ele>
        <time>2017-10-04T16:53:47Z</time>
      </trkpt>
      <trkpt lat="47.52008" lon="6.77534">
        <ele>389</ele>
        <time>2017-10-04T16:53:48Z</time>
      </trkpt>
      <trkpt lat="47.52003" lon="6.77533">
        <ele>388.8</ele>
        <time>2017-10-04T16:53:50Z</time>
      </trkpt>
      <trkpt lat="47.52" lon="6.77532">
        <ele>388.7</ele>
        <time>2017-10-04T16:53:51Z</time>
      </trkpt>
      <trkpt lat="47.51995" lon="6.77531">
        <ele>388.4</ele>
        <time>2017-10-04T16:53:53Z</time>
      </trkpt>
      <trkpt lat="47.51992" lon="6.77531">
        <ele>388.2</ele>
        <time>2017-10-04T16:53:54Z</time>
      </trkpt>
      <trkpt lat="47.51989" lon="6.77531">
        <ele>388.1</ele>
        <time>2017-10-04T16:53:55Z</time>
      </trkpt>
      <trkpt lat="47.51986" lon="6.77529">
        <ele>388</ele>
        <time>2017-10-04T16:53:56Z</time>
      </trkpt>
      <trkpt lat="47.51983" lon="6.77528">
        <ele>388</ele>
        <time>2017-10-04T16:53:57Z</time>
      </trkpt>
      <trkpt lat="47.5198" lon="6.77529">
        <ele>388</ele>
        <time>2017-10-04T16:53:58Z</time>
      </trkpt>
      <trkpt lat="47.51976" lon="6.77528">
        <ele>388</ele>
        <time>2017-10-04T16:54:00Z</time>
      </trkpt>
      <trkpt lat="47.51973" lon="6.77527">
        <ele>388</ele>
        <time>2017-10-04T16:54:01Z</time>
      </trkpt>
      <trkpt lat="47.5197" lon="6.77525">
        <ele>388</ele>
        <time>2017-10-04T16:54:02Z</time>
      </trkpt>
      <trkpt lat="47.51966" lon="6.77525">
        <ele>388.1</ele>
        <time>2017-10-04T16:54:03Z</time>
      </trkpt>
      <trkpt lat="47.51963" lon="6.77525">
        <ele>388.1</ele>
        <time>2017-10-04T16:54:04Z</time>
      </trkpt>
      <trkpt lat="47.5196" lon="6.77524">
        <ele>388.2</ele>
        <time>2017-10-04T16:54:05Z</time>
      </trkpt>
      <trkpt lat="47.51956" lon="6.77523">
        <ele>388.2</ele>
        <time>2017-10-04T16:54:06Z</time>
      </trkpt>
      <trkpt lat="47.51953" lon="6.77522">
        <ele>388.2</ele>
        <time>2017-10-04T16:54:07Z</time>
      </trkpt>
      <trkpt lat="47.5195" lon="6.77521">
        <ele>388.3</ele>
        <time>2017-10-04T16:54:08Z</time>
      </trkpt>
      <trkpt lat="47.51947" lon="6.7752">
        <ele>388.3</ele>
        <time>2017-10-04T16:54:09Z</time>
      </trkpt>
      <trkpt lat="47.51944" lon="6.77518">
        <ele>388.4</ele>
        <time>2017-10-04T16:54:10Z</time>
      </trkpt>
      <trkpt lat="47.51941" lon="6.77518">
        <ele>388.5</ele>
        <time>2017-10-04T16:54:11Z</time>
      </trkpt>
      <trkpt lat="47.51936" lon="6.77517">
        <ele>388.3</ele>
        <time>2017-10-04T16:54:12Z</time>
      </trkpt>
      <trkpt lat="47.51933" lon="6.77515">
        <ele>388.2</ele>
        <time>2017-10-04T16:54:13Z</time>
      </trkpt>
      <trkpt lat="47.5193" lon="6.77514">
        <ele>388.1</ele>
        <time>2017-10-04T16:54:14Z</time>
      </trkpt>
      <trkpt lat="47.51928" lon="6.77513">
        <ele>387.9</ele>
        <time>2017-10-04T16:54:15Z</time>
      </trkpt>
      <trkpt lat="47.51925" lon="6.77512">
        <ele>387.8</ele>
        <time>2017-10-04T16:54:16Z</time>
      </trkpt>
      <trkpt lat="47.51922" lon="6.77512">
        <ele>387.6</ele>
        <time>2017-10-04T16:54:17Z</time>
      </trkpt>
      <trkpt lat="47.51919" lon="6.77511">
        <ele>387.4</ele>
        <time>2017-10-04T16:54:18Z</time>
      </trkpt>
      <trkpt lat="47.51914" lon="6.7751">
        <ele>387.1</ele>
        <time>2017-10-04T16:54:20Z</time>
      </trkpt>
      <trkpt lat="47.51909" lon="6.7751">
        <ele>386.8</ele>
        <time>2017-10-04T16:54:22Z</time>
      </trkpt>
      <trkpt lat="47.51906" lon="6.77509">
        <ele>386.6</ele>
        <time>2017-10-04T16:54:23Z</time>
      </trkpt>
      <trkpt lat="47.51904" lon="6.77508">
        <ele>386.5</ele>
        <time>2017-10-04T16:54:24Z</time>
      </trkpt>
      <trkpt lat="47.51898" lon="6.77506">
        <ele>386.2</ele>
        <time>2017-10-04T16:54:26Z</time>
      </trkpt>
      <trkpt lat="47.51895" lon="6.77504">
        <ele>386.1</ele>
        <time>2017-10-04T16:54:27Z</time>
      </trkpt>
      <trkpt lat="47.51892" lon="6.77503">
        <ele>385.9</ele>
        <time>2017-10-04T16:54:28Z</time>
      </trkpt>
      <trkpt lat="47.51889" lon="6.77503">
        <ele>385.7</ele>
        <time>2017-10-04T16:54:29Z</time>
      </trkpt>
      <trkpt lat="47.51886" lon="6.77503">
        <ele>385.5</ele>
        <time>2017-10-04T16:54:30Z</time>
      </trkpt>
      <trkpt lat="47.51884" lon="6.77503">
        <ele>385.4</ele>
        <time>2017-10-04T16:54:31Z</time>
      </trkpt>
      <trkpt lat="47.51879" lon="6.77503">
        <ele>385.2</ele>
        <time>2017-10-04T16:54:33Z</time>
      </trkpt>
      <trkpt lat="47.51875" lon="6.77504">
        <ele>385</ele>
        <time>2017-10-04T16:54:35Z</time>
      </trkpt>
      <trkpt lat="47.5187" lon="6.77505">
        <ele>384.8</ele>
        <time>2017-10-04T16:54:37Z</time>
      </trkpt>
      <trkpt lat="47.51866" lon="6.77508">
        <ele>384.5</ele>
        <time>2017-10-04T16:54:39Z</time>
      </trkpt>
      <trkpt lat="47.51862" lon="6.77511">
        <ele>384.3</ele>
        <time>2017-10-04T16:54:41Z</time>
      </trkpt>
      <trkpt lat="47.51859" lon="6.77513">
        <ele>384.2</ele>
        <time>2017-10-04T16:54:42Z</time>
      </trkpt>
      <trkpt lat="47.51856" lon="6.77514">
        <ele>384</ele>
        <time>2017-10-04T16:54:43Z</time>
      </trkpt>
      <trkpt lat="47.51853" lon="6.77514">
        <ele>383.7</ele>
        <time>2017-10-04T16:54:44Z</time>
      </trkpt>
      <trkpt lat="47.51848" lon="6.77513">
        <ele>383.4</ele>
        <time>2017-10-04T16:54:46Z</time>
      </trkpt>
      <trkpt lat="47.51842" lon="6.7751">
        <ele>383.3</ele>
        <time>2017-10-04T16:54:48Z</time>
      </trkpt>
      <trkpt lat="47.51839" lon="6.77509">
        <ele>383.2</ele>
        <time>2017-10-04T16:54:49Z</time>
      </trkpt>
      <trkpt lat="47.51836" lon="6.77508">
        <ele>383.1</ele>
        <time>2017-10-04T16:54:50Z</time>
      </trkpt>
      <trkpt lat="47.51833" lon="6.77507">
        <ele>383</ele>
        <time>2017-10-04T16:54:51Z</time>
      </trkpt>
      <trkpt lat="47.5183" lon="6.77505">
        <ele>382.8</ele>
        <time>2017-10-04T16:54:52Z</time>
      </trkpt>
      <trkpt lat="47.51827" lon="6.77504">
        <ele>382.7</ele>
        <time>2017-10-04T16:54:53Z</time>
      </trkpt>
      <trkpt lat="47.51821" lon="6.77502">
        <ele>382.5</ele>
        <time>2017-10-04T16:54:54Z</time>
      </trkpt>
      <trkpt lat="47.51819" lon="6.77501">
        <ele>382.4</ele>
        <time>2017-10-04T16:54:55Z</time>
      </trkpt>
      <trkpt lat="47.51816" lon="6.775">
        <ele>382.4</ele>
        <time>2017-10-04T16:54:57Z</time>
      </trkpt>
      <trkpt lat="47.51813" lon="6.77498">
        <ele>382.4</ele>
        <time>2017-10-04T16:54:59Z</time>
      </trkpt>
      <trkpt lat="47.51808" lon="6.77494">
        <ele>382.5</ele>
        <time>2017-10-04T16:55:01Z</time>
      </trkpt>
      <trkpt lat="47.51805" lon="6.77489">
        <ele>382.6</ele>
        <time>2017-10-04T16:55:02Z</time>
      </trkpt>
      <trkpt lat="47.51802" lon="6.77488">
        <ele>382.7</ele>
        <time>2017-10-04T16:55:03Z</time>
      </trkpt>
      <trkpt lat="47.51799" lon="6.77482">
        <ele>382.8</ele>
        <time>2017-10-04T16:55:05Z</time>
      </trkpt>
      <trkpt lat="47.51798" lon="6.77478">
        <ele>382.8</ele>
        <time>2017-10-04T16:55:07Z</time>
      </trkpt>
      <trkpt lat="47.51795" lon="6.77474">
        <ele>382.9</ele>
        <time>2017-10-04T16:55:16Z</time>
      </trkpt>
      <trkpt lat="47.51794" lon="6.7747">
        <ele>383</ele>
        <time>2017-10-04T16:55:19Z</time>
      </trkpt>
      <trkpt lat="47.51794" lon="6.77465">
        <ele>383</ele>
        <time>2017-10-04T16:55:29Z</time>
      </trkpt>
      <trkpt lat="47.51795" lon="6.77459">
        <ele>383.1</ele>
        <time>2017-10-04T16:55:30Z</time>
      </trkpt>
      <trkpt lat="47.51796" lon="6.77463">
        <ele>383.1</ele>
        <time>2017-10-04T16:56:10Z</time>
      </trkpt>
    </trkseg>
  </trk>
</gpx>